Darstellungsparameter: Aktuell verwendete Einstellungen:
Skalierung der Graphiken ... ?
xyx+y,   Skalierungsfaktor:      Skalierung: Modus: x, Faktor: 1
Darstellungszeitraum ... ?
Vom - - bis: - -   Zeitraum: 07.06.2009 - 06.12.2009
Min/Max/Avg-Anzeige ... ?
Zeige MMA aktuell
Zeige MMA Monat
Zeige MMA alles
Zeige --A aktuell
Zeige --A Monat
Zeige --A alles
Keine MMA-Anzeige
MMA:
Average (ber die Originaldaten)
MMA-Basis: 05.11.2014 - 07.12.2014
Quicknavigation für Darstellung... ?
Tage:      1T, 2T, 3T, 5T -1T -2T -3T -5T +1T +2T +3T +5T
Wochen: 1W, 2W, 3W -1W -2W -3W +1W +2W +3W
Monate: 1M, 3M, 6M -1M -3M -6M +1M +3M +6M
Jahre:    1J, 3J, 5J, 10J -1J -3J -5J -10J +1J +3J +5J +10J
Nutze für die Darstellung ... ?
Originaldaten oder Mittelwerte auf ...
Stundenbasis Tagesbasis Wochenbasis
Monatsbasis Jahresbasis      Datenbasis: Original-Daten
Darstellen als:
Statistik (Auto) Statistik J:M      Darstellung:
Zur Graphik,    zurück zur Übersicht aller Sensoren.
 
Tabellarische Datenbersicht: ?
 
Sensor: Nr:Datum:Temp:Abs-Feuchte:Windchill:Wind:
Aussen-T/F 1 07-06-2009 00:07:59 8.5 C 7.85 g/m*3 8.5 C 0 km/h
2 07-06-2009 00:19:59 8.3 C 7.75 g/m*3 8.3 C 0 km/h
3 07-06-2009 00:31:58 8.1 C 7.66 g/m*3 8.1 C 0 km/h
4 07-06-2009 00:43:58 7.9 C 7.64 g/m*3 7.9 C 0 km/h
5 07-06-2009 00:55:58 8 C 7.61 g/m*3 8 C 0 km/h
6 07-06-2009 01:07:57 8 C 7.69 g/m*3 8 C 0 km/h
7 07-06-2009 01:19:58 8 C 7.69 g/m*3 8 C 0 km/h
8 07-06-2009 01:31:58 7.9 C 7.72 g/m*3 7.9 C 0 km/h
9 07-06-2009 01:43:58 7.9 C 7.72 g/m*3 7.9 C 0 km/h
10 07-06-2009 01:55:57 8.1 C 7.74 g/m*3 8.1 C 0 km/h
11 07-06-2009 02:07:58 8.2 C 7.87 g/m*3 8.2 C 0 km/h
12 07-06-2009 02:19:57 8.4 C 7.97 g/m*3 8.4 C 0 km/h
13 07-06-2009 02:31:57 8.4 C 7.97 g/m*3 8.4 C 0 km/h
14 07-06-2009 02:43:57 8.4 C 7.97 g/m*3 8.4 C 0 km/h
15 07-06-2009 02:56:59 8.4 C 7.97 g/m*3 8.4 C 0 km/h
16 07-06-2009 03:08:59 8.5 C 8.11 g/m*3 8.5 C 0 km/h
17 07-06-2009 03:20:59 8.5 C 8.11 g/m*3 8.5 C 0 km/h
18 07-06-2009 03:32:58 8.5 C 8.11 g/m*3 8.5 C 0 km/h
19 07-06-2009 03:44:58 8.4 C 8.06 g/m*3 8.4 C 0 km/h
20 07-06-2009 03:56:58 8.4 C 8.06 g/m*3 8.4 C 0 km/h
21 07-06-2009 04:08:58 8.5 C 8.11 g/m*3 8.5 C 0 km/h
22 07-06-2009 04:20:58 8.5 C 8.11 g/m*3 8.5 C 0 km/h
23 07-06-2009 04:32:58 8.5 C 8.11 g/m*3 8.5 C 0 km/h
24 07-06-2009 04:44:57 8.5 C 8.11 g/m*3 8.5 C 0 km/h
25 07-06-2009 04:56:57 8.5 C 8.11 g/m*3 8.5 C 0 km/h
Sensor: Nr:Datum:Temp:Abs-Feuchte:Windchill:Wind:
Aussen-T/F 26 07-06-2009 05:08:58 8.6 C 8.16 g/m*3 8.6 C 0 km/h
27 07-06-2009 05:20:58 8.6 C 8.16 g/m*3 8.6 C 0 km/h
28 07-06-2009 05:32:57 8.6 C 8.16 g/m*3 8.6 C 0 km/h
29 07-06-2009 05:44:57 8.7 C 8.22 g/m*3 8.7 C 0 km/h
30 07-06-2009 05:56:57 8.8 C 8.27 g/m*3 8.8 C 0 km/h
31 07-06-2009 06:08:57 8.9 C 8.32 g/m*3 8.9 C 0 km/h
32 07-06-2009 06:20:57 9.1 C 8.34 g/m*3 9.1 C 0 km/h
33 07-06-2009 06:32:57 9.3 C 8.45 g/m*3 9.3 C 0 km/h
34 07-06-2009 06:44:57 9.5 C 8.56 g/m*3 9.5 C 0 km/h
35 07-06-2009 06:56:57 9.5 C 8.56 g/m*3 9.5 C 0 km/h
36 07-06-2009 07:08:57 9.6 C 8.61 g/m*3 9.6 C 0 km/h
37 07-06-2009 07:20:56 10 C 8.74 g/m*3 10 C 0 km/h
38 07-06-2009 07:32:57 10.2 C 8.76 g/m*3 10.2 C 0 km/h
39 07-06-2009 07:44:01 10.3 C 8.43 g/m*3 10.3 C 0 km/h
40 07-06-2009 07:56:01 10.7 C 8.45 g/m*3 10.7 C 0 km/h
41 07-06-2009 08:08:01 11 C 8.01 g/m*3 11 C 0 km/h
42 07-06-2009 08:20:01 11.4 C 8.01 g/m*3 11.4 C 0 km/h
43 07-06-2009 08:32:01 11.7 C 7.84 g/m*3 11.7 C 0 km/h
44 07-06-2009 08:44:01 11.9 C 7.52 g/m*3 11.9 C 0 km/h
45 07-06-2009 08:56:01 12.4 C 7.32 g/m*3 12.4 C 0 km/h
46 07-06-2009 09:08:01 13.1 C 7.42 g/m*3 13.1 C 0 km/h
47 07-06-2009 09:20:01 13.6 C 7.3 g/m*3 13.6 C 0 km/h
48 07-06-2009 09:32:00 14 C 7.48 g/m*3 14 C 0 km/h
49 07-06-2009 09:44:00 14.1 C 7.52 g/m*3 14.1 C 0 km/h
50 07-06-2009 09:56:00 14.3 C 7.62 g/m*3 14.3 C 0 km/h
Sensor: Nr:Datum:Temp:Abs-Feuchte:Windchill:Wind:
Aussen-T/F 51 07-06-2009 10:08:00 14.4 C 7.42 g/m*3 14.4 C 0 km/h
52 07-06-2009 10:20:59 14.9 C 7.77 g/m*3 14.9 C 0 km/h
53 07-06-2009 10:32:00 15.5 C 7.93 g/m*3 15.5 C 0 km/h
54 07-06-2009 10:44:00 15.9 C 7.72 g/m*3 15.9 C 0 km/h
55 07-06-2009 10:56:59 16.4 C 7.54 g/m*3 16.4 C 0 km/h
56 07-06-2009 11:08:59 16.9 C 7.91 g/m*3 16.9 C 0 km/h
57 07-06-2009 11:20:00 17.2 C 7.91 g/m*3 17.2 C 0 km/h
58 07-06-2009 11:32:59 17 C 7.81 g/m*3 17 C 0 km/h
59 07-06-2009 11:44:59 16.1 C 7.81 g/m*3 16.1 C 0 km/h
60 07-06-2009 11:56:59 17.5 C 7.9 g/m*3 17.5 C 0 km/h
61 07-06-2009 12:08:59 17.1 C 7.42 g/m*3 17.1 C 0 km/h
62 07-06-2009 12:20:59 17.7 C 7.69 g/m*3 17.7 C 0 km/h
63 07-06-2009 12:32:59 17.3 C 7.81 g/m*3 17.3 C 0 km/h
64 07-06-2009 12:44:58 17.1 C 8.3 g/m*3 17.1 C 0 km/h
65 07-06-2009 12:56:58 16.8 C 8.86 g/m*3 16.8 C 0 km/h
66 07-06-2009 13:08:59 16.6 C 8.48 g/m*3 16.6 C 0 km/h
67 07-06-2009 13:20:59 16.4 C 8.79 g/m*3 16.4 C 0 km/h
68 07-06-2009 13:32:59 17.4 C 8.89 g/m*3 17.4 C 0 km/h
69 07-06-2009 13:44:58 19.3 C 8.13 g/m*3 19.3 C 0 km/h
70 07-06-2009 13:56:58 19.2 C 7.91 g/m*3 19.2 C 0 km/h
71 07-06-2009 14:08:57 19.4 C 8.34 g/m*3 19.4 C 0 km/h
72 07-06-2009 14:20:58 18.9 C 8.26 g/m*3 18.9 C 0 km/h
73 07-06-2009 14:32:58 18.9 C 8.42 g/m*3 18.9 C 0 km/h
74 07-06-2009 14:44:57 18.7 C 8.65 g/m*3 18.7 C 0 km/h
75 07-06-2009 14:56:57 19.1 C 8.69 g/m*3 19.1 C 0 km/h
Sensor: Nr:Datum:Temp:Abs-Feuchte:Windchill:Wind:
Aussen-T/F 76 07-06-2009 15:08:58 19.1 C 8.36 g/m*3 19.1 C 0 km/h
77 07-06-2009 15:20:57 17.3 C 8.99 g/m*3 17.3 C 0 km/h
78 07-06-2009 15:32:58 16 C 10.22 g/m*3 16 C 0 km/h
79 07-06-2009 15:44:57 15.5 C 10.31 g/m*3 15.5 C 0 km/h
80 07-06-2009 15:56:57 15.1 C 10.45 g/m*3 15.1 C 0 km/h
81 07-06-2009 16:08:57 14.8 C 10.64 g/m*3 14.8 C 0 km/h
82 07-06-2009 16:20:56 15.6 C 11.57 g/m*3 15.6 C 0 km/h
83 07-06-2009 16:32:57 16 C 11.72 g/m*3 16 C 0 km/h
84 07-06-2009 16:44:56 16.3 C 11.52 g/m*3 16.3 C 0 km/h
85 07-06-2009 16:56:56 17.2 C 11.57 g/m*3 17.2 C 0 km/h
86 07-06-2009 17:08:56 17.6 C 10.8 g/m*3 17.6 C 0 km/h
87 07-06-2009 17:20:56 18.9 C 10.85 g/m*3 18.9 C 0 km/h
88 07-06-2009 17:32:56 19.5 C 10.07 g/m*3 19.5 C 0 km/h
89 07-06-2009 17:44:56 18.4 C 9.75 g/m*3 18.4 C 0 km/h
90 07-06-2009 17:56:56 18.3 C 9.85 g/m*3 18.3 C 0 km/h
91 07-06-2009 18:08:55 18.8 C 9.34 g/m*3 18.8 C 0 km/h
92 07-06-2009 18:20:56 17.3 C 7.51 g/m*3 17.3 C 0 km/h
93 07-06-2009 18:32:55 17 C 8.54 g/m*3 17 C 0 km/h
94 07-06-2009 18:44:55 18 C 8.29 g/m*3 18 C 0 km/h
95 07-06-2009 18:56:55 19.2 C 7.75 g/m*3 19.2 C 0 km/h
96 07-06-2009 19:08:55 20.4 C 7.61 g/m*3 20.4 C 0 km/h
97 07-06-2009 19:20:55 20.4 C 7.25 g/m*3 20.4 C 0 km/h
98 07-06-2009 19:32:55 20.3 C 7.03 g/m*3 20.3 C 0 km/h
99 07-06-2009 19:44:55 19.8 C 7.34 g/m*3 19.8 C 0 km/h
100 07-06-2009 19:56:55 20.3 C 7.39 g/m*3 20.3 C 0 km/h
Sensor: Nr:Datum:Temp:Abs-Feuchte:Windchill:Wind:
Aussen-T/F 101 07-06-2009 20:08:54 20.3 C 7.39 g/m*3 20.3 C 0 km/h
102 07-06-2009 20:20:55 20 C 7.09 g/m*3 20 C 0 km/h
103 07-06-2009 20:32:54 18.7 C 6.88 g/m*3 18.7 C 0 km/h
104 07-06-2009 20:44:54 17.6 C 7.05 g/m*3 17.6 C 0 km/h
105 07-06-2009 20:56:55 16.6 C 7.06 g/m*3 16.6 C 0 km/h
106 07-06-2009 21:08:53 16.1 C 6.99 g/m*3 16.1 C 0 km/h
107 07-06-2009 21:20:54 15.8 C 7.54 g/m*3 15.8 C 0 km/h
108 07-06-2009 21:32:54 15.2 C 7.79 g/m*3 15.2 C 0 km/h
109 07-06-2009 21:44:53 14.7 C 7.93 g/m*3 14.7 C 0 km/h
110 07-06-2009 21:56:53 14.1 C 7.77 g/m*3 14.1 C 0 km/h
111 07-06-2009 22:09:55 13.5 C 7.37 g/m*3 13.5 C 0 km/h
112 07-06-2009 22:21:55 13 C 7.03 g/m*3 13 C 0 km/h
113 07-06-2009 22:33:55 12.7 C 7.01 g/m*3 12.7 C 0 km/h
114 07-06-2009 22:45:55 12.5 C 6.93 g/m*3 12.5 C 0 km/h
115 07-06-2009 22:57:55 12.3 C 6.84 g/m*3 12.3 C 0 km/h
116 07-06-2009 23:09:55 12 C 6.71 g/m*3 12 C 0 km/h
117 07-06-2009 23:21:55 11.8 C 6.84 g/m*3 11.8 C 0 km/h
118 07-06-2009 23:33:55 11.6 C 6.96 g/m*3 11.6 C 0 km/h
119 07-06-2009 23:45:55 11.5 C 7.02 g/m*3 11.5 C 0 km/h
120 07-06-2009 23:57:55 11.3 C 7.04 g/m*3 11.3 C 0 km/h
121 08-06-2009 00:09:55 11.2 C 7.1 g/m*3 11.2 C 0 km/h
122 08-06-2009 00:21:55 11.3 C 7.14 g/m*3 11.3 C 0 km/h
123 08-06-2009 00:33:55 10.8 C 7.12 g/m*3 10.8 C 0 km/h
124 08-06-2009 00:45:55 10.6 C 7.22 g/m*3 10.6 C 0 km/h
125 08-06-2009 00:57:56 10.7 C 7.17 g/m*3 10.7 C 0 km/h
Sensor: Nr:Datum:Temp:Abs-Feuchte:Windchill:Wind:
Aussen-T/F 126 08-06-2009 01:09:56 10.7 C 7.07 g/m*3 10.7 C 0 km/h
127 08-06-2009 01:21:56 10.4 C 7.04 g/m*3 10.4 C 0 km/h
128 08-06-2009 01:33:56 10.1 C 7.09 g/m*3 10.1 C 0 km/h
129 08-06-2009 01:45:56 10.2 C 6.95 g/m*3 10.2 C 0 km/h
130 08-06-2009 01:57:56 10.6 C 6.83 g/m*3 10.6 C 0 km/h
131 08-06-2009 02:09:56 11.4 C 6.57 g/m*3 11.4 C 0 km/h
132 08-06-2009 02:21:56 11.7 C 6.69 g/m*3 11.7 C 0 km/h
133 08-06-2009 02:33:56 11.6 C 6.76 g/m*3 11.6 C 0 km/h
134 08-06-2009 02:45:56 11.6 C 6.76 g/m*3 11.6 C 0 km/h
135 08-06-2009 02:57:56 11.8 C 6.84 g/m*3 11.8 C 0 km/h
136 08-06-2009 03:09:56 11 C 7.41 g/m*3 11 C 0 km/h
137 08-06-2009 03:21:56 10.9 C 7.76 g/m*3 10.9 C 0 km/h
138 08-06-2009 03:33:56 11.2 C 7.8 g/m*3 11.2 C 0 km/h
139 08-06-2009 03:45:56 11.1 C 7.66 g/m*3 11.1 C 0 km/h
140 08-06-2009 03:57:56 11 C 7.61 g/m*3 11 C 0 km/h
141 08-06-2009 04:09:56 11.1 C 7.76 g/m*3 11.1 C 0 km/h
142 08-06-2009 04:21:56 11.1 C 7.76 g/m*3 11.1 C 0 km/h
143 08-06-2009 04:33:56 11.1 C 7.76 g/m*3 11.1 C 0 km/h
144 08-06-2009 04:45:56 11.1 C 7.76 g/m*3 11.1 C 0 km/h
145 08-06-2009 04:57:57 11.1 C 7.86 g/m*3 11.1 C 0 km/h
146 08-06-2009 05:09:57 11.2 C 7.91 g/m*3 11.2 C 0 km/h
147 08-06-2009 05:21:57 11.2 C 7.8 g/m*3 11.2 C 0 km/h
148 08-06-2009 05:33:57 11.2 C 7.91 g/m*3 11.2 C 0 km/h
149 08-06-2009 05:45:57 11.3 C 7.96 g/m*3 11.3 C 0 km/h
150 08-06-2009 05:57:57 11.5 C 7.75 g/m*3 11.5 C 0 km/h
Sensor: Nr:Datum:Temp:Abs-Feuchte:Windchill:Wind:
Aussen-T/F 151 08-06-2009 06:09:57 11.5 C 7.85 g/m*3 11.5 C 0 km/h
152 08-06-2009 06:21:57 11.5 C 7.85 g/m*3 11.5 C 0 km/h
153 08-06-2009 06:33:57 11.5 C 7.85 g/m*3 11.5 C 0 km/h
154 08-06-2009 06:45:55 11.5 C 8.06 g/m*3 11.5 C 0 km/h
155 08-06-2009 06:57:55 11.5 C 7.95 g/m*3 11.5 C 0 km/h
156 08-06-2009 07:09:54 11.8 C 8 g/m*3 11.8 C 0 km/h
157 08-06-2009 07:21:54 12 C 7.99 g/m*3 12 C 0 km/h
158 08-06-2009 07:33:54 12.3 C 8.25 g/m*3 12.3 C 0 km/h
159 08-06-2009 07:45:54 12.2 C 7.99 g/m*3 12.2 C 0 km/h
160 08-06-2009 07:57:54 12.3 C 7.82 g/m*3 12.3 C 0 km/h
161 08-06-2009 08:09:53 12.5 C 7.7 g/m*3 12.5 C 0 km/h
162 08-06-2009 08:21:54 12.7 C 7.57 g/m*3 12.7 C 0 km/h
163 08-06-2009 08:33:54 12.9 C 7.33 g/m*3 12.9 C 0 km/h
164 08-06-2009 08:45:53 13.2 C 7.46 g/m*3 13.2 C 0 km/h
165 08-06-2009 08:57:53 13.5 C 7.37 g/m*3 13.5 C 0 km/h
166 08-06-2009 09:09:53 13.8 C 7.15 g/m*3 13.8 C 0 km/h
167 08-06-2009 09:21:53 14.1 C 7.04 g/m*3 14.1 C 0 km/h
168 08-06-2009 09:33:53 14.6 C 6.88 g/m*3 14.6 C 0 km/h
169 08-06-2009 09:45:53 14.8 C 6.84 g/m*3 14.8 C 0 km/h
170 08-06-2009 09:57:53 15 C 6.67 g/m*3 15 C 0 km/h
171 08-06-2009 10:09:53 15.6 C 6.78 g/m*3 15.6 C 0 km/h
172 08-06-2009 10:21:52 15.9 C 6.37 g/m*3 15.9 C 0 km/h
173 08-06-2009 10:33:52 16.4 C 6.42 g/m*3 16.4 C 0 km/h
174 08-06-2009 10:45:52 16.5 C 6.18 g/m*3 16.5 C 0 km/h
175 08-06-2009 10:57:52 16.6 C 6.07 g/m*3 16.6 C 0 km/h
Sensor: Nr:Datum:Temp:Abs-Feuchte:Windchill:Wind:
Aussen-T/F 176 08-06-2009 11:09:52 17.7 C 6.49 g/m*3 17.7 C 0 km/h
177 08-06-2009 11:21:51 17.3 C 5.75 g/m*3 17.3 C 0 km/h
178 08-06-2009 11:33:52 17 C 6.08 g/m*3 17 C 0 km/h
179 08-06-2009 11:45:51 17.6 C 6.15 g/m*3 17.6 C 0 km/h
180 08-06-2009 11:57:51 18.1 C 6.03 g/m*3 18.1 C 0 km/h
181 08-06-2009 12:09:52 17.6 C 6 g/m*3 17.6 C 0 km/h
182 08-06-2009 12:21:51 20 C 6.22 g/m*3 20 C 0 km/h
183 08-06-2009 12:33:51 18.6 C 5.89 g/m*3 18.6 C 0 km/h
184 08-06-2009 12:45:51 20.2 C 6.12 g/m*3 20.2 C 0 km/h
185 08-06-2009 12:57:51 19.6 C 5.74 g/m*3 19.6 C 0 km/h
186 08-06-2009 13:09:51 21.6 C 4.74 g/m*3 21.6 C 0 km/h
187 08-06-2009 13:21:50 21.5 C 5.47 g/m*3 21.5 C 0 km/h
188 08-06-2009 13:33:51 20.9 C 5.1 g/m*3 20.9 C 0 km/h
189 08-06-2009 13:45:51 20.3 C 5.28 g/m*3 20.3 C 0 km/h
190 08-06-2009 13:57:51 21.4 C 5.06 g/m*3 21.4 C 0 km/h
191 08-06-2009 14:09:50 21.7 C 4.39 g/m*3 21.7 C 0 km/h
192 08-06-2009 14:21:50 21.5 C 4.71 g/m*3 21.5 C 0 km/h
193 08-06-2009 14:33:50 21.9 C 5.02 g/m*3 21.9 C 0 km/h
194 08-06-2009 14:45:50 21.7 C 4.96 g/m*3 21.7 C 0 km/h
195 08-06-2009 14:57:50 22.1 C 4.88 g/m*3 22.1 C 0 km/h
196 08-06-2009 15:09:49 22.9 C 5.11 g/m*3 22.9 C 0 km/h
197 08-06-2009 15:21:50 23 C 4.32 g/m*3 23 C 0 km/h
198 08-06-2009 15:33:50 22.7 C 4.24 g/m*3 22.7 C 0 km/h
199 08-06-2009 15:45:49 23.8 C 4.73 g/m*3 23.8 C 0 km/h
200 08-06-2009 15:57:49 23.3 C 4.39 g/m*3 23.3 C 0 km/h
Sensor: Nr:Datum:Temp:Abs-Feuchte:Windchill:Wind:
Aussen-T/F 201 08-06-2009 16:09:50 23.7 C 4.49 g/m*3 23.7 C 0 km/h
202 08-06-2009 16:21:49 24.7 C 4.53 g/m*3 24.7 C 0 km/h
203 08-06-2009 16:33:49 23.5 C 4.65 g/m*3 23.5 C 0 km/h
204 08-06-2009 16:45:49 23.2 C 4.57 g/m*3 23.2 C 0 km/h
205 08-06-2009 16:57:49 23.9 C 4.76 g/m*3 23.9 C 0 km/h
206 08-06-2009 17:09:49 23.8 C 4.73 g/m*3 23.8 C 0 km/h
207 08-06-2009 17:21:48 24.4 C 4.9 g/m*3 24.4 C 0 km/h
208 08-06-2009 17:33:48 24.3 C 5.09 g/m*3 24.3 C 0 km/h
209 08-06-2009 17:45:48 25.1 C 4.86 g/m*3 25.1 C 0 km/h
210 08-06-2009 17:57:48 24.1 C 4.81 g/m*3 24.1 C 0 km/h
211 08-06-2009 18:09:48 23.9 C 5.41 g/m*3 23.9 C 0 km/h
212 08-06-2009 18:21:48 23.7 C 5.99 g/m*3 23.7 C 0 km/h
213 08-06-2009 18:33:48 23.5 C 6.77 g/m*3 23.5 C 0 km/h
214 08-06-2009 18:45:48 22.8 C 7.32 g/m*3 22.8 C 0 km/h
215 08-06-2009 18:57:48 22.1 C 7.42 g/m*3 22.1 C 0 km/h
216 08-06-2009 19:09:47 21.6 C 7.59 g/m*3 21.6 C 0 km/h
217 08-06-2009 19:21:48 21 C 7.14 g/m*3 21 C 0 km/h
218 08-06-2009 19:33:47 20.8 C 7.6 g/m*3 20.8 C 0 km/h
219 08-06-2009 19:45:47 20.6 C 7.52 g/m*3 20.6 C 0 km/h
220 08-06-2009 19:57:48 20.4 C 7.61 g/m*3 20.4 C 0 km/h
221 08-06-2009 20:09:47 20.1 C 7.82 g/m*3 20.1 C 0 km/h
222 08-06-2009 20:21:47 19.8 C 8.03 g/m*3 19.8 C 0 km/h
223 08-06-2009 20:33:47 19.3 C 7.96 g/m*3 19.3 C 0 km/h
224 08-06-2009 20:45:47 18.8 C 8.05 g/m*3 18.8 C 0 km/h
225 08-06-2009 20:57:47 18.5 C 7.91 g/m*3 18.5 C 0 km/h
Sensor: Nr:Datum:Temp:Abs-Feuchte:Windchill:Wind:
Aussen-T/F 226 08-06-2009 21:09:47 18.2 C 7.77 g/m*3 18.2 C 0 km/h
227 08-06-2009 21:21:46 17.9 C 7.79 g/m*3 17.9 C 0 km/h
228 08-06-2009 21:33:46 17.6 C 8.1 g/m*3 17.6 C 0 km/h
229 08-06-2009 21:45:46 16.7 C 8.67 g/m*3 16.7 C 0 km/h
230 08-06-2009 21:57:46 16.6 C 8.9 g/m*3 16.6 C 0 km/h
231 08-06-2009 22:09:46 16.4 C 8.79 g/m*3 16.4 C 0 km/h
232 08-06-2009 22:21:46 16.6 C 8.76 g/m*3 16.6 C 0 km/h
233 08-06-2009 22:33:45 16.5 C 8.57 g/m*3 16.5 C 0 km/h
234 08-06-2009 22:46:46 16.4 C 8.51 g/m*3 16.4 C 0 km/h
235 08-06-2009 22:58:46 16.3 C 8.46 g/m*3 16.3 C 0 km/h
236 08-06-2009 23:10:46 16.4 C 8.51 g/m*3 16.4 C 0 km/h
237 08-06-2009 23:22:46 16.4 C 8.37 g/m*3 16.4 C 0 km/h
238 08-06-2009 23:34:46 16.5 C 8.43 g/m*3 16.5 C 0 km/h
239 08-06-2009 23:46:46 16.3 C 8.88 g/m*3 16.3 C 0 km/h
240 08-06-2009 23:58:46 16 C 8.99 g/m*3 16 C 0 km/h
241 09-06-2009 00:10:46 15.8 C 9.42 g/m*3 15.8 C 0 km/h
242 09-06-2009 00:22:46 15.4 C 9.59 g/m*3 15.4 C 0 km/h
243 09-06-2009 00:34:46 15.4 C 9.99 g/m*3 15.4 C 0 km/h
244 09-06-2009 00:46:46 15 C 10 g/m*3 15 C 0 km/h
245 09-06-2009 00:58:46 14.8 C 10.01 g/m*3 14.8 C 0 km/h
246 09-06-2009 01:10:46 14.6 C 10.14 g/m*3 14.6 C 0 km/h
247 09-06-2009 01:22:47 14.5 C 10.07 g/m*3 14.5 C 0 km/h
248 09-06-2009 01:34:47 14.6 C 10.26 g/m*3 14.6 C 0 km/h
249 09-06-2009 01:46:47 14.5 C 10.32 g/m*3 14.5 C 0 km/h
250 09-06-2009 01:58:47 14.6 C 10.26 g/m*3 14.6 C 0 km/h
Sensor: Nr:Datum:Temp:Abs-Feuchte:Windchill:Wind:
Aussen-T/F 251 09-06-2009 02:10:47 14.6 C 10.14 g/m*3 14.6 C 0 km/h
252 09-06-2009 02:22:47 14.7 C 10.2 g/m*3 14.7 C 0 km/h
253 09-06-2009 02:34:47 14.6 C 10.01 g/m*3 14.6 C 0 km/h
254 09-06-2009 02:46:47 14.3 C 9.95 g/m*3 14.3 C 0 km/h
255 09-06-2009 02:58:47 14.3 C 9.95 g/m*3 14.3 C 0 km/h
256 09-06-2009 03:10:47 14.4 C 10.01 g/m*3 14.4 C 0 km/h
257 09-06-2009 03:22:47 14.5 C 10.07 g/m*3 14.5 C 0 km/h
258 09-06-2009 03:34:47 14.5 C 10.07 g/m*3 14.5 C 0 km/h
259 09-06-2009 03:46:47 14.4 C 9.89 g/m*3 14.4 C 0 km/h
260 09-06-2009 03:58:47 14.4 C 9.89 g/m*3 14.4 C 0 km/h
261 09-06-2009 04:10:47 14.4 C 9.89 g/m*3 14.4 C 0 km/h
262 09-06-2009 04:22:47 14.4 C 10.01 g/m*3 14.4 C 0 km/h
263 09-06-2009 04:34:47 14.5 C 9.95 g/m*3 14.5 C 0 km/h
264 09-06-2009 04:46:47 14.6 C 9.89 g/m*3 14.6 C 0 km/h
265 09-06-2009 04:58:47 14.6 C 9.89 g/m*3 14.6 C 0 km/h
266 09-06-2009 05:10:48 14.5 C 9.83 g/m*3 14.5 C 0 km/h
267 09-06-2009 05:22:48 14.2 C 9.89 g/m*3 14.2 C 0 km/h
268 09-06-2009 05:34:48 14.1 C 10.07 g/m*3 14.1 C 0 km/h
269 09-06-2009 05:46:48 14 C 10.13 g/m*3 14 C 0 km/h
270 09-06-2009 05:58:48 14.1 C 10.32 g/m*3 14.1 C 0 km/h
271 09-06-2009 06:10:48 14 C 10.37 g/m*3 14 C 0 km/h
272 09-06-2009 06:22:48 14.1 C 10.56 g/m*3 14.1 C 0 km/h
273 09-06-2009 06:34:48 14.1 C 10.56 g/m*3 14.1 C 0 km/h
274 09-06-2009 06:46:48 14.1 C 10.56 g/m*3 14.1 C 0 km/h
275 09-06-2009 06:58:48 14.2 C 10.62 g/m*3 14.2 C 0 km/h
Sensor: Nr:Datum:Temp:Abs-Feuchte:Windchill:Wind:
Aussen-T/F 276 09-06-2009 07:10:48 14.3 C 10.44 g/m*3 14.3 C 0 km/h
277 09-06-2009 07:22:46 14.6 C 10.51 g/m*3 14.6 C 0 km/h
278 09-06-2009 07:34:01 14.8 C 10.64 g/m*3 14.8 C 0 km/h
279 09-06-2009 07:46:01 15 C 10.64 g/m*3 15 C 0 km/h
280 09-06-2009 07:58:01 15 C 10.26 g/m*3 15 C 0 km/h
281 09-06-2009 08:10:01 15.2 C 9.48 g/m*3 15.2 C 0 km/h
282 09-06-2009 08:22:01 15.2 C 9.22 g/m*3 15.2 C 0 km/h
283 09-06-2009 08:34:01 15.2 C 9.09 g/m*3 15.2 C 0 km/h
284 09-06-2009 08:46:01 15.3 C 9.53 g/m*3 15.3 C 0 km/h
285 09-06-2009 08:58:01 15.4 C 9.59 g/m*3 15.4 C 0 km/h
286 09-06-2009 09:10:00 15.4 C 9.59 g/m*3 15.4 C 0 km/h
287 09-06-2009 09:22:01 15.5 C 9.65 g/m*3 15.5 C 0 km/h
288 09-06-2009 09:34:00 15.9 C 9.48 g/m*3 15.9 C 0 km/h
289 09-06-2009 09:46:00 16.5 C 9.55 g/m*3 16.5 C 0 km/h
290 09-06-2009 09:58:01 16.8 C 8.86 g/m*3 16.8 C 0 km/h
291 09-06-2009 10:10:00 16.8 C 8.72 g/m*3 16.8 C 0 km/h
292 09-06-2009 10:22:00 16.9 C 8.63 g/m*3 16.9 C 0 km/h
293 09-06-2009 10:34:00 17.7 C 8.9 g/m*3 17.7 C 0 km/h
294 09-06-2009 10:45:59 18.1 C 8.34 g/m*3 18.1 C 0 km/h
295 09-06-2009 10:57:59 18.6 C 8.12 g/m*3 18.6 C 0 km/h
296 09-06-2009 11:10:00 18.5 C 7.91 g/m*3 18.5 C 0 km/h
297 09-06-2009 11:22:59 19.4 C 7.67 g/m*3 19.4 C 0 km/h
298 09-06-2009 11:34:59 20.1 C 7.47 g/m*3 20.1 C 0 km/h
299 09-06-2009 11:46:59 19.9 C 7.39 g/m*3 19.9 C 0 km/h
300 09-06-2009 11:58:59 20.8 C 7.06 g/m*3 20.8 C 0 km/h
Sensor: Nr:Datum:Temp:Abs-Feuchte:Windchill:Wind:
Aussen-T/F 301 09-06-2009 12:10:59 21.5 C 6.98 g/m*3 21.5 C 0 km/h
302 09-06-2009 12:22:59 21.9 C 7.14 g/m*3 21.9 C 0 km/h
303 09-06-2009 12:34:58 21.1 C 7 g/m*3 21.1 C 0 km/h
304 09-06-2009 12:46:59 22.5 C 6.99 g/m*3 22.5 C 0 km/h
305 09-06-2009 12:58:59 22.9 C 6.34 g/m*3 22.9 C 0 km/h
306 09-06-2009 13:10:58 23.3 C 6.48 g/m*3 23.3 C 0 km/h
307 09-06-2009 13:22:58 21.5 C 6.98 g/m*3 21.5 C 0 km/h
308 09-06-2009 13:34:58 21.5 C 6.79 g/m*3 21.5 C 0 km/h
309 09-06-2009 13:46:58 23.7 C 6.42 g/m*3 23.7 C 0 km/h
310 09-06-2009 13:58:59 22.3 C 6.52 g/m*3 22.3 C 0 km/h
311 09-06-2009 14:10:57 23.6 C 6.59 g/m*3 23.6 C 0 km/h
312 09-06-2009 14:22:57 24.2 C 6.6 g/m*3 24.2 C 0 km/h
313 09-06-2009 14:34:58 24.9 C 6.64 g/m*3 24.9 C 0 km/h
314 09-06-2009 14:46:01 23.8 C 6.67 g/m*3 23.8 C 0 km/h
315 09-06-2009 14:58:01 21.6 C 7.78 g/m*3 21.6 C 0 km/h
316 09-06-2009 15:10:01 19.3 C 8.63 g/m*3 19.3 C 0 km/h
317 09-06-2009 15:22:01 19.9 C 11.51 g/m*3 19.9 C 0 km/h
318 09-06-2009 15:34:01 21.9 C 10.81 g/m*3 21.9 C 0 km/h
319 09-06-2009 15:46:01 23.2 C 9.36 g/m*3 23.2 C 0 km/h
320 09-06-2009 15:58:01 21.7 C 10.49 g/m*3 21.7 C 0 km/h
321 09-06-2009 16:10:01 22.3 C 9.08 g/m*3 22.3 C 0 km/h
322 09-06-2009 16:22:00 23.9 C 8.22 g/m*3 23.9 C 0 km/h
323 09-06-2009 16:34:00 24.5 C 7.16 g/m*3 24.5 C 0 km/h
324 09-06-2009 16:46:00 24.8 C 6.83 g/m*3 24.8 C 0 km/h
325 09-06-2009 16:58:00 24.9 C 7.1 g/m*3 24.9 C 0 km/h
Sensor: Nr:Datum:Temp:Abs-Feuchte:Windchill:Wind:
Aussen-T/F 326 09-06-2009 17:10:00 26.1 C 7.1 g/m*3 26.1 C 0 km/h
327 09-06-2009 17:22:59 25.5 C 7.34 g/m*3 25.5 C 0 km/h
328 09-06-2009 17:34:00 25.3 C 7.02 g/m*3 25.3 C 0 km/h
329 09-06-2009 17:46:00 25.4 C 7.06 g/m*3 25.4 C 0 km/h
330 09-06-2009 17:58:00 24.4 C 7.12 g/m*3 24.4 C 0 km/h
331 09-06-2009 18:10:59 23.3 C 7.53 g/m*3 23.3 C 0 km/h
332 09-06-2009 18:22:00 21.9 C 7.72 g/m*3 21.9 C 0 km/h
333 09-06-2009 18:34:59 20 C 7.09 g/m*3 20 C 0 km/h
334 09-06-2009 18:46:59 19.2 C 7.42 g/m*3 19.2 C 0 km/h
335 09-06-2009 18:58:59 20.5 C 7.83 g/m*3 20.5 C 0 km/h
336 09-06-2009 19:10:59 20.4 C 7.61 g/m*3 20.4 C 0 km/h
337 09-06-2009 19:22:59 19.9 C 7.9 g/m*3 19.9 C 0 km/h
338 09-06-2009 19:34:59 19.7 C 8.15 g/m*3 19.7 C 0 km/h
339 09-06-2009 19:46:58 17.5 C 8.95 g/m*3 17.5 C 0 km/h
340 09-06-2009 19:58:58 16.5 C 10.11 g/m*3 16.5 C 0 km/h
341 09-06-2009 20:10:59 17.9 C 10.08 g/m*3 17.9 C 0 km/h
342 09-06-2009 20:22:58 18.9 C 9.4 g/m*3 18.9 C 0 km/h
343 09-06-2009 20:34:58 19.7 C 9 g/m*3 19.7 C 0 km/h
344 09-06-2009 20:46:58 19.3 C 8.96 g/m*3 19.3 C 0 km/h
345 09-06-2009 20:58:58 18.8 C 8.54 g/m*3 18.8 C 0 km/h
346 09-06-2009 21:10:58 18.4 C 8.81 g/m*3 18.4 C 0 km/h
347 09-06-2009 21:22:57 17.9 C 9.47 g/m*3 17.9 C 0 km/h
348 09-06-2009 21:34:58 17.2 C 8.93 g/m*3 17.2 C 0 km/h
349 09-06-2009 21:46:57 16.7 C 9.1 g/m*3 16.7 C 0 km/h
350 09-06-2009 21:58:57 16.3 C 9.16 g/m*3 16.3 C 0 km/h
Sensor: Nr:Datum:Temp:Abs-Feuchte:Windchill:Wind:
Aussen-T/F 351 09-06-2009 22:10:57 16 C 9.26 g/m*3 16 C 0 km/h
352 09-06-2009 22:23:58 15.7 C 9.37 g/m*3 15.7 C 0 km/h
353 09-06-2009 22:35:58 15.6 C 9.44 g/m*3 15.6 C 0 km/h
354 09-06-2009 22:47:58 15.8 C 9.29 g/m*3 15.8 C 0 km/h
355 09-06-2009 22:59:58 15.6 C 9.18 g/m*3 15.6 C 0 km/h
356 09-06-2009 23:11:58 15.4 C 9.33 g/m*3 15.4 C 0 km/h
357 09-06-2009 23:23:58 15.2 C 9.35 g/m*3 15.2 C 0 km/h
358 09-06-2009 23:35:58 15 C 9.23 g/m*3 15 C 0 km/h
359 09-06-2009 23:47:58 14.5 C 9.2 g/m*3 14.5 C 0 km/h
360 09-06-2009 23:59:58 14.4 C 9.27 g/m*3 14.4 C 0 km/h
361 10-06-2009 00:11:58 14.4 C 9.39 g/m*3 14.4 C 0 km/h
362 10-06-2009 00:23:58 14 C 9.05 g/m*3 14 C 0 km/h
363 10-06-2009 00:35:59 14 C 9.17 g/m*3 14 C 0 km/h
364 10-06-2009 00:47:59 13.8 C 9.29 g/m*3 13.8 C 0 km/h
365 10-06-2009 00:59:59 13.8 C 9.29 g/m*3 13.8 C 0 km/h
366 10-06-2009 01:11:59 14 C 9.29 g/m*3 14 C 0 km/h
367 10-06-2009 01:23:59 14.4 C 9.39 g/m*3 14.4 C 0 km/h
368 10-06-2009 01:35:59 14.9 C 9.3 g/m*3 14.9 C 0 km/h
369 10-06-2009 01:47:59 15.4 C 8.93 g/m*3 15.4 C 0 km/h
370 10-06-2009 01:59:59 15.6 C 8.91 g/m*3 15.6 C 0 km/h
371 10-06-2009 02:11:59 15.4 C 8.8 g/m*3 15.4 C 0 km/h
372 10-06-2009 02:23:59 15.4 C 8.8 g/m*3 15.4 C 0 km/h
373 10-06-2009 02:35:59 15.5 C 8.86 g/m*3 15.5 C 0 km/h
374 10-06-2009 02:47:59 15.4 C 8.8 g/m*3 15.4 C 0 km/h
375 10-06-2009 02:59:59 15.1 C 8.77 g/m*3 15.1 C 0 km/h
Sensor: Nr:Datum:Temp:Abs-Feuchte:Windchill:Wind:
Aussen-T/F 376 10-06-2009 03:11:59 14.9 C 9.05 g/m*3 14.9 C 0 km/h
377 10-06-2009 03:23:59 15 C 8.98 g/m*3 15 C 0 km/h
378 10-06-2009 03:35:59 14.8 C 8.99 g/m*3 14.8 C 0 km/h
379 10-06-2009 03:47:59 14.8 C 9.12 g/m*3 14.8 C 0 km/h
380 10-06-2009 03:58:59 14.7 C 9.07 g/m*3 14.7 C 0 km/h
381 10-06-2009 04:10:59 14.5 C 8.95 g/m*3 14.5 C 0 km/h
382 10-06-2009 04:22:59 14.4 C 9.02 g/m*3 14.4 C 0 km/h
383 10-06-2009 04:35:00 14.4 C 9.02 g/m*3 14.4 C 0 km/h
384 10-06-2009 04:47:00 14.6 C 9.13 g/m*3 14.6 C 0 km/h
385 10-06-2009 04:59:00 14.4 C 9.02 g/m*3 14.4 C 0 km/h
386 10-06-2009 05:11:00 14.4 C 9.15 g/m*3 14.4 C 0 km/h
387 10-06-2009 05:23:00 14.4 C 9.27 g/m*3 14.4 C 0 km/h
388 10-06-2009 05:35:00 14.4 C 9.27 g/m*3 14.4 C 0 km/h
389 10-06-2009 05:47:00 14.4 C 9.27 g/m*3 14.4 C 0 km/h
390 10-06-2009 05:59:00 14.5 C 9.2 g/m*3 14.5 C 0 km/h
391 10-06-2009 06:11:00 14.4 C 9.15 g/m*3 14.4 C 0 km/h
392 10-06-2009 06:23:00 14.5 C 9.2 g/m*3 14.5 C 0 km/h
393 10-06-2009 06:35:00 14.8 C 9.37 g/m*3 14.8 C 0 km/h
394 10-06-2009 06:47:00 14.9 C 9.3 g/m*3 14.9 C 0 km/h
395 10-06-2009 06:59:00 15.1 C 9.16 g/m*3 15.1 C 0 km/h
396 10-06-2009 07:11:59 15.2 C 9.09 g/m*3 15.2 C 0 km/h
397 10-06-2009 07:23:58 15.4 C 9.2 g/m*3 15.4 C 0 km/h
398 10-06-2009 07:35:58 15.6 C 9.18 g/m*3 15.6 C 0 km/h
399 10-06-2009 07:47:58 15.8 C 9.29 g/m*3 15.8 C 0 km/h
400 10-06-2009 07:59:58 16.1 C 9.18 g/m*3 16.1 C 0 km/h
Sensor: Nr:Datum:Temp:Abs-Feuchte:Windchill:Wind:
Aussen-T/F 401 10-06-2009 08:11:58 16.2 C 8.96 g/m*3 16.2 C 0 km/h
402 10-06-2009 08:23:57 16.5 C 9.13 g/m*3 16.5 C 0 km/h
403 10-06-2009 08:35:58 16.7 C 9.1 g/m*3 16.7 C 0 km/h
404 10-06-2009 08:47:57 16.8 C 9.15 g/m*3 16.8 C 0 km/h
405 10-06-2009 08:59:57 16.7 C 9.1 g/m*3 16.7 C 0 km/h
406 10-06-2009 09:11:57 17.1 C 8.88 g/m*3 17.1 C 0 km/h
407 10-06-2009 09:23:58 16.9 C 8.92 g/m*3 16.9 C 0 km/h
408 10-06-2009 09:35:57 16.5 C 9.13 g/m*3 16.5 C 0 km/h
409 10-06-2009 09:47:57 15.6 C 9.58 g/m*3 15.6 C 0 km/h
410 10-06-2009 09:59:57 15.2 C 9.73 g/m*3 15.2 C 0 km/h
411 10-06-2009 10:11:56 14.9 C 10.07 g/m*3 14.9 C 0 km/h
412 10-06-2009 10:23:57 14.6 C 10.01 g/m*3 14.6 C 0 km/h
413 10-06-2009 10:35:56 15 C 10.39 g/m*3 15 C 0 km/h
414 10-06-2009 10:47:56 15.3 C 10.45 g/m*3 15.3 C 0 km/h
415 10-06-2009 10:59:57 15.7 C 10.3 g/m*3 15.7 C 0 km/h
416 10-06-2009 11:11:56 16.2 C 10.2 g/m*3 16.2 C 0 km/h
417 10-06-2009 11:23:56 16.9 C 10.36 g/m*3 16.9 C 0 km/h
418 10-06-2009 11:35:56 17.3 C 10.02 g/m*3 17.3 C 0 km/h
419 10-06-2009 11:47:56 18.3 C 9.85 g/m*3 18.3 C 0 km/h
420 10-06-2009 11:59:56 18.4 C 9.75 g/m*3 18.4 C 0 km/h
421 10-06-2009 12:11:56 19 C 9.45 g/m*3 19 C 0 km/h
422 10-06-2009 12:23:55 19.9 C 8.93 g/m*3 19.9 C 0 km/h
423 10-06-2009 12:35:55 20.1 C 8.17 g/m*3 20.1 C 0 km/h
424 10-06-2009 12:47:55 20.3 C 7.91 g/m*3 20.3 C 0 km/h
425 10-06-2009 12:59:55 19.4 C 7.84 g/m*3 19.4 C 0 km/h
Sensor: Nr:Datum:Temp:Abs-Feuchte:Windchill:Wind:
Aussen-T/F 426 10-06-2009 13:11:55 19.5 C 8.22 g/m*3 19.5 C 0 km/h
427 10-06-2009 13:23:55 22.8 C 7.72 g/m*3 22.8 C 0 km/h
428 10-06-2009 13:35:55 23.4 C 7.36 g/m*3 23.4 C 0 km/h
429 10-06-2009 13:47:55 21.6 C 6.45 g/m*3 21.6 C 0 km/h
430 10-06-2009 13:59:55 22.7 C 6.67 g/m*3 22.7 C 0 km/h
431 10-06-2009 14:11:54 22.1 C 6.64 g/m*3 22.1 C 0 km/h
432 10-06-2009 14:23:54 22 C 6.21 g/m*3 22 C 0 km/h
433 10-06-2009 14:35:54 22 C 6.6 g/m*3 22 C 0 km/h
434 10-06-2009 14:47:54 22.3 C 6.32 g/m*3 22.3 C 0 km/h
435 10-06-2009 14:59:55 22.6 C 6.43 g/m*3 22.6 C 0 km/h
436 10-06-2009 15:11:53 22.5 C 5.79 g/m*3 22.5 C 0 km/h
437 10-06-2009 15:23:54 23.5 C 6.13 g/m*3 23.5 C 0 km/h
438 10-06-2009 15:35:54 23.4 C 5.68 g/m*3 23.4 C 0 km/h
439 10-06-2009 15:47:53 23.3 C 5.44 g/m*3 23.3 C 0 km/h
440 10-06-2009 15:59:53 23.5 C 5.5 g/m*3 23.5 C 0 km/h
441 10-06-2009 16:11:54 23.4 C 4.84 g/m*3 23.4 C 0 km/h
442 10-06-2009 16:23:53 22.8 C 5.08 g/m*3 22.8 C 0 km/h
443 10-06-2009 16:35:53 23.1 C 5.17 g/m*3 23.1 C 0 km/h
444 10-06-2009 16:47:53 24.1 C 5.47 g/m*3 24.1 C 0 km/h
445 10-06-2009 16:59:53 23.2 C 5.2 g/m*3 23.2 C 0 km/h
446 10-06-2009 17:11:53 23.2 C 4.57 g/m*3 23.2 C 0 km/h
447 10-06-2009 17:23:53 23.8 C 4.95 g/m*3 23.8 C 0 km/h
448 10-06-2009 17:35:52 22.2 C 4.91 g/m*3 22.2 C 0 km/h
449 10-06-2009 17:47:53 22.3 C 5.13 g/m*3 22.3 C 0 km/h
450 10-06-2009 17:59:53 21.9 C 5.21 g/m*3 21.9 C 0 km/h
Sensor: Nr:Datum:Temp:Abs-Feuchte:Windchill:Wind:
Aussen-T/F 451 10-06-2009 18:11:52 21.5 C 5.47 g/m*3 21.5 C 0 km/h
452 10-06-2009 18:23:52 19.4 C 7.51 g/m*3 19.4 C 0 km/h
453 10-06-2009 18:35:52 17.7 C 9.05 g/m*3 17.7 C 0 km/h
454 10-06-2009 18:47:52 18.5 C 9.02 g/m*3 18.5 C 0 km/h
455 10-06-2009 18:59:53 18.7 C 8.97 g/m*3 18.7 C 0 km/h
456 10-06-2009 19:11:51 18.5 C 8.7 g/m*3 18.5 C 0 km/h
457 10-06-2009 19:23:51 18.4 C 8.65 g/m*3 18.4 C 0 km/h
458 10-06-2009 19:35:52 18.3 C 8.76 g/m*3 18.3 C 0 km/h
459 10-06-2009 19:47:51 17.2 C 8.93 g/m*3 17.2 C 0 km/h
460 10-06-2009 19:59:51 15.8 C 9.42 g/m*3 15.8 C 0 km/h
461 10-06-2009 20:11:51 15.6 C 9.84 g/m*3 15.6 C 0 km/h
462 10-06-2009 20:23:51 15.5 C 9.52 g/m*3 15.5 C 0 km/h
463 10-06-2009 20:35:51 15.6 C 9.44 g/m*3 15.6 C 0 km/h
464 10-06-2009 20:47:50 15.8 C 9.69 g/m*3 15.8 C 0 km/h
465 10-06-2009 20:59:50 15.4 C 9.59 g/m*3 15.4 C 0 km/h
466 10-06-2009 21:11:50 15.5 C 9.65 g/m*3 15.5 C 0 km/h
467 10-06-2009 21:23:51 15.6 C 9.71 g/m*3 15.6 C 0 km/h
468 10-06-2009 21:35:50 15.6 C 9.31 g/m*3 15.6 C 0 km/h
469 10-06-2009 21:47:50 15.8 C 9.15 g/m*3 15.8 C 0 km/h
470 10-06-2009 21:59:50 15.5 C 9.12 g/m*3 15.5 C 0 km/h
471 10-06-2009 22:11:50 14.5 C 9.83 g/m*3 14.5 C 0 km/h
472 10-06-2009 22:24:50 14.3 C 10.07 g/m*3 14.3 C 0 km/h
473 10-06-2009 22:36:50 14.1 C 10.19 g/m*3 14.1 C 0 km/h
474 10-06-2009 22:48:50 14.2 C 10.38 g/m*3 14.2 C 0 km/h
475 10-06-2009 23:00:50 14.2 C 10.5 g/m*3 14.2 C 0 km/h
Sensor: Nr:Datum:Temp:Abs-Feuchte:Windchill:Wind:
Aussen-T/F 476 10-06-2009 23:12:51 14.2 C 10.62 g/m*3 14.2 C 0 km/h
477 10-06-2009 23:24:51 14 C 10.49 g/m*3 14 C 0 km/h
478 10-06-2009 23:36:51 14.1 C 10.56 g/m*3 14.1 C 0 km/h
479 10-06-2009 23:48:51 14.4 C 10.51 g/m*3 14.4 C 0 km/h
480 11-06-2009 00:00:51 14.5 C 10.45 g/m*3 14.5 C 0 km/h
481 11-06-2009 00:12:51 14.2 C 10.14 g/m*3 14.2 C 0 km/h
482 11-06-2009 00:24:51 14.2 C 10.26 g/m*3 14.2 C 0 km/h
483 11-06-2009 00:36:51 14.1 C 10.19 g/m*3 14.1 C 0 km/h
484 11-06-2009 00:48:51 14 C 10.25 g/m*3 14 C 0 km/h
485 11-06-2009 01:00:51 13.8 C 10.25 g/m*3 13.8 C 0 km/h
486 11-06-2009 01:12:51 13.9 C 10.43 g/m*3 13.9 C 0 km/h
487 11-06-2009 01:24:51 13.9 C 10.67 g/m*3 13.9 C 0 km/h
488 11-06-2009 01:36:51 13.9 C 10.79 g/m*3 13.9 C 0 km/h
489 11-06-2009 01:48:51 13.9 C 10.91 g/m*3 13.9 C 0 km/h
490 11-06-2009 02:00:51 14 C 10.98 g/m*3 14 C 0 km/h
491 11-06-2009 02:12:51 13.9 C 11.03 g/m*3 13.9 C 0 km/h
492 11-06-2009 02:24:51 13.9 C 11.03 g/m*3 13.9 C 0 km/h
493 11-06-2009 02:36:51 14 C 11.1 g/m*3 14 C 0 km/h
494 11-06-2009 02:48:51 14 C 11.1 g/m*3 14 C 0 km/h
495 11-06-2009 03:00:52 14 C 11.1 g/m*3 14 C 0 km/h
496 11-06-2009 03:12:52 14.1 C 11.29 g/m*3 14.1 C 0 km/h
497 11-06-2009 03:24:52 14.2 C 11.36 g/m*3 14.2 C 0 km/h
498 11-06-2009 03:36:52 14.2 C 11.36 g/m*3 14.2 C 0 km/h
499 11-06-2009 03:48:52 14 C 11.22 g/m*3 14 C 0 km/h
500 11-06-2009 04:00:52 14 C 11.22 g/m*3 14 C 0 km/h
Sensor: Nr:Datum:Temp:Abs-Feuchte:Windchill:Wind:
Aussen-T/F 501 11-06-2009 04:12:52 14 C 11.34 g/m*3 14 C 0 km/h
502 11-06-2009 04:24:52 14 C 11.34 g/m*3 14 C 0 km/h
503 11-06-2009 04:36:52 14.1 C 11.41 g/m*3 14.1 C 0 km/h
504 11-06-2009 04:48:52 14.2 C 11.48 g/m*3 14.2 C 0 km/h
505 11-06-2009 05:00:52 14.2 C 11.48 g/m*3 14.2 C 0 km/h
506 11-06-2009 05:12:52 14.2 C 11.48 g/m*3 14.2 C 0 km/h
507 11-06-2009 05:24:52 14.4 C 11.5 g/m*3 14.4 C 0 km/h
508 11-06-2009 05:36:52 14.6 C 11.26 g/m*3 14.6 C 0 km/h
509 11-06-2009 05:48:52 14.5 C 11.07 g/m*3 14.5 C 0 km/h
510 11-06-2009 06:00:52 14.6 C 11.14 g/m*3 14.6 C 0 km/h
511 11-06-2009 06:12:52 14.2 C 10.87 g/m*3 14.2 C 0 km/h
512 11-06-2009 06:24:52 14.2 C 10.87 g/m*3 14.2 C 0 km/h
513 11-06-2009 06:36:52 14.3 C 10.93 g/m*3 14.3 C 0 km/h
514 11-06-2009 06:48:53 14.4 C 11 g/m*3 14.4 C 0 km/h
515 11-06-2009 07:00:53 14.4 C 10.75 g/m*3 14.4 C 0 km/h
516 11-06-2009 07:12:53 14.5 C 10.82 g/m*3 14.5 C 0 km/h
517 11-06-2009 07:24:53 14.5 C 10.94 g/m*3 14.5 C 0 km/h
518 11-06-2009 07:36:53 14.8 C 11.02 g/m*3 14.8 C 0 km/h
519 11-06-2009 07:48:53 14.7 C 10.32 g/m*3 14.7 C 0 km/h
520 11-06-2009 08:00:53 14.7 C 10.2 g/m*3 14.7 C 0 km/h
521 11-06-2009 08:12:53 14.7 C 9.57 g/m*3 14.7 C 0 km/h
522 11-06-2009 08:24:53 14.7 C 9.57 g/m*3 14.7 C 0 km/h
523 11-06-2009 08:36:50 14.8 C 9.5 g/m*3 14.8 C 0 km/h
524 11-06-2009 08:48:49 14.9 C 8.92 g/m*3 14.9 C 0 km/h
525 11-06-2009 09:00:50 15 C 8.72 g/m*3 15 C 0 km/h
Sensor: Nr:Datum:Temp:Abs-Feuchte:Windchill:Wind:
Aussen-T/F 526 11-06-2009 09:12:50 15 C 8.33 g/m*3 15 C 0 km/h
527 11-06-2009 09:24:49 15.3 C 8.23 g/m*3 15.3 C 0 km/h
528 11-06-2009 09:36:49 15.1 C 7.74 g/m*3 15.1 C 0 km/h
529 11-06-2009 09:48:02 15 C 7.82 g/m*3 15 C 0 km/h
530 11-06-2009 10:00:02 15 C 7.82 g/m*3 15 C 0 km/h
531 11-06-2009 10:12:01 14.9 C 8.03 g/m*3 14.9 C 0 km/h
532 11-06-2009 10:24:02 15.1 C 7.87 g/m*3 15.1 C 0 km/h
533 11-06-2009 10:36:01 15.5 C 7.8 g/m*3 15.5 C 0 km/h
534 11-06-2009 10:48:01 15.7 C 7.89 g/m*3 15.7 C 0 km/h
535 11-06-2009 11:00:01 15.2 C 8.05 g/m*3 15.2 C 0 km/h
536 11-06-2009 11:12:01 15.3 C 7.84 g/m*3 15.3 C 0 km/h
537 11-06-2009 11:24:01 15.5 C 7.53 g/m*3 15.5 C 0 km/h
538 11-06-2009 11:36:01 15.4 C 7.23 g/m*3 15.4 C 0 km/h
539 11-06-2009 11:48:01 15.3 C 7.05 g/m*3 15.3 C 0 km/h
540 11-06-2009 12:00:01 15.2 C 6.75 g/m*3 15.2 C 0 km/h
541 11-06-2009 12:12:01 15.2 C 6.62 g/m*3 15.2 C 0 km/h
542 11-06-2009 12:24:00 15.3 C 6.53 g/m*3 15.3 C 0 km/h
543 11-06-2009 12:36:00 15.4 C 6.57 g/m*3 15.4 C 0 km/h
544 11-06-2009 12:48:00 15.3 C 6.66 g/m*3 15.3 C 0 km/h
545 11-06-2009 13:00:00 15.2 C 6.62 g/m*3 15.2 C 0 km/h
546 11-06-2009 13:12:00 15.3 C 6.66 g/m*3 15.3 C 0 km/h
547 11-06-2009 13:24:59 15.4 C 6.96 g/m*3 15.4 C 0 km/h
548 11-06-2009 13:36:00 15.2 C 6.88 g/m*3 15.2 C 0 km/h
549 11-06-2009 13:48:59 15.4 C 6.96 g/m*3 15.4 C 0 km/h
550 11-06-2009 14:00:59 15.5 C 7.67 g/m*3 15.5 C 0 km/h
Sensor: Nr:Datum:Temp:Abs-Feuchte:Windchill:Wind:
Aussen-T/F 551 11-06-2009 14:12:59 15.8 C 7.81 g/m*3 15.8 C 0 km/h
552 11-06-2009 14:24:00 17.3 C 7.66 g/m*3 17.3 C 0 km/h
553 11-06-2009 14:36:59 16.9 C 7.05 g/m*3 16.9 C 0 km/h
554 11-06-2009 14:48:59 16.2 C 7.45 g/m*3 16.2 C 0 km/h
555 11-06-2009 15:00:58 16.4 C 7.4 g/m*3 16.4 C 0 km/h
556 11-06-2009 15:12:58 16.3 C 7.63 g/m*3 16.3 C 0 km/h
557 11-06-2009 15:24:59 16.8 C 7.43 g/m*3 16.8 C 0 km/h
558 11-06-2009 15:36:59 16.8 C 7.29 g/m*3 16.8 C 0 km/h
559 11-06-2009 15:48:58 17.5 C 7.45 g/m*3 17.5 C 0 km/h
560 11-06-2009 16:00:59 16.7 C 7.82 g/m*3 16.7 C 0 km/h
561 11-06-2009 16:12:59 16.4 C 8.1 g/m*3 16.4 C 0 km/h
562 11-06-2009 16:24:58 17.3 C 8.1 g/m*3 17.3 C 0 km/h
563 11-06-2009 16:36:58 16.6 C 7.63 g/m*3 16.6 C 0 km/h
564 11-06-2009 16:48:58 16 C 7.9 g/m*3 16 C 0 km/h
565 11-06-2009 17:00:58 16.2 C 7.72 g/m*3 16.2 C 0 km/h
566 11-06-2009 17:12:59 16.4 C 7.82 g/m*3 16.4 C 0 km/h
567 11-06-2009 17:24:57 16.4 C 8.37 g/m*3 16.4 C 0 km/h
568 11-06-2009 17:36:57 18.3 C 8.6 g/m*3 18.3 C 0 km/h
569 11-06-2009 17:48:57 17.5 C 8.05 g/m*3 17.5 C 0 km/h
570 11-06-2009 18:00:57 16 C 8.31 g/m*3 16 C 0 km/h
571 11-06-2009 18:12:57 14.4 C 9.02 g/m*3 14.4 C 0 km/h
572 11-06-2009 18:24:57 13.2 C 9.19 g/m*3 13.2 C 0 km/h
573 11-06-2009 18:36:57 13.3 C 9.7 g/m*3 13.3 C 0 km/h
574 11-06-2009 18:48:57 14.2 C 10.38 g/m*3 14.2 C 0 km/h
575 11-06-2009 19:00:56 14.2 C 10.38 g/m*3 14.2 C 0 km/h
Sensor: Nr:Datum:Temp:Abs-Feuchte:Windchill:Wind:
Aussen-T/F 576 11-06-2009 19:12:56 15.3 C 10.84 g/m*3 15.3 C 0 km/h
577 11-06-2009 19:24:56 16 C 10.49 g/m*3 16 C 0 km/h
578 11-06-2009 19:36:57 16 C 10.63 g/m*3 16 C 0 km/h
579 11-06-2009 19:48:56 14.9 C 10.07 g/m*3 14.9 C 0 km/h
580 11-06-2009 20:00:07 14.4 C 9.89 g/m*3 14.4 C 0 km/h
581 11-06-2009 20:12:07 13.4 C 9.65 g/m*3 13.4 C 0 km/h
582 11-06-2009 20:24:07 11.9 C 8.68 g/m*3 11.9 C 0 km/h
583 11-06-2009 20:36:07 11.9 C 8.79 g/m*3 11.9 C 0 km/h
584 11-06-2009 20:48:56 12.3 C 8.9 g/m*3 12.3 C 0 km/h
585 11-06-2009 21:00:56 12.5 C 9.02 g/m*3 12.5 C 0 km/h
586 11-06-2009 21:12:56 12.5 C 8.8 g/m*3 12.5 C 0 km/h
587 11-06-2009 21:24:56 12.6 C 8.85 g/m*3 12.6 C 0 km/h
588 11-06-2009 21:36:56 12.5 C 8.8 g/m*3 12.5 C 0 km/h
589 11-06-2009 21:48:56 12.3 C 8.8 g/m*3 12.3 C 0 km/h
590 11-06-2009 22:01:57 12.3 C 8.8 g/m*3 12.3 C 0 km/h
591 11-06-2009 22:13:57 12.4 C 8.85 g/m*3 12.4 C 0 km/h
592 11-06-2009 22:25:57 12.4 C 8.74 g/m*3 12.4 C 0 km/h
593 11-06-2009 22:37:57 12.5 C 8.69 g/m*3 12.5 C 0 km/h
594 11-06-2009 22:49:57 12.4 C 8.74 g/m*3 12.4 C 0 km/h
595 11-06-2009 23:01:57 12.4 C 8.74 g/m*3 12.4 C 0 km/h
596 11-06-2009 23:13:57 12.4 C 8.63 g/m*3 12.4 C 0 km/h
597 11-06-2009 23:25:57 12.1 C 8.47 g/m*3 12.1 C 0 km/h
598 11-06-2009 23:37:58 12 C 8.42 g/m*3 12 C 0 km/h
599 11-06-2009 23:49:58 12 C 8.31 g/m*3 12 C 0 km/h
600 12-06-2009 00:01:58 11.5 C 8.16 g/m*3 11.5 C 0 km/h
Sensor: Nr:Datum:Temp:Abs-Feuchte:Windchill:Wind:
Aussen-T/F 601 12-06-2009 00:13:58 11.4 C 8.11 g/m*3 11.4 C 0 km/h
602 12-06-2009 00:25:58 11.3 C 8.06 g/m*3 11.3 C 0 km/h
603 12-06-2009 00:37:58 11.5 C 8.16 g/m*3 11.5 C 0 km/h
604 12-06-2009 00:49:58 11.7 C 8.16 g/m*3 11.7 C 0 km/h
605 12-06-2009 01:01:58 11.6 C 8.21 g/m*3 11.6 C 0 km/h
606 12-06-2009 01:13:58 11.1 C 8.26 g/m*3 11.1 C 0 km/h
607 12-06-2009 01:25:58 10.8 C 8.4 g/m*3 10.8 C 0 km/h
608 12-06-2009 01:37:58 10.6 C 8.49 g/m*3 10.6 C 0 km/h
609 12-06-2009 01:49:58 10.5 C 8.53 g/m*3 10.5 C 0 km/h
610 12-06-2009 02:01:58 10.4 C 8.58 g/m*3 10.4 C 0 km/h
611 12-06-2009 02:13:58 10.3 C 8.52 g/m*3 10.3 C 0 km/h
612 12-06-2009 02:25:58 10.4 C 8.48 g/m*3 10.4 C 0 km/h
613 12-06-2009 02:37:58 10.3 C 8.24 g/m*3 10.3 C 0 km/h
614 12-06-2009 02:49:58 10.3 C 8.14 g/m*3 10.3 C 0 km/h
615 12-06-2009 03:01:58 10.4 C 8.1 g/m*3 10.4 C 0 km/h
616 12-06-2009 03:13:58 10.4 C 8 g/m*3 10.4 C 0 km/h
617 12-06-2009 03:25:59 10.2 C 7.9 g/m*3 10.2 C 0 km/h
618 12-06-2009 03:37:59 10 C 7.89 g/m*3 10 C 0 km/h
619 12-06-2009 03:49:59 9.9 C 7.94 g/m*3 9.9 C 0 km/h
620 12-06-2009 04:01:59 9.9 C 8.03 g/m*3 9.9 C 0 km/h
621 12-06-2009 04:13:59 10 C 7.99 g/m*3 10 C 0 km/h
622 12-06-2009 04:25:59 9.8 C 8.07 g/m*3 9.8 C 0 km/h
623 12-06-2009 04:37:59 9.6 C 7.97 g/m*3 9.6 C 0 km/h
624 12-06-2009 04:49:59 9.4 C 7.96 g/m*3 9.4 C 0 km/h
625 12-06-2009 05:01:59 9.5 C 8.1 g/m*3 9.5 C 0 km/h
Sensor: Nr:Datum:Temp:Abs-Feuchte:Windchill:Wind:
Aussen-T/F 626 12-06-2009 05:13:59 9.6 C 8.06 g/m*3 9.6 C 0 km/h
627 12-06-2009 05:25:59 9.2 C 7.86 g/m*3 9.2 C 0 km/h
628 12-06-2009 05:37:59 9.1 C 7.72 g/m*3 9.1 C 0 km/h
629 12-06-2009 05:49:59 9.1 C 7.72 g/m*3 9.1 C 0 km/h
630 12-06-2009 06:01:59 9.2 C 7.77 g/m*3 9.2 C 0 km/h
631 12-06-2009 06:13:59 9.1 C 7.72 g/m*3 9.1 C 0 km/h
632 12-06-2009 06:25:58 9.1 C 7.72 g/m*3 9.1 C 0 km/h
633 12-06-2009 06:37:57 9.2 C 7.77 g/m*3 9.2 C 0 km/h
634 12-06-2009 06:49:57 9.3 C 7.82 g/m*3 9.3 C 0 km/h
635 12-06-2009 07:01:57 9.7 C 7.84 g/m*3 9.7 C 0 km/h
636 12-06-2009 07:13:57 10 C 7.61 g/m*3 10 C 0 km/h
637 12-06-2009 07:25:57 10.1 C 7.56 g/m*3 10.1 C 0 km/h
638 12-06-2009 07:37:56 10.2 C 7.52 g/m*3 10.2 C 0 km/h
639 12-06-2009 07:49:56 10.4 C 7.61 g/m*3 10.4 C 0 km/h
640 12-06-2009 08:01:57 10.5 C 7.57 g/m*3 10.5 C 0 km/h
641 12-06-2009 08:13:57 10.8 C 7.71 g/m*3 10.8 C 0 km/h
642 12-06-2009 08:25:56 11 C 7.51 g/m*3 11 C 0 km/h
643 12-06-2009 08:37:56 11.2 C 7.5 g/m*3 11.2 C 0 km/h
644 12-06-2009 08:49:56 11.7 C 7.74 g/m*3 11.7 C 0 km/h
645 12-06-2009 09:01:56 12.1 C 7.83 g/m*3 12.1 C 0 km/h
646 12-06-2009 09:13:56 12.4 C 7.87 g/m*3 12.4 C 0 km/h
647 12-06-2009 09:25:56 12.9 C 8.11 g/m*3 12.9 C 0 km/h
648 12-06-2009 09:37:56 13.4 C 8.14 g/m*3 13.4 C 0 km/h
649 12-06-2009 09:49:55 14.1 C 8.01 g/m*3 14.1 C 0 km/h
650 12-06-2009 10:01:55 15.4 C 8.28 g/m*3 15.4 C 0 km/h
Sensor: Nr:Datum:Temp:Abs-Feuchte:Windchill:Wind:
Aussen-T/F 651 12-06-2009 10:13:55 16.9 C 8.05 g/m*3 16.9 C 0 km/h
652 12-06-2009 10:25:55 17.3 C 7.51 g/m*3 17.3 C 0 km/h
653 12-06-2009 10:37:55 17.5 C 7.16 g/m*3 17.5 C 0 km/h
654 12-06-2009 10:49:54 17.2 C 6.74 g/m*3 17.2 C 0 km/h
655 12-06-2009 11:01:55 16.8 C 6.58 g/m*3 16.8 C 0 km/h
656 12-06-2009 11:13:55 17.1 C 6.11 g/m*3 17.1 C 0 km/h
657 12-06-2009 11:25:55 17.9 C 5.5 g/m*3 17.9 C 0 km/h
658 12-06-2009 11:37:54 18.3 C 5.47 g/m*3 18.3 C 0 km/h
659 12-06-2009 11:49:55 18.7 C 5.6 g/m*3 18.7 C 0 km/h
660 12-06-2009 12:01:54 18.9 C 5.51 g/m*3 18.9 C 0 km/h
661 12-06-2009 12:13:54 17.4 C 5.93 g/m*3 17.4 C 0 km/h
662 12-06-2009 12:25:54 18.5 C 5.85 g/m*3 18.5 C 0 km/h
663 12-06-2009 12:37:53 20.4 C 5.31 g/m*3 20.4 C 0 km/h
664 12-06-2009 12:49:54 20.7 C 4.68 g/m*3 20.7 C 0 km/h
665 12-06-2009 13:01:53 18.1 C 5.1 g/m*3 18.1 C 0 km/h
666 12-06-2009 13:13:53 20.9 C 5.65 g/m*3 20.9 C 0 km/h
667 12-06-2009 13:25:53 23.3 C 4.6 g/m*3 23.3 C 0 km/h
668 12-06-2009 13:37:54 21.8 C 5.56 g/m*3 21.8 C 0 km/h
669 12-06-2009 13:49:53 20.6 C 5.37 g/m*3 20.6 C 0 km/h
670 12-06-2009 14:01:53 21 C 4.95 g/m*3 21 C 0 km/h
671 12-06-2009 14:13:53 21.2 C 4.63 g/m*3 21.2 C 0 km/h
672 12-06-2009 14:25:53 21.3 C 4.85 g/m*3 21.3 C 0 km/h
673 12-06-2009 14:37:53 21.3 C 5.22 g/m*3 21.3 C 0 km/h
674 12-06-2009 14:49:52 21 C 4.95 g/m*3 21 C 0 km/h
675 12-06-2009 15:01:52 20.7 C 5.58 g/m*3 20.7 C 0 km/h
Sensor: Nr:Datum:Temp:Abs-Feuchte:Windchill:Wind:
Aussen-T/F 676 12-06-2009 15:13:52 21.8 C 5.56 g/m*3 21.8 C 0 km/h
677 12-06-2009 15:25:52 21.6 C 5.12 g/m*3 21.6 C 0 km/h
678 12-06-2009 15:37:52 21.6 C 5.31 g/m*3 21.6 C 0 km/h
679 12-06-2009 15:49:52 21.5 C 5.28 g/m*3 21.5 C 0 km/h
680 12-06-2009 16:01:52 21.7 C 5.34 g/m*3 21.7 C 0 km/h
681 12-06-2009 16:13:52 21.4 C 5.25 g/m*3 21.4 C 0 km/h
682 12-06-2009 16:25:52 22.2 C 5.3 g/m*3 22.2 C 0 km/h
683 12-06-2009 16:37:51 23.1 C 5.37 g/m*3 23.1 C 0 km/h
684 12-06-2009 16:49:52 23.6 C 5.32 g/m*3 23.6 C 0 km/h
685 12-06-2009 17:01:51 22.7 C 5.05 g/m*3 22.7 C 0 km/h
686 12-06-2009 17:13:51 22.2 C 4.91 g/m*3 22.2 C 0 km/h
687 12-06-2009 17:25:51 21.6 C 5.12 g/m*3 21.6 C 0 km/h
688 12-06-2009 17:37:51 23 C 4.73 g/m*3 23 C 0 km/h
689 12-06-2009 17:49:51 22.7 C 5.05 g/m*3 22.7 C 0 km/h
690 12-06-2009 18:01:51 22.2 C 4.91 g/m*3 22.2 C 0 km/h
691 12-06-2009 18:13:51 21.8 C 4.99 g/m*3 21.8 C 0 km/h
692 12-06-2009 18:25:50 22.7 C 5.05 g/m*3 22.7 C 0 km/h
693 12-06-2009 18:37:51 22 C 5.05 g/m*3 22 C 0 km/h
694 12-06-2009 18:49:50 22.7 C 5.05 g/m*3 22.7 C 0 km/h
695 12-06-2009 19:01:50 22.7 C 5.05 g/m*3 22.7 C 0 km/h
696 12-06-2009 19:13:50 22.9 C 5.11 g/m*3 22.9 C 0 km/h
697 12-06-2009 19:25:50 23.1 C 5.17 g/m*3 23.1 C 0 km/h
698 12-06-2009 19:37:50 22.9 C 5.11 g/m*3 22.9 C 0 km/h
699 12-06-2009 19:49:49 22.1 C 4.88 g/m*3 22.1 C 0 km/h
700 12-06-2009 20:01:50 21.5 C 4.9 g/m*3 21.5 C 0 km/h
Sensor: Nr:Datum:Temp:Abs-Feuchte:Windchill:Wind:
Aussen-T/F 701 12-06-2009 20:13:50 21.5 C 5.09 g/m*3 21.5 C 0 km/h
702 12-06-2009 20:25:50 20.4 C 5.31 g/m*3 20.4 C 0 km/h
703 12-06-2009 20:37:49 20.2 C 5.25 g/m*3 20.2 C 0 km/h
704 12-06-2009 20:49:50 20 C 5.18 g/m*3 20 C 0 km/h
705 12-06-2009 21:01:48 19.7 C 5.43 g/m*3 19.7 C 0 km/h
706 12-06-2009 21:13:48 19 C 5.54 g/m*3 19 C 0 km/h
707 12-06-2009 21:25:49 18.2 C 5.28 g/m*3 18.2 C 0 km/h
708 12-06-2009 21:37:49 17.8 C 5.46 g/m*3 17.8 C 0 km/h
709 12-06-2009 21:49:48 17.3 C 5.45 g/m*3 17.3 C 0 km/h
710 12-06-2009 22:01:49 16.8 C 5.43 g/m*3 16.8 C 0 km/h
711 12-06-2009 22:13:49 16.5 C 5.48 g/m*3 16.5 C 0 km/h
712 12-06-2009 22:26:50 16.2 C 5.52 g/m*3 16.2 C 0 km/h
713 12-06-2009 22:38:50 15.8 C 5.52 g/m*3 15.8 C 0 km/h
714 12-06-2009 22:50:50 15.5 C 5.95 g/m*3 15.5 C 0 km/h
715 12-06-2009 23:02:50 15 C 6.03 g/m*3 15 C 0 km/h
716 12-06-2009 23:14:50 14.6 C 6.13 g/m*3 14.6 C 0 km/h
717 12-06-2009 23:26:50 14.3 C 6.27 g/m*3 14.3 C 0 km/h
718 12-06-2009 23:38:50 13.9 C 6.59 g/m*3 13.9 C 0 km/h
719 12-06-2009 23:50:50 13.4 C 6.63 g/m*3 13.4 C 0 km/h
720 13-06-2009 00:02:50 13.2 C 6.77 g/m*3 13.2 C 0 km/h
721 13-06-2009 00:14:50 13 C 6.8 g/m*3 13 C 0 km/h
722 13-06-2009 00:26:50 12.7 C 7.01 g/m*3 12.7 C 0 km/h
723 13-06-2009 00:38:50 12.4 C 6.88 g/m*3 12.4 C 0 km/h
724 13-06-2009 00:50:50 12.2 C 6.8 g/m*3 12.2 C 0 km/h
725 13-06-2009 01:02:50 12.1 C 6.86 g/m*3 12.1 C 0 km/h
Sensor: Nr:Datum:Temp:Abs-Feuchte:Windchill:Wind:
Aussen-T/F 726 13-06-2009 01:14:50 11.8 C 6.95 g/m*3 11.8 C 0 km/h
727 13-06-2009 01:26:50 11.5 C 6.92 g/m*3 11.5 C 0 km/h
728 13-06-2009 01:38:50 11.3 C 6.83 g/m*3 11.3 C 0 km/h
729 13-06-2009 01:50:51 11.1 C 6.65 g/m*3 11.1 C 0 km/h
730 13-06-2009 02:02:51 10.9 C 6.76 g/m*3 10.9 C 0 km/h
731 13-06-2009 02:14:51 10.7 C 6.78 g/m*3 10.7 C 0 km/h
732 13-06-2009 02:26:51 10.6 C 6.83 g/m*3 10.6 C 0 km/h
733 13-06-2009 02:38:51 10.3 C 6.9 g/m*3 10.3 C 0 km/h
734 13-06-2009 02:50:51 10.2 C 6.85 g/m*3 10.2 C 0 km/h
735 13-06-2009 03:02:51 9.9 C 6.91 g/m*3 9.9 C 0 km/h
736 13-06-2009 03:14:51 9.7 C 6.91 g/m*3 9.7 C 0 km/h
737 13-06-2009 03:26:51 9.5 C 6.92 g/m*3 9.5 C 0 km/h
738 13-06-2009 03:38:51 9.5 C 6.92 g/m*3 9.5 C 0 km/h
739 13-06-2009 03:50:51 9.2 C 6.97 g/m*3 9.2 C 0 km/h
740 13-06-2009 04:02:51 9 C 6.88 g/m*3 9 C 0 km/h
741 13-06-2009 04:14:51 8.9 C 7.01 g/m*3 8.9 C 0 km/h
742 13-06-2009 04:26:51 8.7 C 6.92 g/m*3 8.7 C 0 km/h
743 13-06-2009 04:38:51 8.6 C 6.87 g/m*3 8.6 C 0 km/h
744 13-06-2009 04:50:51 8.5 C 6.83 g/m*3 8.5 C 0 km/h
745 13-06-2009 05:02:51 8.4 C 6.79 g/m*3 8.4 C 0 km/h
746 13-06-2009 05:14:51 8.3 C 6.66 g/m*3 8.3 C 0 km/h
747 13-06-2009 05:26:51 8.2 C 6.7 g/m*3 8.2 C 0 km/h
748 13-06-2009 05:38:51 8.1 C 6.66 g/m*3 8.1 C 0 km/h
749 13-06-2009 05:50:51 8.1 C 6.74 g/m*3 8.1 C 0 km/h
750 13-06-2009 06:02:49 8.2 C 6.78 g/m*3 8.2 C 0 km/h
Sensor: Nr:Datum:Temp:Abs-Feuchte:Windchill:Wind:
Aussen-T/F 751 13-06-2009 06:14:50 8.3 C 6.91 g/m*3 8.3 C 0 km/h
752 13-06-2009 06:26:51 8.2 C 6.95 g/m*3 8.2 C 0 km/h
753 13-06-2009 06:38:49 8.4 C 7.04 g/m*3 8.4 C 0 km/h
754 13-06-2009 06:50:49 8.4 C 7.04 g/m*3 8.4 C 0 km/h
755 13-06-2009 07:02:49 8.6 C 7.13 g/m*3 8.6 C 0 km/h
756 13-06-2009 07:14:49 8.7 C 7.18 g/m*3 8.7 C 0 km/h
757 13-06-2009 07:26:49 8.8 C 7.14 g/m*3 8.8 C 0 km/h
758 13-06-2009 07:38:49 9.1 C 7.19 g/m*3 9.1 C 0 km/h
759 13-06-2009 07:50:49 9.3 C 7.19 g/m*3 9.3 C 0 km/h
760 13-06-2009 08:02:49 9.7 C 7.38 g/m*3 9.7 C 0 km/h
761 13-06-2009 08:14:48 10 C 7.05 g/m*3 10 C 0 km/h
762 13-06-2009 08:26:48 10.2 C 6.95 g/m*3 10.2 C 0 km/h
763 13-06-2009 08:38:48 10.6 C 7.12 g/m*3 10.6 C 0 km/h
764 13-06-2009 08:50:48 11.7 C 7.22 g/m*3 11.7 C 0 km/h
765 13-06-2009 09:02:47 12.5 C 7.04 g/m*3 12.5 C 0 km/h
766 13-06-2009 09:14:48 13.3 C 7.16 g/m*3 13.3 C 0 km/h
767 13-06-2009 09:26:48 14 C 7 g/m*3 14 C 0 km/h
768 13-06-2009 09:38:48 14.6 C 7.01 g/m*3 14.6 C 0 km/h
769 13-06-2009 09:50:47 15.2 C 7.01 g/m*3 15.2 C 0 km/h
770 13-06-2009 10:02:48 15.4 C 6.96 g/m*3 15.4 C 0 km/h
771 13-06-2009 10:14:47 15.7 C 6.96 g/m*3 15.7 C 0 km/h
772 13-06-2009 10:26:47 16.8 C 7.29 g/m*3 16.8 C 0 km/h
773 13-06-2009 10:38:47 17.3 C 6.78 g/m*3 17.3 C 0 km/h
774 13-06-2009 10:50:47 18.4 C 6.76 g/m*3 18.4 C 0 km/h
775 13-06-2009 11:02:47 18.9 C 6.8 g/m*3 18.9 C 0 km/h
Sensor: Nr:Datum:Temp:Abs-Feuchte:Windchill:Wind:
Aussen-T/F 776 13-06-2009 11:14:47 19.6 C 6.75 g/m*3 19.6 C 0 km/h
777 13-06-2009 11:26:47 19.9 C 6.36 g/m*3 19.9 C 0 km/h
778 13-06-2009 11:38:46 20.9 C 6.74 g/m*3 20.9 C 0 km/h
779 13-06-2009 11:50:47 20.4 C 6.19 g/m*3 20.4 C 0 km/h
780 13-06-2009 12:02:46 21.6 C 5.88 g/m*3 21.6 C 0 km/h
781 13-06-2009 12:14:46 21.3 C 5.78 g/m*3 21.3 C 0 km/h
782 13-06-2009 12:26:46 23.6 C 6.38 g/m*3 23.6 C 0 km/h
783 13-06-2009 12:38:46 24.2 C 6.16 g/m*3 24.2 C 0 km/h
784 13-06-2009 12:50:46 24.4 C 5.79 g/m*3 24.4 C 0 km/h
785 13-06-2009 13:02:45 25.3 C 6.09 g/m*3 25.3 C 0 km/h
786 13-06-2009 13:14:45 25 C 5.75 g/m*3 25 C 0 km/h
787 13-06-2009 13:26:45 25.5 C 5.68 g/m*3 25.5 C 0 km/h
788 13-06-2009 13:38:46 26.6 C 5.54 g/m*3 26.6 C 0 km/h
789 13-06-2009 13:50:45 27.1 C 5.69 g/m*3 27.1 C 0 km/h
790 13-06-2009 14:02:45 26.9 C 5.37 g/m*3 26.9 C 0 km/h
791 13-06-2009 14:14:45 25 C 5.75 g/m*3 25 C 0 km/h
792 13-06-2009 14:26:45 25.4 C 6.12 g/m*3 25.4 C 0 km/h
793 13-06-2009 14:38:45 25.4 C 6.12 g/m*3 25.4 C 0 km/h
794 13-06-2009 14:50:45 26.5 C 6.51 g/m*3 26.5 C 0 km/h
795 13-06-2009 15:02:44 25.8 C 6.02 g/m*3 25.8 C 0 km/h
796 13-06-2009 15:14:44 26 C 6.33 g/m*3 26 C 0 km/h
797 13-06-2009 15:26:44 26.7 C 6.33 g/m*3 26.7 C 0 km/h
798 13-06-2009 15:38:44 28.1 C 6.29 g/m*3 28.1 C 0 km/h
799 13-06-2009 15:50:44 28.8 C 6.25 g/m*3 28.8 C 0 km/h
800 13-06-2009 16:02:44 28.2 C 6.05 g/m*3 28.2 C 0 km/h
Sensor: Nr:Datum:Temp:Abs-Feuchte:Windchill:Wind:
Aussen-T/F 801 13-06-2009 16:14:44 28.4 C 6.12 g/m*3 28.4 C 0 km/h
802 13-06-2009 16:26:44 27.5 C 5.82 g/m*3 27.5 C 0 km/h
803 13-06-2009 16:38:44 27.9 C 6.76 g/m*3 27.9 C 0 km/h
804 13-06-2009 16:50:43 29.9 C 6.33 g/m*3 29.9 C 0 km/h
805 13-06-2009 17:02:44 30.5 C 6.23 g/m*3 30.5 C 0 km/h
806 13-06-2009 17:14:43 30.9 C 6.37 g/m*3 30.9 C 0 km/h
807 13-06-2009 17:26:43 30.1 C 6.1 g/m*3 30.1 C 0 km/h
808 13-06-2009 17:38:43 29.8 C 6 g/m*3 29.8 C 0 km/h
809 13-06-2009 17:50:43 28.8 C 6.25 g/m*3 28.8 C 0 km/h
810 13-06-2009 18:02:43 27.9 C 6.22 g/m*3 27.9 C 0 km/h
811 13-06-2009 18:14:43 28 C 5.98 g/m*3 28 C 0 km/h
812 13-06-2009 18:26:43 27.3 C 6.02 g/m*3 27.3 C 0 km/h
813 13-06-2009 18:38:42 27.5 C 6.08 g/m*3 27.5 C 0 km/h
814 13-06-2009 18:50:43 27.4 C 6.05 g/m*3 27.4 C 0 km/h
815 13-06-2009 19:02:42 27 C 6.18 g/m*3 27 C 0 km/h
816 13-06-2009 19:14:42 27.8 C 6.19 g/m*3 27.8 C 0 km/h
817 13-06-2009 19:26:42 27.7 C 6.42 g/m*3 27.7 C 0 km/h
818 13-06-2009 19:38:42 27.6 C 6.38 g/m*3 27.6 C 0 km/h
819 13-06-2009 19:50:42 26.9 C 6.4 g/m*3 26.9 C 0 km/h
820 13-06-2009 20:02:41 26.8 C 6.36 g/m*3 26.8 C 0 km/h
821 13-06-2009 20:14:42 26.1 C 6.37 g/m*3 26.1 C 0 km/h
822 13-06-2009 20:26:42 26.1 C 6.37 g/m*3 26.1 C 0 km/h
823 13-06-2009 20:38:42 25.5 C 6.63 g/m*3 25.5 C 0 km/h
824 13-06-2009 20:50:41 24.6 C 7.2 g/m*3 24.6 C 0 km/h
825 13-06-2009 21:02:42 23.7 C 7.7 g/m*3 23.7 C 0 km/h
Sensor: Nr:Datum:Temp:Abs-Feuchte:Windchill:Wind:
Aussen-T/F 826 13-06-2009 21:14:41 22.7 C 7.88 g/m*3 22.7 C 0 km/h
827 13-06-2009 21:26:41 21.6 C 7.59 g/m*3 21.6 C 0 km/h
828 13-06-2009 21:38:41 20.7 C 7.56 g/m*3 20.7 C 0 km/h
829 13-06-2009 21:50:40 19.8 C 7.52 g/m*3 19.8 C 0 km/h
830 13-06-2009 22:02:41 19.5 C 7.72 g/m*3 19.5 C 0 km/h
831 13-06-2009 22:14:40 19.1 C 7.54 g/m*3 19.1 C 0 km/h
832 13-06-2009 22:26:40 19.1 C 7.54 g/m*3 19.1 C 0 km/h
833 13-06-2009 22:38:41 18.9 C 7.45 g/m*3 18.9 C 0 km/h
834 13-06-2009 22:51:41 18.6 C 7.64 g/m*3 18.6 C 0 km/h
835 13-06-2009 23:03:41 18.2 C 7.46 g/m*3 18.2 C 0 km/h
836 13-06-2009 23:15:41 18.1 C 7.57 g/m*3 18.1 C 0 km/h
837 13-06-2009 23:27:41 17.9 C 7.79 g/m*3 17.9 C 0 km/h
838 13-06-2009 23:39:41 17.3 C 7.51 g/m*3 17.3 C 0 km/h
839 13-06-2009 23:51:41 17 C 7.52 g/m*3 17 C 0 km/h
840 14-06-2009 00:03:41 16.8 C 7.72 g/m*3 16.8 C 0 km/h
841 14-06-2009 00:15:41 16.5 C 7.72 g/m*3 16.5 C 0 km/h
842 14-06-2009 00:27:41 16.3 C 7.77 g/m*3 16.3 C 0 km/h
843 14-06-2009 00:39:41 16 C 8.04 g/m*3 16 C 0 km/h
844 14-06-2009 00:51:41 15.6 C 8.11 g/m*3 15.6 C 0 km/h
845 14-06-2009 01:03:41 15.6 C 7.98 g/m*3 15.6 C 0 km/h
846 14-06-2009 01:15:41 15.4 C 7.88 g/m*3 15.4 C 0 km/h
847 14-06-2009 01:27:41 15.2 C 7.79 g/m*3 15.2 C 0 km/h
848 14-06-2009 01:39:41 15 C 8.08 g/m*3 15 C 0 km/h
849 14-06-2009 01:51:41 14.8 C 8.11 g/m*3 14.8 C 0 km/h
850 14-06-2009 02:03:41 14.7 C 8.18 g/m*3 14.7 C 0 km/h
Sensor: Nr:Datum:Temp:Abs-Feuchte:Windchill:Wind:
Aussen-T/F 851 14-06-2009 02:15:41 14.6 C 8.26 g/m*3 14.6 C 0 km/h
852 14-06-2009 02:27:42 14.3 C 8.23 g/m*3 14.3 C 0 km/h
853 14-06-2009 02:39:42 14.1 C 8.37 g/m*3 14.1 C 0 km/h
854 14-06-2009 02:51:42 14 C 8.44 g/m*3 14 C 0 km/h
855 14-06-2009 03:03:42 13.9 C 8.51 g/m*3 13.9 C 0 km/h
856 14-06-2009 03:15:42 13.6 C 8.36 g/m*3 13.6 C 0 km/h
857 14-06-2009 03:27:42 13.6 C 8.36 g/m*3 13.6 C 0 km/h
858 14-06-2009 03:39:42 13.4 C 8.37 g/m*3 13.4 C 0 km/h
859 14-06-2009 03:51:42 13.4 C 8.37 g/m*3 13.4 C 0 km/h
860 14-06-2009 04:03:42 13.1 C 8.22 g/m*3 13.1 C 0 km/h
861 14-06-2009 04:15:42 12.9 C 8.23 g/m*3 12.9 C 0 km/h
862 14-06-2009 04:27:42 12.8 C 8.29 g/m*3 12.8 C 0 km/h
863 14-06-2009 04:39:42 12.7 C 8.35 g/m*3 12.7 C 0 km/h
864 14-06-2009 04:51:42 12.5 C 8.25 g/m*3 12.5 C 0 km/h
865 14-06-2009 05:03:42 12.4 C 8.3 g/m*3 12.4 C 0 km/h
866 14-06-2009 05:15:42 12.2 C 8.2 g/m*3 12.2 C 0 km/h
867 14-06-2009 05:27:42 12.2 C 8.31 g/m*3 12.2 C 0 km/h
868 14-06-2009 05:39:42 12.1 C 8.26 g/m*3 12.1 C 0 km/h
869 14-06-2009 05:51:42 12 C 8.31 g/m*3 12 C 0 km/h
870 14-06-2009 06:03:42 12 C 8.31 g/m*3 12 C 0 km/h
871 14-06-2009 06:15:43 12.4 C 8.52 g/m*3 12.4 C 0 km/h
872 14-06-2009 06:27:43 12.8 C 8.62 g/m*3 12.8 C 0 km/h
873 14-06-2009 06:39:43 13 C 8.62 g/m*3 13 C 0 km/h
874 14-06-2009 06:51:43 13.2 C 8.61 g/m*3 13.2 C 0 km/h
875 14-06-2009 07:03:43 13 C 8.51 g/m*3 13 C 0 km/h
Sensor: Nr:Datum:Temp:Abs-Feuchte:Windchill:Wind:
Aussen-T/F 876 14-06-2009 07:15:43 13 C 8.62 g/m*3 13 C 0 km/h
877 14-06-2009 07:27:43 13.1 C 8.67 g/m*3 13.1 C 0 km/h
878 14-06-2009 07:39:43 13.4 C 8.72 g/m*3 13.4 C 0 km/h
879 14-06-2009 07:51:43 13.4 C 8.72 g/m*3 13.4 C 0 km/h
880 14-06-2009 08:03:41 13.6 C 8.71 g/m*3 13.6 C 0 km/h
881 14-06-2009 08:15:41 13.6 C 8.71 g/m*3 13.6 C 0 km/h
882 14-06-2009 08:27:41 13.8 C 8.58 g/m*3 13.8 C 0 km/h
883 14-06-2009 08:39:41 14.2 C 8.55 g/m*3 14.2 C 0 km/h
884 14-06-2009 08:51:40 14.8 C 8.87 g/m*3 14.8 C 0 km/h
885 14-06-2009 09:03:41 15.3 C 8.88 g/m*3 15.3 C 0 km/h
886 14-06-2009 09:15:41 15.9 C 8.94 g/m*3 15.9 C 0 km/h
887 14-06-2009 09:27:41 16.7 C 9.24 g/m*3 16.7 C 0 km/h
888 14-06-2009 09:39:41 17.6 C 9.3 g/m*3 17.6 C 0 km/h
889 14-06-2009 09:51:40 18.3 C 9.07 g/m*3 18.3 C 0 km/h
890 14-06-2009 10:03:40 19.4 C 9.34 g/m*3 19.4 C 0 km/h
891 14-06-2009 10:15:40 20.1 C 9.21 g/m*3 20.1 C 0 km/h
892 14-06-2009 10:27:40 20.8 C 9.05 g/m*3 20.8 C 0 km/h
893 14-06-2009 10:39:39 21.6 C 8.72 g/m*3 21.6 C 0 km/h
894 14-06-2009 10:51:40 21.7 C 8.39 g/m*3 21.7 C 0 km/h
895 14-06-2009 11:03:39 22.5 C 8.39 g/m*3 22.5 C 0 km/h
896 14-06-2009 11:15:39 23.7 C 8.77 g/m*3 23.7 C 0 km/h
897 14-06-2009 11:27:39 24.8 C 8.88 g/m*3 24.8 C 0 km/h
898 14-06-2009 11:39:40 25.5 C 8.52 g/m*3 25.5 C 0 km/h
899 14-06-2009 11:51:39 26.1 C 7.59 g/m*3 26.1 C 0 km/h
900 14-06-2009 12:03:39 26.8 C 7.64 g/m*3 26.8 C 0 km/h
Sensor: Nr:Datum:Temp:Abs-Feuchte:Windchill:Wind:
Aussen-T/F 901 14-06-2009 12:15:39 26.4 C 7.22 g/m*3 26.4 C 0 km/h
902 14-06-2009 12:27:39 27 C 7.72 g/m*3 27 C 0 km/h
903 14-06-2009 12:39:39 26.1 C 7.1 g/m*3 26.1 C 0 km/h
904 14-06-2009 12:51:38 27.9 C 7.3 g/m*3 27.9 C 0 km/h
905 14-06-2009 13:03:39 27.5 C 7.14 g/m*3 27.5 C 0 km/h
906 14-06-2009 13:15:38 28.3 C 7.46 g/m*3 28.3 C 0 km/h
907 14-06-2009 13:27:38 28.2 C 7.42 g/m*3 28.2 C 0 km/h
908 14-06-2009 13:39:38 28.2 C 7.42 g/m*3 28.2 C 0 km/h
909 14-06-2009 13:51:37 27.8 C 6.99 g/m*3 27.8 C 0 km/h
910 14-06-2009 14:03:38 28.7 C 7.63 g/m*3 28.7 C 0 km/h
911 14-06-2009 14:15:38 28.9 C 7.71 g/m*3 28.9 C 0 km/h
912 14-06-2009 14:27:38 28.3 C 7.74 g/m*3 28.3 C 0 km/h
913 14-06-2009 14:39:37 28.6 C 7.59 g/m*3 28.6 C 0 km/h
914 14-06-2009 14:51:38 28.6 C 7.59 g/m*3 28.6 C 0 km/h
915 14-06-2009 15:03:37 29.1 C 7.51 g/m*3 29.1 C 0 km/h
916 14-06-2009 15:15:37 29.6 C 7.42 g/m*3 29.6 C 0 km/h
917 14-06-2009 15:27:37 29.6 C 7.42 g/m*3 29.6 C 0 km/h
918 14-06-2009 15:39:36 30.2 C 7.66 g/m*3 30.2 C 0 km/h
919 14-06-2009 15:51:37 30.3 C 7.09 g/m*3 30.3 C 0 km/h
920 14-06-2009 16:03:36 30.4 C 7.13 g/m*3 30.4 C 0 km/h
921 14-06-2009 16:15:36 30.3 C 7.09 g/m*3 30.3 C 0 km/h
922 14-06-2009 16:27:36 30.9 C 7 g/m*3 30.9 C 0 km/h
923 14-06-2009 16:39:37 31.5 C 7.23 g/m*3 31.5 C 0 km/h
924 14-06-2009 16:51:36 30.8 C 6.65 g/m*3 30.8 C 0 km/h
925 14-06-2009 17:03:36 31.2 C 6.47 g/m*3 31.2 C 0 km/h
Sensor: Nr:Datum:Temp:Abs-Feuchte:Windchill:Wind:
Aussen-T/F 926 14-06-2009 17:15:36 31 C 6.72 g/m*3 31 C 0 km/h
927 14-06-2009 17:27:36 31.2 C 6.47 g/m*3 31.2 C 0 km/h
928 14-06-2009 17:39:36 30.7 C 7.24 g/m*3 30.7 C 0 km/h
929 14-06-2009 17:51:35 26.2 C 8.86 g/m*3 26.2 C 0 km/h
930 14-06-2009 18:03:36 24.8 C 10.7 g/m*3 24.8 C 0 km/h
931 14-06-2009 18:15:35 26.4 C 9.71 g/m*3 26.4 C 0 km/h
932 14-06-2009 18:27:35 27.9 C 10.01 g/m*3 27.9 C 0 km/h
933 14-06-2009 18:39:35 27.2 C 9.63 g/m*3 27.2 C 0 km/h
934 14-06-2009 18:51:35 25.1 C 10.88 g/m*3 25.1 C 0 km/h
935 14-06-2009 19:03:35 24.6 C 11.93 g/m*3 24.6 C 0 km/h
936 14-06-2009 19:15:35 22.4 C 14.1 g/m*3 22.4 C 0 km/h
937 14-06-2009 19:27:35 22 C 15.72 g/m*3 22 C 0 km/h
938 14-06-2009 19:39:34 22.4 C 16.09 g/m*3 22.4 C 0 km/h
939 14-06-2009 19:51:35 22.3 C 15.6 g/m*3 22.3 C 0 km/h
940 14-06-2009 20:03:34 21.8 C 14.97 g/m*3 21.8 C 0 km/h
941 14-06-2009 20:15:34 21.6 C 14.79 g/m*3 21.6 C 0 km/h
942 14-06-2009 20:27:34 21.2 C 14.27 g/m*3 21.2 C 0 km/h
943 14-06-2009 20:39:34 20.7 C 14.4 g/m*3 20.7 C 0 km/h
944 14-06-2009 20:51:34 20.6 C 14.86 g/m*3 20.6 C 0 km/h
945 14-06-2009 21:03:34 20.4 C 14.86 g/m*3 20.4 C 0 km/h
946 14-06-2009 21:15:33 20.4 C 15.04 g/m*3 20.4 C 0 km/h
947 14-06-2009 21:27:33 20.4 C 15.04 g/m*3 20.4 C 0 km/h
948 14-06-2009 21:39:33 20.1 C 14.78 g/m*3 20.1 C 0 km/h
949 14-06-2009 21:51:33 20 C 14.52 g/m*3 20 C 0 km/h
950 14-06-2009 22:03:33 19.9 C 14.43 g/m*3 19.9 C 0 km/h
Sensor: Nr:Datum:Temp:Abs-Feuchte:Windchill:Wind:
Aussen-T/F 951 14-06-2009 22:16:34 19.8 C 14.18 g/m*3 19.8 C 0 km/h
952 14-06-2009 22:28:34 19.8 C 14.18 g/m*3 19.8 C 0 km/h
953 14-06-2009 22:40:34 19.8 C 14.18 g/m*3 19.8 C 0 km/h
954 14-06-2009 22:52:34 19.7 C 13.92 g/m*3 19.7 C 0 km/h
955 14-06-2009 23:04:34 19.1 C 13.61 g/m*3 19.1 C 0 km/h
956 14-06-2009 23:16:34 18.9 C 13.77 g/m*3 18.9 C 0 km/h
957 14-06-2009 23:28:34 18.7 C 13.77 g/m*3 18.7 C 0 km/h
958 14-06-2009 23:40:34 18.7 C 13.93 g/m*3 18.7 C 0 km/h
959 14-06-2009 23:52:34 18.5 C 13.61 g/m*3 18.5 C 0 km/h
960 15-06-2009 00:04:34 18.4 C 13.53 g/m*3 18.4 C 0 km/h
961 15-06-2009 00:16:34 18.3 C 13.45 g/m*3 18.3 C 0 km/h
962 15-06-2009 00:28:34 18.2 C 13.37 g/m*3 18.2 C 0 km/h
963 15-06-2009 00:40:34 18.3 C 13.6 g/m*3 18.3 C 0 km/h
964 15-06-2009 00:52:34 18.3 C 13.45 g/m*3 18.3 C 0 km/h
965 15-06-2009 01:04:34 17.9 C 13.13 g/m*3 17.9 C 0 km/h
966 15-06-2009 01:16:34 17.7 C 12.98 g/m*3 17.7 C 0 km/h
967 15-06-2009 01:28:34 17.5 C 12.82 g/m*3 17.5 C 0 km/h
968 15-06-2009 01:40:35 17.3 C 12.67 g/m*3 17.3 C 0 km/h
969 15-06-2009 01:52:35 17.3 C 12.82 g/m*3 17.3 C 0 km/h
970 15-06-2009 02:04:35 17.2 C 12.74 g/m*3 17.2 C 0 km/h
971 15-06-2009 02:16:35 17.1 C 12.66 g/m*3 17.1 C 0 km/h
972 15-06-2009 02:28:35 17 C 12.59 g/m*3 17 C 0 km/h
973 15-06-2009 02:40:35 16.9 C 12.51 g/m*3 16.9 C 0 km/h
974 15-06-2009 02:52:35 16.9 C 12.51 g/m*3 16.9 C 0 km/h
975 15-06-2009 03:04:35 17 C 12.59 g/m*3 17 C 0 km/h
Sensor: Nr:Datum:Temp:Abs-Feuchte:Windchill:Wind:
Aussen-T/F 976 15-06-2009 03:16:35 17.1 C 12.66 g/m*3 17.1 C 0 km/h
977 15-06-2009 03:28:35 17.1 C 12.66 g/m*3 17.1 C 0 km/h
978 15-06-2009 03:40:35 17.2 C 12.59 g/m*3 17.2 C 0 km/h
979 15-06-2009 03:52:35 17 C 12.3 g/m*3 17 C 0 km/h
980 15-06-2009 04:04:35 16.8 C 12.3 g/m*3 16.8 C 0 km/h
981 15-06-2009 04:16:35 16.8 C 12.44 g/m*3 16.8 C 0 km/h
982 15-06-2009 04:28:35 16.6 C 12.29 g/m*3 16.6 C 0 km/h
983 15-06-2009 04:40:35 16.4 C 12.14 g/m*3 16.4 C 0 km/h
984 15-06-2009 04:52:35 16.3 C 12.07 g/m*3 16.3 C 0 km/h
985 15-06-2009 05:04:35 16.3 C 12.21 g/m*3 16.3 C 0 km/h
986 15-06-2009 05:16:35 16.4 C 12.42 g/m*3 16.4 C 0 km/h
987 15-06-2009 05:28:36 16.5 C 12.5 g/m*3 16.5 C 0 km/h
988 15-06-2009 05:40:36 16.6 C 12.57 g/m*3 16.6 C 0 km/h
989 15-06-2009 05:52:36 16.6 C 12.57 g/m*3 16.6 C 0 km/h
990 15-06-2009 06:04:36 16.8 C 12.58 g/m*3 16.8 C 0 km/h
991 15-06-2009 06:16:36 16.5 C 12.36 g/m*3 16.5 C 0 km/h
992 15-06-2009 06:28:36 16.8 C 12.58 g/m*3 16.8 C 0 km/h
993 15-06-2009 06:40:36 16.9 C 12.51 g/m*3 16.9 C 0 km/h
994 15-06-2009 06:52:36 17 C 12.44 g/m*3 17 C 0 km/h
995 15-06-2009 07:04:36 17.2 C 12.45 g/m*3 17.2 C 0 km/h
996 15-06-2009 07:16:34 16.8 C 12.3 g/m*3 16.8 C 0 km/h
997 15-06-2009 07:28:34 17 C 12.3 g/m*3 17 C 0 km/h
998 15-06-2009 07:40:34 17.3 C 12.52 g/m*3 17.3 C 0 km/h
999 15-06-2009 07:52:33 17.5 C 12.52 g/m*3 17.5 C 0 km/h
1000 15-06-2009 08:04:34 17.8 C 12.75 g/m*3 17.8 C 0 km/h
Sensor: Nr:Datum:Temp:Abs-Feuchte:Windchill:Wind:
Aussen-T/F 1001 15-06-2009 08:16:33 17.8 C 12.75 g/m*3 17.8 C 0 km/h
1002 15-06-2009 08:28:33 17.9 C 12.98 g/m*3 17.9 C 0 km/h
1003 15-06-2009 08:40:33 18 C 12.9 g/m*3 18 C 0 km/h
1004 15-06-2009 08:52:33 18.1 C 12.98 g/m*3 18.1 C 0 km/h
1005 15-06-2009 09:04:32 18.5 C 13.13 g/m*3 18.5 C 0 km/h
1006 15-06-2009 09:16:33 18.5 C 12.97 g/m*3 18.5 C 0 km/h
1007 15-06-2009 09:28:34 18.5 C 12.82 g/m*3 18.5 C 0 km/h
1008 15-06-2009 09:40:32 18.5 C 12.82 g/m*3 18.5 C 0 km/h
1009 15-06-2009 09:52:32 18.3 C 12.66 g/m*3 18.3 C 0 km/h
1010 15-06-2009 10:04:32 18 C 12.44 g/m*3 18 C 0 km/h
1011 15-06-2009 10:16:32 17.9 C 12.83 g/m*3 17.9 C 0 km/h
1012 15-06-2009 10:28:32 17.9 C 12.98 g/m*3 17.9 C 0 km/h
1013 15-06-2009 10:40:32 17.8 C 13.05 g/m*3 17.8 C 0 km/h
1014 15-06-2009 10:52:32 17.6 C 12.9 g/m*3 17.6 C 0 km/h
1015 15-06-2009 11:04:32 17.2 C 12.74 g/m*3 17.2 C 0 km/h
1016 15-06-2009 11:16:31 17.2 C 12.89 g/m*3 17.2 C 0 km/h
1017 15-06-2009 11:28:31 17.3 C 13.11 g/m*3 17.3 C 0 km/h
1018 15-06-2009 11:40:31 17.3 C 13.11 g/m*3 17.3 C 0 km/h
1019 15-06-2009 11:52:31 17.3 C 13.26 g/m*3 17.3 C 0 km/h
1020 15-06-2009 12:04:31 17.5 C 13.57 g/m*3 17.5 C 0 km/h
1021 15-06-2009 12:16:31 17.5 C 13.57 g/m*3 17.5 C 0 km/h
1022 15-06-2009 12:28:31 17.5 C 13.57 g/m*3 17.5 C 0 km/h
1023 15-06-2009 12:40:30 17.8 C 13.96 g/m*3 17.8 C 0 km/h
1024 15-06-2009 12:52:31 18.1 C 14.06 g/m*3 18.1 C 0 km/h
1025 15-06-2009 13:04:30 18.3 C 14.23 g/m*3 18.3 C 0 km/h
Sensor: Nr:Datum:Temp:Abs-Feuchte:Windchill:Wind:
Aussen-T/F 1026 15-06-2009 13:16:30 17.9 C 14.05 g/m*3 17.9 C 0 km/h
1027 15-06-2009 13:28:30 18 C 13.98 g/m*3 18 C 0 km/h
1028 15-06-2009 13:40:30 18.3 C 14.23 g/m*3 18.3 C 0 km/h
1029 15-06-2009 13:52:30 18.4 C 14.31 g/m*3 18.4 C 0 km/h
1030 15-06-2009 14:04:30 18.2 C 14.14 g/m*3 18.2 C 0 km/h
1031 15-06-2009 14:16:30 17.9 C 14.05 g/m*3 17.9 C 0 km/h
1032 15-06-2009 14:28:30 17.9 C 14.05 g/m*3 17.9 C 0 km/h
1033 15-06-2009 14:40:30 17.8 C 14.12 g/m*3 17.8 C 0 km/h
1034 15-06-2009 14:52:29 17.6 C 13.95 g/m*3 17.6 C 0 km/h
1035 15-06-2009 15:04:29 17.8 C 14.12 g/m*3 17.8 C 0 km/h
1036 15-06-2009 15:16:29 17.9 C 14.2 g/m*3 17.9 C 0 km/h
1037 15-06-2009 15:28:29 17.9 C 14.2 g/m*3 17.9 C 0 km/h
1038 15-06-2009 15:40:29 17.1 C 13.54 g/m*3 17.1 C 0 km/h
1039 15-06-2009 15:52:28 16.8 C 13.44 g/m*3 16.8 C 0 km/h
1040 15-06-2009 16:04:29 16.4 C 13.12 g/m*3 16.4 C 0 km/h
1041 15-06-2009 16:16:29 16.2 C 12.96 g/m*3 16.2 C 0 km/h
1042 15-06-2009 16:28:29 16.2 C 12.96 g/m*3 16.2 C 0 km/h
1043 15-06-2009 16:40:28 16.1 C 12.88 g/m*3 16.1 C 0 km/h
1044 15-06-2009 16:52:29 16.2 C 12.96 g/m*3 16.2 C 0 km/h
1045 15-06-2009 17:04:28 15.8 C 12.65 g/m*3 15.8 C 0 km/h
1046 15-06-2009 17:16:28 16.1 C 12.75 g/m*3 16.1 C 0 km/h
1047 15-06-2009 17:28:28 16.4 C 12.98 g/m*3 16.4 C 0 km/h
1048 15-06-2009 17:40:28 16.8 C 13.3 g/m*3 16.8 C 0 km/h
1049 15-06-2009 17:52:28 16.6 C 13.14 g/m*3 16.6 C 0 km/h
1050 15-06-2009 18:04:28 16.6 C 13 g/m*3 16.6 C 0 km/h
Sensor: Nr:Datum:Temp:Abs-Feuchte:Windchill:Wind:
Aussen-T/F 1051 15-06-2009 18:16:27 16.4 C 12.84 g/m*3 16.4 C 0 km/h
1052 15-06-2009 18:28:27 16.3 C 12.76 g/m*3 16.3 C 0 km/h
1053 15-06-2009 18:40:28 16.2 C 12.69 g/m*3 16.2 C 0 km/h
1054 15-06-2009 18:52:27 15.7 C 12.04 g/m*3 15.7 C 0 km/h
1055 15-06-2009 19:04:27 15.8 C 11.85 g/m*3 15.8 C 0 km/h
1056 15-06-2009 19:16:26 15.7 C 11.77 g/m*3 15.7 C 0 km/h
1057 15-06-2009 19:28:26 15.5 C 11.76 g/m*3 15.5 C 0 km/h
1058 15-06-2009 19:40:27 15.4 C 11.82 g/m*3 15.4 C 0 km/h
1059 15-06-2009 19:52:26 15.2 C 11.81 g/m*3 15.2 C 0 km/h
1060 15-06-2009 20:04:26 15.1 C 11.87 g/m*3 15.1 C 0 km/h
1061 15-06-2009 20:16:27 15.2 C 11.94 g/m*3 15.2 C 0 km/h
1062 15-06-2009 20:28:27 15.2 C 12.07 g/m*3 15.2 C 0 km/h
1063 15-06-2009 20:40:26 15.1 C 12 g/m*3 15.1 C 0 km/h
1064 15-06-2009 20:52:26 14.9 C 11.98 g/m*3 14.9 C 0 km/h
1065 15-06-2009 21:04:26 14.7 C 11.71 g/m*3 14.7 C 0 km/h
1066 15-06-2009 21:16:26 14.8 C 11.78 g/m*3 14.8 C 0 km/h
1067 15-06-2009 21:28:26 14.9 C 11.98 g/m*3 14.9 C 0 km/h
1068 15-06-2009 21:40:26 14.8 C 11.91 g/m*3 14.8 C 0 km/h
1069 15-06-2009 21:52:25 14.8 C 11.91 g/m*3 14.8 C 0 km/h
1070 15-06-2009 22:04:25 14.8 C 11.91 g/m*3 14.8 C 0 km/h
1071 15-06-2009 22:17:26 14.6 C 11.76 g/m*3 14.6 C 0 km/h
1072 15-06-2009 22:29:26 14.7 C 11.71 g/m*3 14.7 C 0 km/h
1073 15-06-2009 22:41:26 14.4 C 11.37 g/m*3 14.4 C 0 km/h
1074 15-06-2009 22:53:26 14.1 C 11.04 g/m*3 14.1 C 0 km/h
1075 15-06-2009 23:05:26 14.1 C 11.04 g/m*3 14.1 C 0 km/h
Sensor: Nr:Datum:Temp:Abs-Feuchte:Windchill:Wind:
Aussen-T/F 1076 15-06-2009 23:17:26 14 C 10.86 g/m*3 14 C 0 km/h
1077 15-06-2009 23:29:26 13.8 C 10.84 g/m*3 13.8 C 0 km/h
1078 15-06-2009 23:41:26 13.7 C 10.78 g/m*3 13.7 C 0 km/h
1079 15-06-2009 23:53:26 13.6 C 10.71 g/m*3 13.6 C 0 km/h
1080 16-06-2009 00:05:26 13.5 C 10.64 g/m*3 13.5 C 0 km/h
1081 16-06-2009 00:17:26 13.4 C 10.58 g/m*3 13.4 C 0 km/h
1082 16-06-2009 00:29:26 13.2 C 10.45 g/m*3 13.2 C 0 km/h
1083 16-06-2009 00:41:26 13 C 10.43 g/m*3 13 C 0 km/h
1084 16-06-2009 00:53:26 12.8 C 10.3 g/m*3 12.8 C 0 km/h
1085 16-06-2009 01:05:27 12.8 C 10.42 g/m*3 12.8 C 0 km/h
1086 16-06-2009 01:17:27 12.7 C 10.35 g/m*3 12.7 C 0 km/h
1087 16-06-2009 01:29:27 12.5 C 10.22 g/m*3 12.5 C 0 km/h
1088 16-06-2009 01:41:27 12.3 C 10.1 g/m*3 12.3 C 0 km/h
1089 16-06-2009 01:53:27 12.1 C 9.97 g/m*3 12.1 C 0 km/h
1090 16-06-2009 02:05:27 12.1 C 9.97 g/m*3 12.1 C 0 km/h
1091 16-06-2009 02:17:27 12.1 C 9.97 g/m*3 12.1 C 0 km/h
1092 16-06-2009 02:29:27 12 C 10.02 g/m*3 12 C 0 km/h
1093 16-06-2009 02:41:27 12 C 10.02 g/m*3 12 C 0 km/h
1094 16-06-2009 02:53:27 12 C 10.02 g/m*3 12 C 0 km/h
1095 16-06-2009 03:05:27 12 C 10.02 g/m*3 12 C 0 km/h
1096 16-06-2009 03:17:27 12.1 C 10.08 g/m*3 12.1 C 0 km/h
1097 16-06-2009 03:29:27 12.1 C 10.08 g/m*3 12.1 C 0 km/h
1098 16-06-2009 03:41:27 12.1 C 10.19 g/m*3 12.1 C 0 km/h
1099 16-06-2009 03:53:27 11.8 C 10 g/m*3 11.8 C 0 km/h
1100 16-06-2009 04:05:27 11.8 C 10 g/m*3 11.8 C 0 km/h
Sensor: Nr:Datum:Temp:Abs-Feuchte:Windchill:Wind:
Aussen-T/F 1101 16-06-2009 04:17:27 12.1 C 10.19 g/m*3 12.1 C 0 km/h
1102 16-06-2009 04:29:27 12.1 C 10.19 g/m*3 12.1 C 0 km/h
1103 16-06-2009 04:41:27 12.1 C 10.19 g/m*3 12.1 C 0 km/h
1104 16-06-2009 04:53:28 12 C 10.12 g/m*3 12 C 0 km/h
1105 16-06-2009 05:05:28 12.1 C 10.19 g/m*3 12.1 C 0 km/h
1106 16-06-2009 05:17:28 12.2 C 10.25 g/m*3 12.2 C 0 km/h
1107 16-06-2009 05:29:28 12.4 C 10.38 g/m*3 12.4 C 0 km/h
1108 16-06-2009 05:41:28 12.4 C 10.38 g/m*3 12.4 C 0 km/h
1109 16-06-2009 05:53:28 12.4 C 10.38 g/m*3 12.4 C 0 km/h
1110 16-06-2009 06:05:28 12.4 C 10.38 g/m*3 12.4 C 0 km/h
1111 16-06-2009 06:17:28 12.4 C 10.38 g/m*3 12.4 C 0 km/h
1112 16-06-2009 06:29:28 12.4 C 10.38 g/m*3 12.4 C 0 km/h
1113 16-06-2009 06:41:28 12.3 C 10.32 g/m*3 12.3 C 0 km/h
1114 16-06-2009 06:53:26 12.3 C 10.32 g/m*3 12.3 C 0 km/h
1115 16-06-2009 07:05:26 12.3 C 10.32 g/m*3 12.3 C 0 km/h
1116 16-06-2009 07:17:26 12.4 C 10.38 g/m*3 12.4 C 0 km/h
1117 16-06-2009 07:29:26 12.5 C 10.44 g/m*3 12.5 C 0 km/h
1118 16-06-2009 07:41:26 12.6 C 10.51 g/m*3 12.6 C 0 km/h
1119 16-06-2009 07:53:25 12.6 C 10.51 g/m*3 12.6 C 0 km/h
1120 16-06-2009 08:05:26 12.8 C 10.64 g/m*3 12.8 C 0 km/h
1121 16-06-2009 08:17:25 12.7 C 10.58 g/m*3 12.7 C 0 km/h
1122 16-06-2009 08:29:25 12.9 C 10.71 g/m*3 12.9 C 0 km/h
1123 16-06-2009 08:41:25 13.2 C 10.91 g/m*3 13.2 C 0 km/h
1124 16-06-2009 08:53:25 13.2 C 10.91 g/m*3 13.2 C 0 km/h
1125 16-06-2009 09:05:25 13.6 C 11.18 g/m*3 13.6 C 0 km/h
Sensor: Nr:Datum:Temp:Abs-Feuchte:Windchill:Wind:
Aussen-T/F 1126 16-06-2009 09:17:25 13.5 C 11.11 g/m*3 13.5 C 0 km/h
1127 16-06-2009 09:29:25 14.1 C 11.41 g/m*3 14.1 C 0 km/h
1128 16-06-2009 09:41:24 14.5 C 11.44 g/m*3 14.5 C 0 km/h
1129 16-06-2009 09:53:25 14.4 C 11 g/m*3 14.4 C 0 km/h
1130 16-06-2009 10:05:24 14.7 C 10.58 g/m*3 14.7 C 0 km/h
1131 16-06-2009 10:17:24 15.2 C 10.25 g/m*3 15.2 C 0 km/h
1132 16-06-2009 10:29:24 16.5 C 10.53 g/m*3 16.5 C 0 km/h
1133 16-06-2009 10:41:24 16.1 C 10.01 g/m*3 16.1 C 0 km/h
1134 16-06-2009 10:53:24 16.6 C 10.17 g/m*3 16.6 C 0 km/h
1135 16-06-2009 11:05:23 17.7 C 9.81 g/m*3 17.7 C 0 km/h
1136 16-06-2009 11:17:23 17.5 C 9.39 g/m*3 17.5 C 0 km/h
1137 16-06-2009 11:29:23 18.1 C 9.43 g/m*3 18.1 C 0 km/h
1138 16-06-2009 11:41:24 18.7 C 8.65 g/m*3 18.7 C 0 km/h
1139 16-06-2009 11:53:23 19 C 8.47 g/m*3 19 C 0 km/h
1140 16-06-2009 12:05:23 19.8 C 7.34 g/m*3 19.8 C 0 km/h
1141 16-06-2009 12:17:23 20.2 C 7.52 g/m*3 20.2 C 0 km/h
1142 16-06-2009 12:29:23 20.8 C 7.24 g/m*3 20.8 C 0 km/h
1143 16-06-2009 12:41:23 21.4 C 6.75 g/m*3 21.4 C 0 km/h
1144 16-06-2009 12:53:22 20 C 6.74 g/m*3 20 C 0 km/h
1145 16-06-2009 13:05:23 21.6 C 6.64 g/m*3 21.6 C 0 km/h
1146 16-06-2009 13:17:23 21.7 C 6.49 g/m*3 21.7 C 0 km/h
1147 16-06-2009 13:29:23 21.5 C 6.6 g/m*3 21.5 C 0 km/h
1148 16-06-2009 13:41:22 23 C 5.96 g/m*3 23 C 0 km/h
1149 16-06-2009 13:53:23 23.6 C 5.96 g/m*3 23.6 C 0 km/h
1150 16-06-2009 14:05:22 22.8 C 5.69 g/m*3 22.8 C 0 km/h
Sensor: Nr:Datum:Temp:Abs-Feuchte:Windchill:Wind:
Aussen-T/F 1151 16-06-2009 14:17:22 22.3 C 5.92 g/m*3 22.3 C 0 km/h
1152 16-06-2009 14:29:23 22.3 C 5.92 g/m*3 22.3 C 0 km/h
1153 16-06-2009 14:41:21 22.3 C 6.12 g/m*3 22.3 C 0 km/h
1154 16-06-2009 14:53:22 20.7 C 5.94 g/m*3 20.7 C 0 km/h
1155 16-06-2009 15:05:21 19.9 C 6.36 g/m*3 19.9 C 0 km/h
1156 16-06-2009 15:17:21 20.3 C 6.86 g/m*3 20.3 C 0 km/h
1157 16-06-2009 15:29:21 21.6 C 7.02 g/m*3 21.6 C 0 km/h
1158 16-06-2009 15:41:22 20.7 C 6.12 g/m*3 20.7 C 0 km/h
1159 16-06-2009 15:53:21 18.8 C 9.34 g/m*3 18.8 C 0 km/h
1160 16-06-2009 16:05:21 20.1 C 12.34 g/m*3 20.1 C 0 km/h
1161 16-06-2009 16:17:20 22.4 C 13.31 g/m*3 22.4 C 0 km/h
1162 16-06-2009 16:29:20 21 C 8.79 g/m*3 21 C 0 km/h
1163 16-06-2009 16:41:21 20.4 C 7.78 g/m*3 20.4 C 0 km/h
1164 16-06-2009 16:53:20 20.7 C 6.66 g/m*3 20.7 C 0 km/h
1165 16-06-2009 17:05:20 20.3 C 7.03 g/m*3 20.3 C 0 km/h
1166 16-06-2009 17:17:20 19.6 C 7.26 g/m*3 19.6 C 0 km/h
1167 16-06-2009 17:29:20 19.6 C 8.61 g/m*3 19.6 C 0 km/h
1168 16-06-2009 17:41:20 20.1 C 8.87 g/m*3 20.1 C 0 km/h
1169 16-06-2009 17:53:19 20.9 C 8.56 g/m*3 20.9 C 0 km/h
1170 16-06-2009 18:05:20 23 C 8.43 g/m*3 23 C 0 km/h
1171 16-06-2009 18:17:20 23.7 C 8.13 g/m*3 23.7 C 0 km/h
1172 16-06-2009 18:29:20 23.3 C 8.15 g/m*3 23.3 C 0 km/h
1173 16-06-2009 18:41:19 24.7 C 7.92 g/m*3 24.7 C 0 km/h
1174 16-06-2009 18:53:20 22.1 C 7.22 g/m*3 22.1 C 0 km/h
1175 16-06-2009 19:05:19 20.8 C 7.97 g/m*3 20.8 C 0 km/h
Sensor: Nr:Datum:Temp:Abs-Feuchte:Windchill:Wind:
Aussen-T/F 1176 16-06-2009 19:17:19 22.3 C 7.9 g/m*3 22.3 C 0 km/h
1177 16-06-2009 19:29:19 20.2 C 7.69 g/m*3 20.2 C 0 km/h
1178 16-06-2009 19:41:18 20.5 C 8.01 g/m*3 20.5 C 0 km/h
1179 16-06-2009 19:53:19 20 C 7.6 g/m*3 20 C 0 km/h
1180 16-06-2009 20:05:19 20 C 7.95 g/m*3 20 C 0 km/h
1181 16-06-2009 20:17:18 20.6 C 7.87 g/m*3 20.6 C 0 km/h
1182 16-06-2009 20:29:18 20.1 C 7.65 g/m*3 20.1 C 0 km/h
1183 16-06-2009 20:41:19 19.6 C 7.6 g/m*3 19.6 C 0 km/h
1184 16-06-2009 20:53:18 19.5 C 7.89 g/m*3 19.5 C 0 km/h
1185 16-06-2009 21:05:18 19.3 C 8.13 g/m*3 19.3 C 0 km/h
1186 16-06-2009 21:17:18 18.9 C 8.59 g/m*3 18.9 C 0 km/h
1187 16-06-2009 21:29:19 18.2 C 8.7 g/m*3 18.2 C 0 km/h
1188 16-06-2009 21:41:17 17.3 C 8.84 g/m*3 17.3 C 0 km/h
1189 16-06-2009 21:53:18 16.7 C 8.95 g/m*3 16.7 C 0 km/h
1190 16-06-2009 22:05:17 16.1 C 8.91 g/m*3 16.1 C 0 km/h
1191 16-06-2009 22:17:17 15.7 C 8.96 g/m*3 15.7 C 0 km/h
1192 16-06-2009 22:29:17 15.2 C 8.96 g/m*3 15.2 C 0 km/h
1193 16-06-2009 22:42:17 15 C 9.1 g/m*3 15 C 0 km/h
1194 16-06-2009 22:54:17 14.9 C 9.43 g/m*3 14.9 C 0 km/h
1195 16-06-2009 23:06:17 14.8 C 9.37 g/m*3 14.8 C 0 km/h
1196 16-06-2009 23:18:17 14.6 C 9.39 g/m*3 14.6 C 0 km/h
1197 16-06-2009 23:30:17 14.5 C 9.45 g/m*3 14.5 C 0 km/h
1198 16-06-2009 23:42:17 14.3 C 9.46 g/m*3 14.3 C 0 km/h
1199 16-06-2009 23:54:17 14 C 9.41 g/m*3 14 C 0 km/h
1200 17-06-2009 00:06:17 13.7 C 9.35 g/m*3 13.7 C 0 km/h
Sensor: Nr:Datum:Temp:Abs-Feuchte:Windchill:Wind:
Aussen-T/F 1201 17-06-2009 00:18:18 13.7 C 9.47 g/m*3 13.7 C 0 km/h
1202 17-06-2009 00:30:18 13.6 C 9.53 g/m*3 13.6 C 0 km/h
1203 17-06-2009 00:42:18 13.4 C 9.42 g/m*3 13.4 C 0 km/h
1204 17-06-2009 00:54:18 13.3 C 9.36 g/m*3 13.3 C 0 km/h
1205 17-06-2009 01:06:18 13.1 C 9.24 g/m*3 13.1 C 0 km/h
1206 17-06-2009 01:18:18 12.9 C 9.24 g/m*3 12.9 C 0 km/h
1207 17-06-2009 01:30:18 12.8 C 9.18 g/m*3 12.8 C 0 km/h
1208 17-06-2009 01:42:18 12.6 C 9.18 g/m*3 12.6 C 0 km/h
1209 17-06-2009 01:54:18 12.5 C 9.35 g/m*3 12.5 C 0 km/h
1210 17-06-2009 02:06:18 12.2 C 9.17 g/m*3 12.2 C 0 km/h
1211 17-06-2009 02:18:18 11.9 C 9.21 g/m*3 11.9 C 0 km/h
1212 17-06-2009 02:30:18 11.8 C 9.16 g/m*3 11.8 C 0 km/h
1213 17-06-2009 02:42:18 11.6 C 9.04 g/m*3 11.6 C 0 km/h
1214 17-06-2009 02:54:18 11.5 C 8.99 g/m*3 11.5 C 0 km/h
1215 17-06-2009 03:06:18 11.5 C 8.99 g/m*3 11.5 C 0 km/h
1216 17-06-2009 03:18:18 11.4 C 8.93 g/m*3 11.4 C 0 km/h
1217 17-06-2009 03:30:18 11.8 C 9.26 g/m*3 11.8 C 0 km/h
1218 17-06-2009 03:42:18 12 C 9.27 g/m*3 12 C 0 km/h
1219 17-06-2009 03:54:18 12.2 C 9.28 g/m*3 12.2 C 0 km/h
1220 17-06-2009 04:06:18 12.2 C 9.17 g/m*3 12.2 C 0 km/h
1221 17-06-2009 04:18:19 12.2 C 9.17 g/m*3 12.2 C 0 km/h
1222 17-06-2009 04:30:19 12 C 8.95 g/m*3 12 C 0 km/h
1223 17-06-2009 04:42:19 11.9 C 9 g/m*3 11.9 C 0 km/h
1224 17-06-2009 04:54:19 11.9 C 9 g/m*3 11.9 C 0 km/h
1225 17-06-2009 05:06:19 12.1 C 9.01 g/m*3 12.1 C 0 km/h
Sensor: Nr:Datum:Temp:Abs-Feuchte:Windchill:Wind:
Aussen-T/F 1226 17-06-2009 05:18:19 11.8 C 8.95 g/m*3 11.8 C 0 km/h
1227 17-06-2009 05:30:19 11.8 C 8.95 g/m*3 11.8 C 0 km/h
1228 17-06-2009 05:42:19 11.6 C 8.94 g/m*3 11.6 C 0 km/h
1229 17-06-2009 05:54:19 11.5 C 8.88 g/m*3 11.5 C 0 km/h
1230 17-06-2009 06:06:19 11.3 C 8.87 g/m*3 11.3 C 0 km/h
1231 17-06-2009 06:18:19 11.3 C 8.98 g/m*3 11.3 C 0 km/h
1232 17-06-2009 06:30:19 11.4 C 9.03 g/m*3 11.4 C 0 km/h
1233 17-06-2009 06:42:19 11.2 C 8.82 g/m*3 11.2 C 0 km/h
1234 17-06-2009 06:54:19 11.3 C 8.87 g/m*3 11.3 C 0 km/h
1235 17-06-2009 07:06:17 11.5 C 9.09 g/m*3 11.5 C 0 km/h
1236 17-06-2009 07:18:18 11.7 C 9.1 g/m*3 11.7 C 0 km/h
1237 17-06-2009 07:30:18 11.9 C 9 g/m*3 11.9 C 0 km/h
1238 17-06-2009 07:42:18 12.3 C 9.12 g/m*3 12.3 C 0 km/h
1239 17-06-2009 07:54:17 12.5 C 9.13 g/m*3 12.5 C 0 km/h
1240 17-06-2009 08:06:17 13 C 9.19 g/m*3 13 C 0 km/h
1241 17-06-2009 08:18:17 13 C 9.07 g/m*3 13 C 0 km/h
1242 17-06-2009 08:30:16 13.4 C 9.3 g/m*3 13.4 C 0 km/h
1243 17-06-2009 08:42:16 14.2 C 9.52 g/m*3 14.2 C 0 km/h
1244 17-06-2009 08:54:17 14.1 C 9.1 g/m*3 14.1 C 0 km/h
1245 17-06-2009 09:06:16 14.1 C 9.1 g/m*3 14.1 C 0 km/h
1246 17-06-2009 09:18:16 15 C 9.36 g/m*3 15 C 0 km/h
1247 17-06-2009 09:30:17 15.6 C 9.44 g/m*3 15.6 C 0 km/h
1248 17-06-2009 09:42:17 15.9 C 9.48 g/m*3 15.9 C 0 km/h
1249 17-06-2009 09:54:16 15.8 C 9.83 g/m*3 15.8 C 0 km/h
1250 17-06-2009 10:06:15 16.9 C 10.36 g/m*3 16.9 C 0 km/h
Sensor: Nr:Datum:Temp:Abs-Feuchte:Windchill:Wind:
Aussen-T/F 1251 17-06-2009 10:18:16 17.4 C 9.93 g/m*3 17.4 C 0 km/h
1252 17-06-2009 10:30:16 18.2 C 9.79 g/m*3 18.2 C 0 km/h
1253 17-06-2009 10:42:16 18.3 C 9.22 g/m*3 18.3 C 0 km/h
1254 17-06-2009 10:54:15 19.6 C 9.28 g/m*3 19.6 C 0 km/h
1255 17-06-2009 11:06:16 19.8 C 8.88 g/m*3 19.8 C 0 km/h
1256 17-06-2009 11:18:15 20.9 C 9.11 g/m*3 20.9 C 0 km/h
1257 17-06-2009 11:30:15 22.2 C 9.03 g/m*3 22.2 C 0 km/h
1258 17-06-2009 11:42:15 21.7 C 8.2 g/m*3 21.7 C 0 km/h
1259 17-06-2009 11:54:15 22.6 C 8.04 g/m*3 22.6 C 0 km/h
1260 17-06-2009 12:06:15 24.1 C 7.66 g/m*3 24.1 C 0 km/h
1261 17-06-2009 12:18:15 25 C 6.45 g/m*3 25 C 0 km/h
1262 17-06-2009 12:30:14 23.9 C 7.36 g/m*3 23.9 C 0 km/h
1263 17-06-2009 12:42:14 25 C 6.91 g/m*3 25 C 0 km/h
1264 17-06-2009 12:54:15 25.4 C 7.06 g/m*3 25.4 C 0 km/h
1265 17-06-2009 13:06:14 25.7 C 6.46 g/m*3 25.7 C 0 km/h
1266 17-06-2009 13:18:14 28.5 C 6.71 g/m*3 28.5 C 0 km/h
1267 17-06-2009 13:30:13 28.9 C 5.71 g/m*3 28.9 C 0 km/h
1268 17-06-2009 13:42:13 29 C 5.74 g/m*3 29 C 0 km/h
1269 17-06-2009 13:54:14 28.8 C 5.68 g/m*3 28.8 C 0 km/h
1270 17-06-2009 14:06:13 28.1 C 6.02 g/m*3 28.1 C 0 km/h
1271 17-06-2009 14:18:13 27.3 C 6.54 g/m*3 27.3 C 0 km/h
1272 17-06-2009 14:30:14 27.8 C 6.72 g/m*3 27.8 C 0 km/h
1273 17-06-2009 14:42:14 27.2 C 5.99 g/m*3 27.2 C 0 km/h
1274 17-06-2009 14:54:13 28.6 C 6.18 g/m*3 28.6 C 0 km/h
1275 17-06-2009 15:06:13 28.8 C 5.68 g/m*3 28.8 C 0 km/h
Sensor: Nr:Datum:Temp:Abs-Feuchte:Windchill:Wind:
Aussen-T/F 1276 17-06-2009 15:18:13 27.3 C 5.76 g/m*3 27.3 C 0 km/h
1277 17-06-2009 15:30:13 28.1 C 5.74 g/m*3 28.1 C 0 km/h
1278 17-06-2009 15:42:13 29.9 C 6.03 g/m*3 29.9 C 0 km/h
1279 17-06-2009 15:54:12 29.2 C 5.81 g/m*3 29.2 C 0 km/h
1280 17-06-2009 16:06:13 29.2 C 5.81 g/m*3 29.2 C 0 km/h
1281 17-06-2009 16:18:13 29.7 C 5.97 g/m*3 29.7 C 0 km/h
1282 17-06-2009 16:30:12 30.4 C 6.2 g/m*3 30.4 C 0 km/h
1283 17-06-2009 16:42:12 30.3 C 6.16 g/m*3 30.3 C 0 km/h
1284 17-06-2009 16:54:13 30.6 C 6.26 g/m*3 30.6 C 0 km/h
1285 17-06-2009 17:06:12 30.8 C 6.33 g/m*3 30.8 C 0 km/h
1286 17-06-2009 17:18:12 30.9 C 6.37 g/m*3 30.9 C 0 km/h
1287 17-06-2009 17:30:11 31.1 C 6.43 g/m*3 31.1 C 0 km/h
1288 17-06-2009 17:42:11 30.8 C 6.33 g/m*3 30.8 C 0 km/h
1289 17-06-2009 17:54:12 30.6 C 6.26 g/m*3 30.6 C 0 km/h
1290 17-06-2009 18:06:11 30.7 C 6.3 g/m*3 30.7 C 0 km/h
1291 17-06-2009 18:18:11 30.6 C 6.26 g/m*3 30.6 C 0 km/h
1292 17-06-2009 18:30:12 30 C 6.06 g/m*3 30 C 0 km/h
1293 17-06-2009 18:42:12 29.1 C 6.35 g/m*3 29.1 C 0 km/h
1294 17-06-2009 18:54:11 29.8 C 6.3 g/m*3 29.8 C 0 km/h
1295 17-06-2009 19:06:11 28.7 C 7.63 g/m*3 28.7 C 0 km/h
1296 17-06-2009 19:18:10 27.6 C 7.71 g/m*3 27.6 C 0 km/h
1297 17-06-2009 19:30:11 26.8 C 8.14 g/m*3 26.8 C 0 km/h
1298 17-06-2009 19:42:11 25.9 C 8.47 g/m*3 25.9 C 0 km/h
1299 17-06-2009 19:54:10 25.3 C 8.43 g/m*3 25.3 C 0 km/h
1300 17-06-2009 20:06:10 24.5 C 8.5 g/m*3 24.5 C 0 km/h
Sensor: Nr:Datum:Temp:Abs-Feuchte:Windchill:Wind:
Aussen-T/F 1301 17-06-2009 20:18:10 24.3 C 8.63 g/m*3 24.3 C 0 km/h
1302 17-06-2009 20:30:10 24.2 C 8.8 g/m*3 24.2 C 0 km/h
1303 17-06-2009 20:42:10 24.1 C 8.53 g/m*3 24.1 C 0 km/h
1304 17-06-2009 20:54:09 23.5 C 8.67 g/m*3 23.5 C 0 km/h
1305 17-06-2009 21:06:10 22.8 C 8.94 g/m*3 22.8 C 0 km/h
1306 17-06-2009 21:18:09 22 C 8.73 g/m*3 22 C 0 km/h
1307 17-06-2009 21:30:09 21.4 C 8.62 g/m*3 21.4 C 0 km/h
1308 17-06-2009 21:42:09 20.8 C 8.51 g/m*3 20.8 C 0 km/h
1309 17-06-2009 21:54:09 20.4 C 8.49 g/m*3 20.4 C 0 km/h
1310 17-06-2009 22:06:09 20.2 C 8.22 g/m*3 20.2 C 0 km/h
1311 17-06-2009 22:18:09 20.3 C 7.91 g/m*3 20.3 C 0 km/h
1312 17-06-2009 22:31:10 20.4 C 7.61 g/m*3 20.4 C 0 km/h
1313 17-06-2009 22:43:10 20.4 C 7.78 g/m*3 20.4 C 0 km/h
1314 17-06-2009 22:55:10 19.9 C 8.25 g/m*3 19.9 C 0 km/h
1315 17-06-2009 23:07:10 19.6 C 8.27 g/m*3 19.6 C 0 km/h
1316 17-06-2009 23:19:10 19.5 C 7.72 g/m*3 19.5 C 0 km/h
1317 17-06-2009 23:31:10 19.2 C 7.91 g/m*3 19.2 C 0 km/h
1318 17-06-2009 23:43:10 18.8 C 8.37 g/m*3 18.8 C 0 km/h
1319 17-06-2009 23:55:10 18.4 C 8.34 g/m*3 18.4 C 0 km/h
1320 18-06-2009 00:07:10 18.2 C 8.24 g/m*3 18.2 C 0 km/h
1321 18-06-2009 00:19:10 17.9 C 8.4 g/m*3 17.9 C 0 km/h
1322 18-06-2009 00:31:10 17.6 C 8.4 g/m*3 17.6 C 0 km/h
1323 18-06-2009 00:43:10 17.4 C 8.45 g/m*3 17.4 C 0 km/h
1324 18-06-2009 00:55:10 17.1 C 8.3 g/m*3 17.1 C 0 km/h
1325 18-06-2009 01:07:10 16.9 C 8.34 g/m*3 16.9 C 0 km/h
Sensor: Nr:Datum:Temp:Abs-Feuchte:Windchill:Wind:
Aussen-T/F 1326 18-06-2009 01:19:10 16.7 C 8.53 g/m*3 16.7 C 0 km/h
1327 18-06-2009 01:31:10 16.6 C 8.62 g/m*3 16.6 C 0 km/h
1328 18-06-2009 01:43:10 16.4 C 8.79 g/m*3 16.4 C 0 km/h
1329 18-06-2009 01:55:10 16.2 C 8.96 g/m*3 16.2 C 0 km/h
1330 18-06-2009 02:07:10 16.2 C 8.96 g/m*3 16.2 C 0 km/h
1331 18-06-2009 02:19:10 15.9 C 9.07 g/m*3 15.9 C 0 km/h
1332 18-06-2009 02:31:11 15.7 C 9.1 g/m*3 15.7 C 0 km/h
1333 18-06-2009 02:43:11 15.4 C 9.33 g/m*3 15.4 C 0 km/h
1334 18-06-2009 02:55:11 15.4 C 9.33 g/m*3 15.4 C 0 km/h
1335 18-06-2009 03:07:11 15.1 C 9.42 g/m*3 15.1 C 0 km/h
1336 18-06-2009 03:19:11 15 C 9.49 g/m*3 15 C 0 km/h
1337 18-06-2009 03:31:11 14.8 C 9.5 g/m*3 14.8 C 0 km/h
1338 18-06-2009 03:43:11 14.7 C 9.44 g/m*3 14.7 C 0 km/h
1339 18-06-2009 03:55:11 14.5 C 9.58 g/m*3 14.5 C 0 km/h
1340 18-06-2009 04:07:11 14.4 C 9.64 g/m*3 14.4 C 0 km/h
1341 18-06-2009 04:19:11 14.5 C 9.7 g/m*3 14.5 C 0 km/h
1342 18-06-2009 04:31:11 14.3 C 9.58 g/m*3 14.3 C 0 km/h
1343 18-06-2009 04:43:11 13.8 C 9.41 g/m*3 13.8 C 0 km/h
1344 18-06-2009 04:55:11 13.7 C 9.59 g/m*3 13.7 C 0 km/h
1345 18-06-2009 05:07:11 13.5 C 9.71 g/m*3 13.5 C 0 km/h
1346 18-06-2009 05:19:11 13.4 C 9.65 g/m*3 13.4 C 0 km/h
1347 18-06-2009 05:31:11 13.5 C 9.71 g/m*3 13.5 C 0 km/h
1348 18-06-2009 05:43:11 13.7 C 9.59 g/m*3 13.7 C 0 km/h
1349 18-06-2009 05:55:11 13.7 C 9.59 g/m*3 13.7 C 0 km/h
1350 18-06-2009 06:07:12 13.5 C 9.47 g/m*3 13.5 C 0 km/h
Sensor: Nr:Datum:Temp:Abs-Feuchte:Windchill:Wind:
Aussen-T/F 1351 18-06-2009 06:19:12 13.7 C 9.71 g/m*3 13.7 C 0 km/h
1352 18-06-2009 06:31:12 14 C 9.65 g/m*3 14 C 0 km/h
1353 18-06-2009 06:43:12 14.3 C 9.71 g/m*3 14.3 C 0 km/h
1354 18-06-2009 06:55:12 14.6 C 9.64 g/m*3 14.6 C 0 km/h
1355 18-06-2009 07:07:10 14.9 C 9.69 g/m*3 14.9 C 0 km/h
1356 18-06-2009 07:19:09 15.5 C 9.91 g/m*3 15.5 C 0 km/h
1357 18-06-2009 07:31:10 16 C 9.81 g/m*3 16 C 0 km/h
1358 18-06-2009 07:43:10 16.2 C 9.79 g/m*3 16.2 C 0 km/h
1359 18-06-2009 07:55:09 16.4 C 9.91 g/m*3 16.4 C 0 km/h
1360 18-06-2009 08:07:09 16.7 C 10.09 g/m*3 16.7 C 0 km/h
1361 18-06-2009 08:19:10 16.9 C 10.21 g/m*3 16.9 C 0 km/h
1362 18-06-2009 08:31:09 16.9 C 10.21 g/m*3 16.9 C 0 km/h
1363 18-06-2009 08:43:09 17.2 C 10.25 g/m*3 17.2 C 0 km/h
1364 18-06-2009 08:55:09 17.5 C 10.29 g/m*3 17.5 C 0 km/h
1365 18-06-2009 09:07:09 18.1 C 10.35 g/m*3 18.1 C 0 km/h
1366 18-06-2009 09:19:08 18.4 C 10.38 g/m*3 18.4 C 0 km/h
1367 18-06-2009 09:31:08 18.4 C 10.38 g/m*3 18.4 C 0 km/h
1368 18-06-2009 09:43:08 18.7 C 10.57 g/m*3 18.7 C 0 km/h
1369 18-06-2009 09:55:08 18.9 C 10.53 g/m*3 18.9 C 0 km/h
1370 18-06-2009 10:07:08 19.4 C 10.51 g/m*3 19.4 C 0 km/h
1371 18-06-2009 10:19:08 19.6 C 10.47 g/m*3 19.6 C 0 km/h
1372 18-06-2009 10:31:08 19.7 C 10.53 g/m*3 19.7 C 0 km/h
1373 18-06-2009 10:43:08 20.1 C 10.43 g/m*3 20.1 C 0 km/h
1374 18-06-2009 10:55:08 21 C 10.44 g/m*3 21 C 0 km/h
1375 18-06-2009 11:07:07 21.9 C 10.81 g/m*3 21.9 C 0 km/h
Sensor: Nr:Datum:Temp:Abs-Feuchte:Windchill:Wind:
Aussen-T/F 1376 18-06-2009 11:19:08 22.5 C 9.99 g/m*3 22.5 C 0 km/h
1377 18-06-2009 11:31:07 22.9 C 9.2 g/m*3 22.9 C 0 km/h
1378 18-06-2009 11:43:07 23.4 C 9.46 g/m*3 23.4 C 0 km/h
1379 18-06-2009 11:55:07 22.9 C 9.4 g/m*3 22.9 C 0 km/h
1380 18-06-2009 12:07:08 22.8 C 9.75 g/m*3 22.8 C 0 km/h
1381 18-06-2009 12:19:07 23.8 C 9.68 g/m*3 23.8 C 0 km/h
1382 18-06-2009 12:31:07 23.3 C 9.41 g/m*3 23.3 C 0 km/h
1383 18-06-2009 12:43:07 22.8 C 9.96 g/m*3 22.8 C 0 km/h
1384 18-06-2009 12:55:06 22.7 C 10.3 g/m*3 22.7 C 0 km/h
1385 18-06-2009 13:07:07 22.1 C 9.76 g/m*3 22.1 C 0 km/h
1386 18-06-2009 13:19:06 21.7 C 10.68 g/m*3 21.7 C 0 km/h
1387 18-06-2009 13:31:06 22.4 C 10.72 g/m*3 22.4 C 0 km/h
1388 18-06-2009 13:43:06 22.9 C 10.01 g/m*3 22.9 C 0 km/h
1389 18-06-2009 13:55:06 22.6 C 10.25 g/m*3 22.6 C 0 km/h
1390 18-06-2009 14:07:06 22.7 C 10.3 g/m*3 22.7 C 0 km/h
1391 18-06-2009 14:19:06 23 C 11.1 g/m*3 23 C 0 km/h
1392 18-06-2009 14:31:05 23.7 C 10.91 g/m*3 23.7 C 0 km/h
1393 18-06-2009 14:43:05 23.4 C 10.93 g/m*3 23.4 C 0 km/h
1394 18-06-2009 14:55:06 22.5 C 10.19 g/m*3 22.5 C 0 km/h
1395 18-06-2009 15:07:05 22.5 C 10.79 g/m*3 22.5 C 0 km/h
1396 18-06-2009 15:19:05 22.3 C 10.47 g/m*3 22.3 C 0 km/h
1397 18-06-2009 15:31:05 22 C 11.26 g/m*3 22 C 0 km/h
1398 18-06-2009 15:43:05 21 C 11.91 g/m*3 21 C 0 km/h
1399 18-06-2009 15:55:05 20.9 C 11.66 g/m*3 20.9 C 0 km/h
1400 18-06-2009 16:07:04 21.3 C 11.93 g/m*3 21.3 C 0 km/h
Sensor: Nr:Datum:Temp:Abs-Feuchte:Windchill:Wind:
Aussen-T/F 1401 18-06-2009 16:19:05 22 C 11.84 g/m*3 22 C 0 km/h
1402 18-06-2009 16:31:05 22.4 C 11.52 g/m*3 22.4 C 0 km/h
1403 18-06-2009 16:43:05 22.5 C 11.39 g/m*3 22.5 C 0 km/h
1404 18-06-2009 16:55:04 22 C 11.26 g/m*3 22 C 0 km/h
1405 18-06-2009 17:07:05 22.2 C 11.78 g/m*3 22.2 C 0 km/h
1406 18-06-2009 17:19:04 22.3 C 11.85 g/m*3 22.3 C 0 km/h
1407 18-06-2009 17:31:04 22 C 12.03 g/m*3 22 C 0 km/h
1408 18-06-2009 17:43:04 22.6 C 12.25 g/m*3 22.6 C 0 km/h
1409 18-06-2009 17:55:04 23.3 C 11.5 g/m*3 23.3 C 0 km/h
1410 18-06-2009 18:07:04 23.4 C 11.14 g/m*3 23.4 C 0 km/h
1411 18-06-2009 18:19:03 24.5 C 10.07 g/m*3 24.5 C 0 km/h
1412 18-06-2009 18:31:03 24.8 C 10.47 g/m*3 24.8 C 0 km/h
1413 18-06-2009 18:43:03 24.8 C 10.02 g/m*3 24.8 C 0 km/h
1414 18-06-2009 18:55:04 24 C 10.23 g/m*3 24 C 0 km/h
1415 18-06-2009 19:07:03 23.7 C 10.69 g/m*3 23.7 C 0 km/h
1416 18-06-2009 19:19:03 24.5 C 10.07 g/m*3 24.5 C 0 km/h
1417 18-06-2009 19:31:02 23.9 C 10.17 g/m*3 23.9 C 0 km/h
1418 18-06-2009 19:43:02 24.4 C 9.79 g/m*3 24.4 C 0 km/h
1419 18-06-2009 19:55:03 24.8 C 9.79 g/m*3 24.8 C 0 km/h
1420 18-06-2009 20:07:02 25.2 C 9.54 g/m*3 25.2 C 0 km/h
1421 18-06-2009 20:19:02 24.9 C 9.61 g/m*3 24.9 C 0 km/h
1422 18-06-2009 20:31:03 23.4 C 10.09 g/m*3 23.4 C 0 km/h
1423 18-06-2009 20:43:03 23.3 C 10.25 g/m*3 23.3 C 0 km/h
1424 18-06-2009 20:55:02 22.9 C 10.42 g/m*3 22.9 C 0 km/h
1425 18-06-2009 21:07:02 22.2 C 10.41 g/m*3 22.2 C 0 km/h
Sensor: Nr:Datum:Temp:Abs-Feuchte:Windchill:Wind:
Aussen-T/F 1426 18-06-2009 21:19:02 21.4 C 10.5 g/m*3 21.4 C 0 km/h
1427 18-06-2009 21:31:02 21.1 C 10.32 g/m*3 21.1 C 0 km/h
1428 18-06-2009 21:43:02 20.8 C 10.68 g/m*3 20.8 C 0 km/h
1429 18-06-2009 21:55:02 20.2 C 10.67 g/m*3 20.2 C 0 km/h
1430 18-06-2009 22:08:27 20 C 10.71 g/m*3 20 C 0 km/h
1431 18-06-2009 22:20:27 19.7 C 10.7 g/m*3 19.7 C 0 km/h
1432 18-06-2009 22:32:27 19.6 C 10.64 g/m*3 19.6 C 0 km/h
1433 18-06-2009 22:44:27 19.5 C 10.74 g/m*3 19.5 C 0 km/h
1434 18-06-2009 22:56:27 19.2 C 10.72 g/m*3 19.2 C 0 km/h
1435 18-06-2009 23:08:27 18.9 C 10.85 g/m*3 18.9 C 0 km/h
1436 18-06-2009 23:20:27 18.6 C 10.98 g/m*3 18.6 C 0 km/h
1437 18-06-2009 23:32:28 18.4 C 10.85 g/m*3 18.4 C 0 km/h
1438 18-06-2009 23:44:28 18.2 C 10.88 g/m*3 18.2 C 0 km/h
1439 18-06-2009 23:56:28 18.1 C 10.82 g/m*3 18.1 C 0 km/h
1440 19-06-2009 00:08:28 18.1 C 10.82 g/m*3 18.1 C 0 km/h
1441 19-06-2009 00:20:28 17.9 C 11.15 g/m*3 17.9 C 0 km/h
1442 19-06-2009 00:32:28 17.5 C 11.03 g/m*3 17.5 C 0 km/h
1443 19-06-2009 00:44:28 17.2 C 10.98 g/m*3 17.2 C 0 km/h
1444 19-06-2009 00:56:28 17 C 11 g/m*3 17 C 0 km/h
1445 19-06-2009 01:08:28 17 C 11.14 g/m*3 17 C 0 km/h
1446 19-06-2009 01:20:28 16.7 C 11.08 g/m*3 16.7 C 0 km/h
1447 19-06-2009 01:32:28 16.6 C 11.02 g/m*3 16.6 C 0 km/h
1448 19-06-2009 01:44:28 16.2 C 10.89 g/m*3 16.2 C 0 km/h
1449 19-06-2009 01:56:28 16 C 10.76 g/m*3 16 C 0 km/h
1450 19-06-2009 02:08:28 15.9 C 10.97 g/m*3 15.9 C 0 km/h
Sensor: Nr:Datum:Temp:Abs-Feuchte:Windchill:Wind:
Aussen-T/F 1451 19-06-2009 02:20:28 15.8 C 10.9 g/m*3 15.8 C 0 km/h
1452 19-06-2009 02:32:28 15.6 C 10.77 g/m*3 15.6 C 0 km/h
1453 19-06-2009 02:44:28 15.5 C 10.84 g/m*3 15.5 C 0 km/h
1454 19-06-2009 02:56:28 15.4 C 10.77 g/m*3 15.4 C 0 km/h
1455 19-06-2009 03:08:28 15.2 C 10.64 g/m*3 15.2 C 0 km/h
1456 19-06-2009 03:20:29 15.1 C 10.71 g/m*3 15.1 C 0 km/h
1457 19-06-2009 03:32:29 15 C 10.64 g/m*3 15 C 0 km/h
1458 19-06-2009 03:44:29 14.8 C 10.51 g/m*3 14.8 C 0 km/h
1459 19-06-2009 03:56:29 14.7 C 10.45 g/m*3 14.7 C 0 km/h
1460 19-06-2009 04:08:29 14.7 C 10.32 g/m*3 14.7 C 0 km/h
1461 19-06-2009 04:20:29 14.7 C 10.2 g/m*3 14.7 C 0 km/h
1462 19-06-2009 04:32:29 14.8 C 10.13 g/m*3 14.8 C 0 km/h
1463 19-06-2009 04:44:29 14.8 C 10.13 g/m*3 14.8 C 0 km/h
1464 19-06-2009 04:56:29 14.9 C 10.2 g/m*3 14.9 C 0 km/h
1465 19-06-2009 05:08:29 14.8 C 10.13 g/m*3 14.8 C 0 km/h
1466 19-06-2009 05:20:29 14.7 C 9.95 g/m*3 14.7 C 0 km/h
1467 19-06-2009 05:32:29 14.8 C 9.88 g/m*3 14.8 C 0 km/h
1468 19-06-2009 05:44:29 14.7 C 9.82 g/m*3 14.7 C 0 km/h
1469 19-06-2009 05:56:29 14.4 C 9.77 g/m*3 14.4 C 0 km/h
1470 19-06-2009 06:08:29 14.4 C 9.77 g/m*3 14.4 C 0 km/h
1471 19-06-2009 06:20:02 14.5 C 9.83 g/m*3 14.5 C 0 km/h
1472 19-06-2009 06:32:01 14.6 C 9.89 g/m*3 14.6 C 0 km/h
1473 19-06-2009 06:44:01 14.8 C 9.63 g/m*3 14.8 C 0 km/h
1474 19-06-2009 06:56:02 15 C 9.75 g/m*3 15 C 0 km/h
1475 19-06-2009 07:08:01 15.2 C 9.73 g/m*3 15.2 C 0 km/h
Sensor: Nr:Datum:Temp:Abs-Feuchte:Windchill:Wind:
Aussen-T/F 1476 19-06-2009 07:20:01 15.4 C 9.59 g/m*3 15.4 C 0 km/h
1477 19-06-2009 07:32:01 15.5 C 9.52 g/m*3 15.5 C 0 km/h
1478 19-06-2009 07:44:01 15.8 C 9.42 g/m*3 15.8 C 0 km/h
1479 19-06-2009 07:56:01 16.1 C 9.32 g/m*3 16.1 C 0 km/h
1480 19-06-2009 08:08:01 16.4 C 9.35 g/m*3 16.4 C 0 km/h
1481 19-06-2009 08:20:00 16.4 C 9.07 g/m*3 16.4 C 0 km/h
1482 19-06-2009 08:32:00 16.9 C 9.21 g/m*3 16.9 C 0 km/h
1483 19-06-2009 08:44:00 16.8 C 8.86 g/m*3 16.8 C 0 km/h
1484 19-06-2009 08:56:00 17.2 C 9.08 g/m*3 17.2 C 0 km/h
1485 19-06-2009 09:07:59 17.3 C 8.4 g/m*3 17.3 C 0 km/h
1486 19-06-2009 09:20:00 17.1 C 8.73 g/m*3 17.1 C 0 km/h
1487 19-06-2009 09:32:00 17.1 C 8.44 g/m*3 17.1 C 0 km/h
1488 19-06-2009 09:44:00 17.2 C 8.35 g/m*3 17.2 C 0 km/h
1489 19-06-2009 09:56:59 17.4 C 8.45 g/m*3 17.4 C 0 km/h
1490 19-06-2009 10:08:00 17.8 C 8.2 g/m*3 17.8 C 0 km/h
1491 19-06-2009 10:20:59 17.8 C 7.74 g/m*3 17.8 C 0 km/h
1492 19-06-2009 10:32:59 18.3 C 7.82 g/m*3 18.3 C 0 km/h
1493 19-06-2009 10:44:59 18.3 C 7.19 g/m*3 18.3 C 0 km/h
1494 19-06-2009 10:56:59 18.9 C 7.13 g/m*3 18.9 C 0 km/h
1495 19-06-2009 11:08:59 19.1 C 7.05 g/m*3 19.1 C 0 km/h
1496 19-06-2009 11:20:59 19 C 7.17 g/m*3 19 C 0 km/h
1497 19-06-2009 11:32:58 19.2 C 7.59 g/m*3 19.2 C 0 km/h
1498 19-06-2009 11:44:59 19.3 C 7.63 g/m*3 19.3 C 0 km/h
1499 19-06-2009 11:56:59 19.6 C 7.93 g/m*3 19.6 C 0 km/h
1500 19-06-2009 12:08:58 19.6 C 6.75 g/m*3 19.6 C 0 km/h
Sensor: Nr:Datum:Temp:Abs-Feuchte:Windchill:Wind:
Aussen-T/F 1501 19-06-2009 12:20:58 19.4 C 6.67 g/m*3 19.4 C 0 km/h
1502 19-06-2009 12:32:57 20.4 C 6.72 g/m*3 20.4 C 0 km/h
1503 19-06-2009 12:44:58 20.9 C 6.37 g/m*3 20.9 C 0 km/h
1504 19-06-2009 12:56:58 21.1 C 5.71 g/m*3 21.1 C 0 km/h
1505 19-06-2009 13:08:57 22.7 C 5.66 g/m*3 22.7 C 0 km/h
1506 19-06-2009 13:20:57 21.9 C 6.18 g/m*3 21.9 C 0 km/h
1507 19-06-2009 13:32:58 22.3 C 5.73 g/m*3 22.3 C 0 km/h
1508 19-06-2009 13:44:57 23.3 C 5.44 g/m*3 23.3 C 0 km/h
1509 19-06-2009 13:56:57 23.3 C 5.44 g/m*3 23.3 C 0 km/h
1510 19-06-2009 14:08:57 22.6 C 5.22 g/m*3 22.6 C 0 km/h
1511 19-06-2009 14:20:57 22.6 C 5.83 g/m*3 22.6 C 0 km/h
1512 19-06-2009 14:32:57 21.7 C 5.53 g/m*3 21.7 C 0 km/h
1513 19-06-2009 14:44:56 22.1 C 6.05 g/m*3 22.1 C 0 km/h
1514 19-06-2009 14:56:56 23.6 C 5.32 g/m*3 23.6 C 0 km/h
1515 19-06-2009 15:08:57 21.5 C 5.28 g/m*3 21.5 C 0 km/h
1516 19-06-2009 15:20:57 22.5 C 4.99 g/m*3 22.5 C 0 km/h
1517 19-06-2009 15:32:56 22.2 C 5.1 g/m*3 22.2 C 0 km/h
1518 19-06-2009 15:44:56 22.5 C 5.39 g/m*3 22.5 C 0 km/h
1519 19-06-2009 15:56:56 23.3 C 5.23 g/m*3 23.3 C 0 km/h
1520 19-06-2009 16:08:56 22.2 C 4.52 g/m*3 22.2 C 0 km/h
1521 19-06-2009 16:20:56 22 C 4.66 g/m*3 22 C 0 km/h
1522 19-06-2009 16:32:55 22.5 C 3.99 g/m*3 22.5 C 0 km/h
1523 19-06-2009 16:44:56 23.5 C 4.44 g/m*3 23.5 C 0 km/h
1524 19-06-2009 16:56:57 22.8 C 4.06 g/m*3 22.8 C 0 km/h
1525 19-06-2009 17:08:55 22.7 C 4.04 g/m*3 22.7 C 0 km/h
Sensor: Nr:Datum:Temp:Abs-Feuchte:Windchill:Wind:
Aussen-T/F 1526 19-06-2009 17:20:55 22.4 C 4.17 g/m*3 22.4 C 0 km/h
1527 19-06-2009 17:32:55 22.8 C 4.88 g/m*3 22.8 C 0 km/h
1528 19-06-2009 17:44:55 23 C 5.14 g/m*3 23 C 0 km/h
1529 19-06-2009 17:56:55 22.5 C 5.39 g/m*3 22.5 C 0 km/h
1530 19-06-2009 18:08:55 22.8 C 5.28 g/m*3 22.8 C 0 km/h
1531 19-06-2009 18:20:54 22 C 4.85 g/m*3 22 C 0 km/h
1532 19-06-2009 18:32:55 23.6 C 5.1 g/m*3 23.6 C 0 km/h
1533 19-06-2009 18:44:54 21.4 C 5.25 g/m*3 21.4 C 0 km/h
1534 19-06-2009 18:56:54 23 C 4.93 g/m*3 23 C 0 km/h
1535 19-06-2009 19:08:54 22.3 C 4.94 g/m*3 22.3 C 0 km/h
1536 19-06-2009 19:20:53 22.3 C 5.33 g/m*3 22.3 C 0 km/h
1537 19-06-2009 19:32:54 22 C 5.24 g/m*3 22 C 0 km/h
1538 19-06-2009 19:44:54 21.8 C 5.76 g/m*3 21.8 C 0 km/h
1539 19-06-2009 19:56:54 21.6 C 5.69 g/m*3 21.6 C 0 km/h
1540 19-06-2009 20:08:53 20.6 C 5.55 g/m*3 20.6 C 0 km/h
1541 19-06-2009 20:20:54 20.8 C 5.79 g/m*3 20.8 C 0 km/h
1542 19-06-2009 20:32:53 20.4 C 5.66 g/m*3 20.4 C 0 km/h
1543 19-06-2009 20:44:53 20.2 C 5.77 g/m*3 20.2 C 0 km/h
1544 19-06-2009 20:56:53 19.5 C 5.54 g/m*3 19.5 C 0 km/h
1545 19-06-2009 21:08:53 19.3 C 5.64 g/m*3 19.3 C 0 km/h
1546 19-06-2009 21:20:53 18.5 C 5.54 g/m*3 18.5 C 0 km/h
1547 19-06-2009 21:32:53 17.9 C 5.5 g/m*3 17.9 C 0 km/h
1548 19-06-2009 21:44:52 17.5 C 5.37 g/m*3 17.5 C 0 km/h
1549 19-06-2009 21:56:52 17.2 C 5.42 g/m*3 17.2 C 0 km/h
1550 19-06-2009 22:08:53 16.8 C 5.29 g/m*3 16.8 C 0 km/h
Sensor: Nr:Datum:Temp:Abs-Feuchte:Windchill:Wind:
Aussen-T/F 1551 19-06-2009 22:20:52 16.6 C 5.37 g/m*3 16.6 C 0 km/h
1552 19-06-2009 22:32:53 16.2 C 5.24 g/m*3 16.2 C 0 km/h
1553 19-06-2009 22:45:53 16 C 5.31 g/m*3 16 C 0 km/h
1554 19-06-2009 22:57:53 15.8 C 5.38 g/m*3 15.8 C 0 km/h
1555 19-06-2009 23:09:53 15.4 C 5.39 g/m*3 15.4 C 0 km/h
1556 19-06-2009 23:21:53 15.1 C 5.42 g/m*3 15.1 C 0 km/h
1557 19-06-2009 23:33:54 14.8 C 5.83 g/m*3 14.8 C 0 km/h
1558 19-06-2009 23:45:54 14.4 C 6.06 g/m*3 14.4 C 0 km/h
1559 19-06-2009 23:57:54 14.1 C 6.19 g/m*3 14.1 C 0 km/h
1560 20-06-2009 00:09:54 13.6 C 6.36 g/m*3 13.6 C 0 km/h
1561 20-06-2009 00:21:54 13.3 C 6.59 g/m*3 13.3 C 0 km/h
1562 20-06-2009 00:33:54 13 C 6.58 g/m*3 13 C 0 km/h
1563 20-06-2009 00:45:54 12.8 C 6.83 g/m*3 12.8 C 0 km/h
1564 20-06-2009 00:57:54 12.6 C 6.86 g/m*3 12.6 C 0 km/h
1565 20-06-2009 01:09:54 12.3 C 6.84 g/m*3 12.3 C 0 km/h
1566 20-06-2009 01:21:54 11.9 C 6.99 g/m*3 11.9 C 0 km/h
1567 20-06-2009 01:33:54 12 C 7.03 g/m*3 12 C 0 km/h
1568 20-06-2009 01:45:54 11.7 C 7.11 g/m*3 11.7 C 0 km/h
1569 20-06-2009 01:57:54 11.5 C 7.13 g/m*3 11.5 C 0 km/h
1570 20-06-2009 02:09:54 11.3 C 7.14 g/m*3 11.3 C 0 km/h
1571 20-06-2009 02:21:54 11.1 C 7.05 g/m*3 11.1 C 0 km/h
1572 20-06-2009 02:33:54 10.9 C 7.16 g/m*3 10.9 C 0 km/h
1573 20-06-2009 02:45:54 10.7 C 7.17 g/m*3 10.7 C 0 km/h
1574 20-06-2009 02:57:54 10.5 C 7.18 g/m*3 10.5 C 0 km/h
1575 20-06-2009 03:09:54 10.4 C 7.04 g/m*3 10.4 C 0 km/h
Sensor: Nr:Datum:Temp:Abs-Feuchte:Windchill:Wind:
Aussen-T/F 1576 20-06-2009 03:21:55 10.2 C 7.04 g/m*3 10.2 C 0 km/h
1577 20-06-2009 03:33:55 10.1 C 7.09 g/m*3 10.1 C 0 km/h
1578 20-06-2009 03:45:55 10 C 7.14 g/m*3 10 C 0 km/h
1579 20-06-2009 03:57:55 9.8 C 7.14 g/m*3 9.8 C 0 km/h
1580 20-06-2009 04:09:55 9.7 C 7.19 g/m*3 9.7 C 0 km/h
1581 20-06-2009 04:21:55 9.6 C 7.15 g/m*3 9.6 C 0 km/h
1582 20-06-2009 04:33:55 9.4 C 7.05 g/m*3 9.4 C 0 km/h
1583 20-06-2009 04:45:55 9.3 C 7.01 g/m*3 9.3 C 0 km/h
1584 20-06-2009 04:57:55 9.2 C 7.05 g/m*3 9.2 C 0 km/h
1585 20-06-2009 05:09:55 9.2 C 6.97 g/m*3 9.2 C 0 km/h
1586 20-06-2009 05:21:55 9.1 C 6.92 g/m*3 9.1 C 0 km/h
1587 20-06-2009 05:33:55 9 C 7.05 g/m*3 9 C 0 km/h
1588 20-06-2009 05:45:55 8.9 C 7.1 g/m*3 8.9 C 0 km/h
1589 20-06-2009 05:57:55 8.7 C 7.09 g/m*3 8.7 C 0 km/h
1590 20-06-2009 06:09:55 8.8 C 7.14 g/m*3 8.8 C 0 km/h
1591 20-06-2009 06:21:55 8.9 C 7.18 g/m*3 8.9 C 0 km/h
1592 20-06-2009 06:33:55 9 C 7.14 g/m*3 9 C 0 km/h
1593 20-06-2009 06:45:55 9.3 C 7.19 g/m*3 9.3 C 0 km/h
1594 20-06-2009 06:57:55 9.4 C 7.15 g/m*3 9.4 C 0 km/h
1595 20-06-2009 07:09:56 9.7 C 7.28 g/m*3 9.7 C 0 km/h
1596 20-06-2009 07:21:56 10 C 7.24 g/m*3 10 C 0 km/h
1597 20-06-2009 07:33:53 10.8 C 7.51 g/m*3 10.8 C 0 km/h
1598 20-06-2009 07:45:53 11.2 C 7.3 g/m*3 11.2 C 0 km/h
1599 20-06-2009 07:57:53 11.7 C 7.53 g/m*3 11.7 C 0 km/h
1600 20-06-2009 08:09:52 12.2 C 7.45 g/m*3 12.2 C 0 km/h
Sensor: Nr:Datum:Temp:Abs-Feuchte:Windchill:Wind:
Aussen-T/F 1601 20-06-2009 08:21:53 12.7 C 7.57 g/m*3 12.7 C 0 km/h
1602 20-06-2009 08:33:53 12.9 C 7.55 g/m*3 12.9 C 0 km/h
1603 20-06-2009 08:45:52 13.5 C 7.6 g/m*3 13.5 C 0 km/h
1604 20-06-2009 08:57:52 13.5 C 7.49 g/m*3 13.5 C 0 km/h
1605 20-06-2009 09:09:53 13.1 C 7.42 g/m*3 13.1 C 0 km/h
1606 20-06-2009 09:21:52 13 C 7.48 g/m*3 13 C 0 km/h
1607 20-06-2009 09:33:52 13.4 C 7.56 g/m*3 13.4 C 0 km/h
1608 20-06-2009 09:45:51 13.6 C 7.53 g/m*3 13.6 C 0 km/h
1609 20-06-2009 09:57:51 13.2 C 7.46 g/m*3 13.2 C 0 km/h
1610 20-06-2009 10:09:52 13.1 C 7.53 g/m*3 13.1 C 0 km/h
1611 20-06-2009 10:21:51 13.2 C 7.58 g/m*3 13.2 C 0 km/h
1612 20-06-2009 10:33:51 13.5 C 7.6 g/m*3 13.5 C 0 km/h
1613 20-06-2009 10:45:52 13.7 C 7.58 g/m*3 13.7 C 0 km/h
1614 20-06-2009 10:57:52 14.1 C 7.65 g/m*3 14.1 C 0 km/h
1615 20-06-2009 11:09:51 14.8 C 7.85 g/m*3 14.8 C 0 km/h
1616 20-06-2009 11:21:51 15.4 C 7.75 g/m*3 15.4 C 0 km/h
1617 20-06-2009 11:33:50 16 C 7.63 g/m*3 16 C 0 km/h
1618 20-06-2009 11:45:51 15.8 C 7.67 g/m*3 15.8 C 0 km/h
1619 20-06-2009 11:57:51 16.5 C 7.58 g/m*3 16.5 C 0 km/h
1620 20-06-2009 12:09:50 17 C 7.23 g/m*3 17 C 0 km/h
1621 20-06-2009 12:21:50 18.2 C 6.37 g/m*3 18.2 C 0 km/h
1622 20-06-2009 12:33:51 19.4 C 6.17 g/m*3 19.4 C 0 km/h
1623 20-06-2009 12:45:50 19.8 C 6.32 g/m*3 19.8 C 0 km/h
1624 20-06-2009 12:57:50 21.1 C 6.08 g/m*3 21.1 C 0 km/h
1625 20-06-2009 13:09:50 21.4 C 6.19 g/m*3 21.4 C 0 km/h
Sensor: Nr:Datum:Temp:Abs-Feuchte:Windchill:Wind:
Aussen-T/F 1626 20-06-2009 13:21:49 19.6 C 6.25 g/m*3 19.6 C 0 km/h
1627 20-06-2009 13:33:50 17.8 C 6.68 g/m*3 17.8 C 0 km/h
1628 20-06-2009 13:45:49 14.5 C 6.22 g/m*3 14.5 C 0 km/h
1629 20-06-2009 13:57:49 12.6 C 8.3 g/m*3 12.6 C 0 km/h
1630 20-06-2009 14:09:49 13.4 C 9.76 g/m*3 13.4 C 0 km/h
1631 20-06-2009 14:21:49 14.8 C 10.51 g/m*3 14.8 C 0 km/h
1632 20-06-2009 14:33:49 15 C 10 g/m*3 15 C 0 km/h
1633 20-06-2009 14:45:49 15.6 C 10.24 g/m*3 15.6 C 0 km/h
1634 20-06-2009 14:57:49 16.4 C 9.91 g/m*3 16.4 C 0 km/h
1635 20-06-2009 15:09:49 17.1 C 10.04 g/m*3 17.1 C 0 km/h
1636 20-06-2009 15:21:49 17.4 C 10.08 g/m*3 17.4 C 0 km/h
1637 20-06-2009 15:33:48 16 C 9.26 g/m*3 16 C 0 km/h
1638 20-06-2009 15:45:48 14.6 C 9.89 g/m*3 14.6 C 0 km/h
1639 20-06-2009 15:57:48 14.7 C 10.32 g/m*3 14.7 C 0 km/h
1640 20-06-2009 16:09:48 15.6 C 11.04 g/m*3 15.6 C 0 km/h
1641 20-06-2009 16:21:48 16.4 C 10.75 g/m*3 16.4 C 0 km/h
1642 20-06-2009 16:33:48 16.1 C 10.14 g/m*3 16.1 C 0 km/h
1643 20-06-2009 16:45:48 16.1 C 10.01 g/m*3 16.1 C 0 km/h
1644 20-06-2009 16:57:48 17 C 9.41 g/m*3 17 C 0 km/h
1645 20-06-2009 17:09:48 17.3 C 8.99 g/m*3 17.3 C 0 km/h
1646 20-06-2009 17:21:47 17 C 8.97 g/m*3 17 C 0 km/h
1647 20-06-2009 17:33:47 16.8 C 9.44 g/m*3 16.8 C 0 km/h
1648 20-06-2009 17:45:47 16.4 C 9.49 g/m*3 16.4 C 0 km/h
1649 20-06-2009 17:57:47 16 C 9.67 g/m*3 16 C 0 km/h
1650 20-06-2009 18:09:47 17.3 C 9.13 g/m*3 17.3 C 0 km/h
Sensor: Nr:Datum:Temp:Abs-Feuchte:Windchill:Wind:
Aussen-T/F 1651 20-06-2009 18:21:46 18 C 7.99 g/m*3 18 C 0 km/h
1652 20-06-2009 18:33:47 17.7 C 8.6 g/m*3 17.7 C 0 km/h
1653 20-06-2009 18:45:46 17.8 C 7.89 g/m*3 17.8 C 0 km/h
1654 20-06-2009 18:57:46 17.9 C 8.24 g/m*3 17.9 C 0 km/h
1655 20-06-2009 19:09:46 17.8 C 8.5 g/m*3 17.8 C 0 km/h
1656 20-06-2009 19:21:47 18.3 C 8.6 g/m*3 18.3 C 0 km/h
1657 20-06-2009 19:33:46 17.8 C 8.5 g/m*3 17.8 C 0 km/h
1658 20-06-2009 19:45:46 16.7 C 8.53 g/m*3 16.7 C 0 km/h
1659 20-06-2009 19:57:46 15.5 C 8.99 g/m*3 15.5 C 0 km/h
1660 20-06-2009 20:09:45 14.9 C 9.3 g/m*3 14.9 C 0 km/h
1661 20-06-2009 20:21:46 15.4 C 9.2 g/m*3 15.4 C 0 km/h
1662 20-06-2009 20:33:46 16 C 8.58 g/m*3 16 C 0 km/h
1663 20-06-2009 20:45:45 15.9 C 8.4 g/m*3 15.9 C 0 km/h
1664 20-06-2009 20:57:45 15.3 C 8.36 g/m*3 15.3 C 0 km/h
1665 20-06-2009 21:09:45 15 C 8.21 g/m*3 15 C 0 km/h
1666 20-06-2009 21:21:45 14.5 C 7.84 g/m*3 14.5 C 0 km/h
1667 20-06-2009 21:33:45 14.3 C 7.49 g/m*3 14.3 C 0 km/h
1668 20-06-2009 21:45:45 14.2 C 6.96 g/m*3 14.2 C 0 km/h
1669 20-06-2009 21:57:45 14.1 C 6.8 g/m*3 14.1 C 0 km/h
1670 20-06-2009 22:09:45 14.1 C 7.16 g/m*3 14.1 C 0 km/h
1671 20-06-2009 22:21:44 13.9 C 7.19 g/m*3 13.9 C 0 km/h
1672 20-06-2009 22:33:45 14 C 7.24 g/m*3 14 C 0 km/h
1673 20-06-2009 22:45:44 13.9 C 7.43 g/m*3 13.9 C 0 km/h
1674 20-06-2009 22:57:44 13.9 C 7.43 g/m*3 13.9 C 0 km/h
1675 20-06-2009 23:09:44 13.8 C 7.51 g/m*3 13.8 C 0 km/h
Sensor: Nr:Datum:Temp:Abs-Feuchte:Windchill:Wind:
Aussen-T/F 1676 20-06-2009 23:21:43 13.8 C 7.74 g/m*3 13.8 C 0 km/h
1677 20-06-2009 23:33:44 13.7 C 7.82 g/m*3 13.7 C 0 km/h
1678 20-06-2009 23:45:43 13.5 C 7.72 g/m*3 13.5 C 0 km/h
1679 20-06-2009 23:57:43 13.6 C 7.18 g/m*3 13.6 C 0 km/h
1680 21-06-2009 00:09:43 13.6 C 7.18 g/m*3 13.6 C 0 km/h
1681 21-06-2009 00:21:43 13.5 C 7.13 g/m*3 13.5 C 0 km/h
1682 21-06-2009 00:33:43 13.4 C 7.09 g/m*3 13.4 C 0 km/h
1683 21-06-2009 00:45:43 13.3 C 7.16 g/m*3 13.3 C 0 km/h
1684 21-06-2009 00:57:43 13.2 C 7 g/m*3 13.2 C 0 km/h
1685 21-06-2009 01:09:43 13.2 C 6.89 g/m*3 13.2 C 0 km/h
1686 21-06-2009 01:21:42 13.2 C 6.89 g/m*3 13.2 C 0 km/h
1687 21-06-2009 01:34:44 13 C 6.92 g/m*3 13 C 0 km/h
1688 21-06-2009 01:46:44 12.5 C 7.04 g/m*3 12.5 C 0 km/h
1689 21-06-2009 01:58:44 12.3 C 7.06 g/m*3 12.3 C 0 km/h
1690 21-06-2009 02:10:45 12.1 C 7.08 g/m*3 12.1 C 0 km/h
1691 21-06-2009 02:22:45 11.8 C 7.26 g/m*3 11.8 C 0 km/h
1692 21-06-2009 02:34:45 11.5 C 7.23 g/m*3 11.5 C 0 km/h
1693 21-06-2009 02:46:45 11.4 C 7.49 g/m*3 11.4 C 0 km/h
1694 21-06-2009 02:58:45 11.3 C 7.65 g/m*3 11.3 C 0 km/h
1695 21-06-2009 03:10:45 11 C 7.71 g/m*3 11 C 0 km/h
1696 21-06-2009 03:22:45 10.8 C 7.81 g/m*3 10.8 C 0 km/h
1697 21-06-2009 03:34:45 10.8 C 7.91 g/m*3 10.8 C 0 km/h
1698 21-06-2009 03:46:45 10.9 C 7.86 g/m*3 10.9 C 0 km/h
1699 21-06-2009 03:58:45 10.6 C 7.71 g/m*3 10.6 C 0 km/h
1700 21-06-2009 04:10:45 10.3 C 7.66 g/m*3 10.3 C 0 km/h
Sensor: Nr:Datum:Temp:Abs-Feuchte:Windchill:Wind:
Aussen-T/F 1701 21-06-2009 04:22:45 10.1 C 7.56 g/m*3 10.1 C 0 km/h
1702 21-06-2009 04:34:45 9.9 C 7.84 g/m*3 9.9 C 0 km/h
1703 21-06-2009 04:46:45 10 C 7.89 g/m*3 10 C 0 km/h
1704 21-06-2009 04:58:45 10 C 7.89 g/m*3 10 C 0 km/h
1705 21-06-2009 05:10:45 9.9 C 7.94 g/m*3 9.9 C 0 km/h
1706 21-06-2009 05:22:45 9.8 C 7.98 g/m*3 9.8 C 0 km/h
1707 21-06-2009 05:34:45 9.8 C 7.98 g/m*3 9.8 C 0 km/h
1708 21-06-2009 05:46:45 9.8 C 7.98 g/m*3 9.8 C 0 km/h
1709 21-06-2009 05:58:46 10 C 7.89 g/m*3 10 C 0 km/h
1710 21-06-2009 06:10:46 9.9 C 8.03 g/m*3 9.9 C 0 km/h
1711 21-06-2009 06:22:46 9.8 C 8.07 g/m*3 9.8 C 0 km/h
1712 21-06-2009 06:34:46 10.1 C 8.13 g/m*3 10.1 C 0 km/h
1713 21-06-2009 06:46:46 10.2 C 8.09 g/m*3 10.2 C 0 km/h
1714 21-06-2009 06:58:46 10.4 C 8.1 g/m*3 10.4 C 0 km/h
1715 21-06-2009 07:10:46 10.6 C 8.2 g/m*3 10.6 C 0 km/h
1716 21-06-2009 07:22:46 11 C 8.31 g/m*3 11 C 0 km/h
1717 21-06-2009 07:34:46 11.3 C 8.36 g/m*3 11.3 C 0 km/h
1718 21-06-2009 07:46:46 11.5 C 8.57 g/m*3 11.5 C 0 km/h
1719 21-06-2009 07:58:46 11.7 C 8.47 g/m*3 11.7 C 0 km/h
1720 21-06-2009 08:10:46 11.6 C 8.42 g/m*3 11.6 C 0 km/h
1721 21-06-2009 08:22:46 12.1 C 8.47 g/m*3 12.1 C 0 km/h
1722 21-06-2009 08:34:46 12.3 C 8.47 g/m*3 12.3 C 0 km/h
1723 21-06-2009 08:46:46 12.8 C 8.51 g/m*3 12.8 C 0 km/h
1724 21-06-2009 08:58:46 13.4 C 8.37 g/m*3 13.4 C 0 km/h
1725 21-06-2009 09:10:44 14.4 C 8.28 g/m*3 14.4 C 0 km/h
Sensor: Nr:Datum:Temp:Abs-Feuchte:Windchill:Wind:
Aussen-T/F 1726 21-06-2009 09:22:43 14.7 C 8.06 g/m*3 14.7 C 0 km/h
1727 21-06-2009 09:34:44 15.3 C 7.97 g/m*3 15.3 C 0 km/h
1728 21-06-2009 09:46:43 15.4 C 7.88 g/m*3 15.4 C 0 km/h
1729 21-06-2009 09:58:43 15.5 C 7.93 g/m*3 15.5 C 0 km/h
1730 21-06-2009 10:10:43 16.2 C 8 g/m*3 16.2 C 0 km/h
1731 21-06-2009 10:22:43 16.5 C 7.72 g/m*3 16.5 C 0 km/h
1732 21-06-2009 10:34:43 16.4 C 7.68 g/m*3 16.4 C 0 km/h
1733 21-06-2009 10:46:43 16.8 C 7.72 g/m*3 16.8 C 0 km/h
1734 21-06-2009 10:58:43 16.8 C 7.72 g/m*3 16.8 C 0 km/h
1735 21-06-2009 11:10:42 17.8 C 7.89 g/m*3 17.8 C 0 km/h
1736 21-06-2009 11:22:43 17.7 C 7.24 g/m*3 17.7 C 0 km/h
1737 21-06-2009 11:34:42 16 C 6.95 g/m*3 16 C 0 km/h
1738 21-06-2009 11:46:42 14.2 C 7.57 g/m*3 14.2 C 0 km/h
1739 21-06-2009 11:58:42 13.3 C 8.32 g/m*3 13.3 C 0 km/h
1740 21-06-2009 12:10:42 13.3 C 8.9 g/m*3 13.3 C 0 km/h
1741 21-06-2009 12:22:42 13.7 C 9.35 g/m*3 13.7 C 0 km/h
1742 21-06-2009 12:34:42 15.6 C 9.97 g/m*3 15.6 C 0 km/h
1743 21-06-2009 12:46:42 14.9 C 8.79 g/m*3 14.9 C 0 km/h
1744 21-06-2009 12:58:42 12.8 C 8.51 g/m*3 12.8 C 0 km/h
1745 21-06-2009 13:10:42 12.8 C 9.3 g/m*3 12.8 C 0 km/h
1746 21-06-2009 13:22:41 12.5 C 9.35 g/m*3 12.5 C 0 km/h
1747 21-06-2009 13:34:41 12.5 C 9.46 g/m*3 12.5 C 0 km/h
1748 21-06-2009 13:46:41 12.4 C 9.51 g/m*3 12.4 C 0 km/h
1749 21-06-2009 13:58:41 13.3 C 10.17 g/m*3 13.3 C 0 km/h
1750 21-06-2009 14:10:41 14.2 C 10.62 g/m*3 14.2 C 0 km/h
Sensor: Nr:Datum:Temp:Abs-Feuchte:Windchill:Wind:
Aussen-T/F 1751 21-06-2009 14:22:40 14 C 10.01 g/m*3 14 C 0 km/h
1752 21-06-2009 14:34:41 13.9 C 9.83 g/m*3 13.9 C 0 km/h
1753 21-06-2009 14:46:40 13.9 C 9.71 g/m*3 13.9 C 0 km/h
1754 21-06-2009 14:58:40 14.3 C 10.07 g/m*3 14.3 C 0 km/h
1755 21-06-2009 15:10:40 14.8 C 10.51 g/m*3 14.8 C 0 km/h
1756 21-06-2009 15:22:40 14.9 C 10.71 g/m*3 14.9 C 0 km/h
1757 21-06-2009 15:34:40 15 C 10.51 g/m*3 15 C 0 km/h
1758 21-06-2009 15:46:39 15.9 C 10.97 g/m*3 15.9 C 0 km/h
1759 21-06-2009 15:58:39 16.9 C 10.36 g/m*3 16.9 C 0 km/h
1760 21-06-2009 16:10:40 17.2 C 9.37 g/m*3 17.2 C 0 km/h
1761 21-06-2009 16:22:40 17.4 C 9.19 g/m*3 17.4 C 0 km/h
1762 21-06-2009 16:34:39 18.1 C 9.58 g/m*3 18.1 C 0 km/h
1763 21-06-2009 16:46:40 18 C 8.6 g/m*3 18 C 0 km/h
1764 21-06-2009 16:58:40 18 C 8.29 g/m*3 18 C 0 km/h
1765 21-06-2009 17:10:39 18.1 C 8.81 g/m*3 18.1 C 0 km/h
1766 21-06-2009 17:22:39 19 C 8.47 g/m*3 19 C 0 km/h
1767 21-06-2009 17:34:38 19.8 C 7.86 g/m*3 19.8 C 0 km/h
1768 21-06-2009 17:46:39 21.1 C 7.55 g/m*3 21.1 C 0 km/h
1769 21-06-2009 17:58:40 20.1 C 7.13 g/m*3 20.1 C 0 km/h
1770 21-06-2009 18:10:38 19.1 C 8.52 g/m*3 19.1 C 0 km/h
1771 21-06-2009 18:22:38 19.2 C 8.74 g/m*3 19.2 C 0 km/h
1772 21-06-2009 18:34:39 19.3 C 8.29 g/m*3 19.3 C 0 km/h
1773 21-06-2009 18:46:38 18.2 C 7.62 g/m*3 18.2 C 0 km/h
1774 21-06-2009 18:58:38 14.3 C 8.11 g/m*3 14.3 C 0 km/h
1775 21-06-2009 19:10:38 12.8 C 8.74 g/m*3 12.8 C 0 km/h
Sensor: Nr:Datum:Temp:Abs-Feuchte:Windchill:Wind:
Aussen-T/F 1776 21-06-2009 19:22:38 12.5 C 9.24 g/m*3 12.5 C 0 km/h
1777 21-06-2009 19:34:38 12.5 C 9.46 g/m*3 12.5 C 0 km/h
1778 21-06-2009 19:46:37 13.2 C 9.87 g/m*3 13.2 C 0 km/h
1779 21-06-2009 19:58:37 13.8 C 10.01 g/m*3 13.8 C 0 km/h
1780 21-06-2009 20:10:38 14.1 C 10.19 g/m*3 14.1 C 0 km/h
1781 21-06-2009 20:22:37 13.5 C 9.71 g/m*3 13.5 C 0 km/h
1782 21-06-2009 20:34:37 13.3 C 9.7 g/m*3 13.3 C 0 km/h
1783 21-06-2009 20:46:37 13.1 C 9.59 g/m*3 13.1 C 0 km/h
1784 21-06-2009 20:58:37 13.1 C 9.59 g/m*3 13.1 C 0 km/h
1785 21-06-2009 21:10:36 12.6 C 9.29 g/m*3 12.6 C 0 km/h
1786 21-06-2009 21:22:37 12.4 C 9.29 g/m*3 12.4 C 0 km/h
1787 21-06-2009 21:34:37 11.7 C 8.89 g/m*3 11.7 C 0 km/h
1788 21-06-2009 21:46:36 11.3 C 8.87 g/m*3 11.3 C 0 km/h
1789 21-06-2009 21:58:36 11.1 C 8.76 g/m*3 11.1 C 0 km/h
1790 21-06-2009 22:10:37 11.1 C 8.86 g/m*3 11.1 C 0 km/h
1791 21-06-2009 22:22:36 11 C 8.81 g/m*3 11 C 0 km/h
1792 21-06-2009 22:35:37 10.8 C 8.8 g/m*3 10.8 C 0 km/h
1793 21-06-2009 22:47:38 10.8 C 8.8 g/m*3 10.8 C 0 km/h
1794 21-06-2009 22:59:38 11 C 8.91 g/m*3 11 C 0 km/h
1795 21-06-2009 23:11:38 11.1 C 9.07 g/m*3 11.1 C 0 km/h
1796 21-06-2009 23:23:38 11.1 C 9.07 g/m*3 11.1 C 0 km/h
1797 21-06-2009 23:35:38 10.9 C 8.95 g/m*3 10.9 C 0 km/h
1798 21-06-2009 23:47:38 11 C 9.01 g/m*3 11 C 0 km/h
1799 21-06-2009 23:59:38 11.2 C 9.12 g/m*3 11.2 C 0 km/h
1800 22-06-2009 00:11:38 11.4 C 9.24 g/m*3 11.4 C 0 km/h
Sensor: Nr:Datum:Temp:Abs-Feuchte:Windchill:Wind:
Aussen-T/F 1801 22-06-2009 00:23:38 11.4 C 9.24 g/m*3 11.4 C 0 km/h
1802 22-06-2009 00:35:38 11.1 C 8.96 g/m*3 11.1 C 0 km/h
1803 22-06-2009 00:47:38 10.7 C 8.74 g/m*3 10.7 C 0 km/h
1804 22-06-2009 00:59:38 10.3 C 8.52 g/m*3 10.3 C 0 km/h
1805 22-06-2009 01:11:38 10 C 8.27 g/m*3 10 C 0 km/h
1806 22-06-2009 01:23:38 9.9 C 8.4 g/m*3 9.9 C 0 km/h
1807 22-06-2009 01:35:38 10 C 8.36 g/m*3 10 C 0 km/h
1808 22-06-2009 01:47:38 10.1 C 8.51 g/m*3 10.1 C 0 km/h
1809 22-06-2009 01:59:38 10.2 C 8.56 g/m*3 10.2 C 0 km/h
1810 22-06-2009 02:11:38 10.2 C 8.56 g/m*3 10.2 C 0 km/h
1811 22-06-2009 02:23:38 10 C 8.46 g/m*3 10 C 0 km/h
1812 22-06-2009 02:35:39 9.8 C 8.44 g/m*3 9.8 C 0 km/h
1813 22-06-2009 02:47:39 10 C 8.46 g/m*3 10 C 0 km/h
1814 22-06-2009 02:59:39 10.1 C 8.51 g/m*3 10.1 C 0 km/h
1815 22-06-2009 03:11:39 10.3 C 8.52 g/m*3 10.3 C 0 km/h
1816 22-06-2009 03:23:39 10.4 C 8.58 g/m*3 10.4 C 0 km/h
1817 22-06-2009 03:35:39 10.3 C 8.43 g/m*3 10.3 C 0 km/h
1818 22-06-2009 03:47:39 10.5 C 8.44 g/m*3 10.5 C 0 km/h
1819 22-06-2009 03:59:39 10.6 C 8.39 g/m*3 10.6 C 0 km/h
1820 22-06-2009 04:11:39 10.5 C 8.34 g/m*3 10.5 C 0 km/h
1821 22-06-2009 04:23:39 10.4 C 8.29 g/m*3 10.4 C 0 km/h
1822 22-06-2009 04:35:39 10.4 C 8.19 g/m*3 10.4 C 0 km/h
1823 22-06-2009 04:47:39 10.4 C 8.1 g/m*3 10.4 C 0 km/h
1824 22-06-2009 04:59:39 10.4 C 8.19 g/m*3 10.4 C 0 km/h
1825 22-06-2009 05:11:39 10.4 C 8.1 g/m*3 10.4 C 0 km/h
Sensor: Nr:Datum:Temp:Abs-Feuchte:Windchill:Wind:
Aussen-T/F 1826 22-06-2009 05:23:39 10.5 C 8.15 g/m*3 10.5 C 0 km/h
1827 22-06-2009 05:35:39 10.5 C 8.15 g/m*3 10.5 C 0 km/h
1828 22-06-2009 05:47:39 10.4 C 8.1 g/m*3 10.4 C 0 km/h
1829 22-06-2009 05:59:39 10.4 C 8.19 g/m*3 10.4 C 0 km/h
1830 22-06-2009 06:11:39 10.5 C 8.24 g/m*3 10.5 C 0 km/h
1831 22-06-2009 06:23:39 10.6 C 8.2 g/m*3 10.6 C 0 km/h
1832 22-06-2009 06:35:40 10.7 C 8.25 g/m*3 10.7 C 0 km/h
1833 22-06-2009 06:47:40 10.8 C 8.3 g/m*3 10.8 C 0 km/h
1834 22-06-2009 06:59:40 10.9 C 8.26 g/m*3 10.9 C 0 km/h
1835 22-06-2009 07:11:37 11 C 8.31 g/m*3 11 C 0 km/h
1836 22-06-2009 07:23:37 11.2 C 8.41 g/m*3 11.2 C 0 km/h
1837 22-06-2009 07:35:37 11.5 C 8.57 g/m*3 11.5 C 0 km/h
1838 22-06-2009 07:47:37 11.8 C 8.63 g/m*3 11.8 C 0 km/h
1839 22-06-2009 07:59:37 11.8 C 8.31 g/m*3 11.8 C 0 km/h
1840 22-06-2009 08:11:36 12.1 C 8.36 g/m*3 12.1 C 0 km/h
1841 22-06-2009 08:23:37 12.2 C 8.09 g/m*3 12.2 C 0 km/h
1842 22-06-2009 08:35:37 12.5 C 8.25 g/m*3 12.5 C 0 km/h
1843 22-06-2009 08:47:36 12.8 C 8.18 g/m*3 12.8 C 0 km/h
1844 22-06-2009 08:59:36 13.4 C 7.9 g/m*3 13.4 C 0 km/h
1845 22-06-2009 09:11:36 13.4 C 7.9 g/m*3 13.4 C 0 km/h
1846 22-06-2009 09:23:36 13.7 C 7.82 g/m*3 13.7 C 0 km/h
1847 22-06-2009 09:35:36 14 C 7.12 g/m*3 14 C 0 km/h
1848 22-06-2009 09:47:35 15 C 7.05 g/m*3 15 C 0 km/h
1849 22-06-2009 09:59:35 14.9 C 6.75 g/m*3 14.9 C 0 km/h
1850 22-06-2009 10:11:36 14.6 C 6.76 g/m*3 14.6 C 0 km/h
Sensor: Nr:Datum:Temp:Abs-Feuchte:Windchill:Wind:
Aussen-T/F 1851 22-06-2009 10:23:35 14.9 C 6.75 g/m*3 14.9 C 0 km/h
1852 22-06-2009 10:35:35 14.6 C 6.76 g/m*3 14.6 C 0 km/h
1853 22-06-2009 10:47:35 14.8 C 6.97 g/m*3 14.8 C 0 km/h
1854 22-06-2009 10:59:35 15.4 C 6.57 g/m*3 15.4 C 0 km/h
1855 22-06-2009 11:11:35 16 C 6.27 g/m*3 16 C 0 km/h
1856 22-06-2009 11:23:35 16.3 C 6.52 g/m*3 16.3 C 0 km/h
1857 22-06-2009 11:35:34 16.5 C 6.18 g/m*3 16.5 C 0 km/h
1858 22-06-2009 11:47:35 17.1 C 6.4 g/m*3 17.1 C 0 km/h
1859 22-06-2009 11:59:35 16.8 C 6.29 g/m*3 16.8 C 0 km/h
1860 22-06-2009 12:11:34 16.5 C 6.18 g/m*3 16.5 C 0 km/h
1861 22-06-2009 12:23:34 16.3 C 6.24 g/m*3 16.3 C 0 km/h
1862 22-06-2009 12:35:34 18.9 C 6.64 g/m*3 18.9 C 0 km/h
1863 22-06-2009 12:47:34 21.4 C 5.81 g/m*3 21.4 C 0 km/h
1864 22-06-2009 12:59:34 20.1 C 5.39 g/m*3 20.1 C 0 km/h
1865 22-06-2009 13:11:33 18 C 5.68 g/m*3 18 C 0 km/h
1866 22-06-2009 13:23:34 18 C 5.53 g/m*3 18 C 0 km/h
1867 22-06-2009 13:35:34 18.4 C 6.13 g/m*3 18.4 C 0 km/h
1868 22-06-2009 13:47:33 18.9 C 5.67 g/m*3 18.9 C 0 km/h
1869 22-06-2009 13:59:33 17.7 C 5.73 g/m*3 17.7 C 0 km/h
1870 22-06-2009 14:11:34 17.3 C 6.04 g/m*3 17.3 C 0 km/h
1871 22-06-2009 14:23:33 18.5 C 6.01 g/m*3 18.5 C 0 km/h
1872 22-06-2009 14:35:33 18.8 C 6.12 g/m*3 18.8 C 0 km/h
1873 22-06-2009 14:47:32 19 C 5.87 g/m*3 19 C 0 km/h
1874 22-06-2009 14:59:32 18.5 C 5.7 g/m*3 18.5 C 0 km/h
1875 22-06-2009 15:11:33 18 C 5.99 g/m*3 18 C 0 km/h
Sensor: Nr:Datum:Temp:Abs-Feuchte:Windchill:Wind:
Aussen-T/F 1876 22-06-2009 15:23:32 17.5 C 6.11 g/m*3 17.5 C 0 km/h
1877 22-06-2009 15:35:32 18.1 C 6.03 g/m*3 18.1 C 0 km/h
1878 22-06-2009 15:47:32 17.9 C 6.11 g/m*3 17.9 C 0 km/h
1879 22-06-2009 15:59:32 18.4 C 5.98 g/m*3 18.4 C 0 km/h
1880 22-06-2009 16:11:32 18.5 C 5.85 g/m*3 18.5 C 0 km/h
1881 22-06-2009 16:23:32 18.9 C 5.83 g/m*3 18.9 C 0 km/h
1882 22-06-2009 16:35:32 20.1 C 6.08 g/m*3 20.1 C 0 km/h
1883 22-06-2009 16:47:32 19.9 C 6.01 g/m*3 19.9 C 0 km/h
1884 22-06-2009 16:59:32 19.8 C 5.81 g/m*3 19.8 C 0 km/h
1885 22-06-2009 17:11:31 21.4 C 6 g/m*3 21.4 C 0 km/h
1886 22-06-2009 17:23:31 21.1 C 5.71 g/m*3 21.1 C 0 km/h
1887 22-06-2009 17:35:31 20.2 C 5.77 g/m*3 20.2 C 0 km/h
1888 22-06-2009 17:47:31 19.8 C 5.98 g/m*3 19.8 C 0 km/h
1889 22-06-2009 17:59:32 22.4 C 5.96 g/m*3 22.4 C 0 km/h
1890 22-06-2009 18:11:30 23.8 C 5.59 g/m*3 23.8 C 0 km/h
1891 22-06-2009 18:23:31 22.5 C 5.59 g/m*3 22.5 C 0 km/h
1892 22-06-2009 18:35:31 21.2 C 5.56 g/m*3 21.2 C 0 km/h
1893 22-06-2009 18:47:30 22.1 C 5.66 g/m*3 22.1 C 0 km/h
1894 22-06-2009 18:59:30 22.7 C 5.66 g/m*3 22.7 C 0 km/h
1895 22-06-2009 19:11:31 21.1 C 5.71 g/m*3 21.1 C 0 km/h
1896 22-06-2009 19:23:30 20.8 C 5.98 g/m*3 20.8 C 0 km/h
1897 22-06-2009 19:35:30 20.5 C 5.69 g/m*3 20.5 C 0 km/h
1898 22-06-2009 19:47:30 20.6 C 6.09 g/m*3 20.6 C 0 km/h
1899 22-06-2009 19:59:30 20.8 C 6.16 g/m*3 20.8 C 0 km/h
1900 22-06-2009 20:11:30 19.8 C 5.98 g/m*3 19.8 C 0 km/h
Sensor: Nr:Datum:Temp:Abs-Feuchte:Windchill:Wind:
Aussen-T/F 1901 22-06-2009 20:23:29 19.1 C 6.07 g/m*3 19.1 C 0 km/h
1902 22-06-2009 20:35:29 18.7 C 6.08 g/m*3 18.7 C 0 km/h
1903 22-06-2009 20:47:29 18.5 C 6.65 g/m*3 18.5 C 0 km/h
1904 22-06-2009 20:59:29 18.2 C 6.37 g/m*3 18.2 C 0 km/h
1905 22-06-2009 21:11:29 17.9 C 6.57 g/m*3 17.9 C 0 km/h
1906 22-06-2009 21:23:29 17.6 C 6.75 g/m*3 17.6 C 0 km/h
1907 22-06-2009 21:35:28 17.2 C 6.88 g/m*3 17.2 C 0 km/h
1908 22-06-2009 21:47:29 17 C 6.51 g/m*3 17 C 0 km/h
1909 22-06-2009 21:59:29 16.8 C 6.58 g/m*3 16.8 C 0 km/h
1910 22-06-2009 22:11:28 16.6 C 7.06 g/m*3 16.6 C 0 km/h
1911 22-06-2009 22:23:28 16.2 C 7.03 g/m*3 16.2 C 0 km/h
1912 22-06-2009 22:36:12 15.8 C 7.27 g/m*3 15.8 C 0 km/h
1913 22-06-2009 22:48:12 15.3 C 7.31 g/m*3 15.3 C 0 km/h
1914 22-06-2009 23:00:12 14.7 C 7.55 g/m*3 14.7 C 0 km/h
1915 22-06-2009 23:12:12 14.4 C 7.54 g/m*3 14.4 C 0 km/h
1916 22-06-2009 23:24:12 14 C 7.36 g/m*3 14 C 0 km/h
1917 22-06-2009 23:36:12 13.9 C 7.67 g/m*3 13.9 C 0 km/h
1918 22-06-2009 23:48:12 13.7 C 7.58 g/m*3 13.7 C 0 km/h
1919 23-06-2009 00:00:12 13.6 C 7.53 g/m*3 13.6 C 0 km/h
1920 23-06-2009 00:12:12 13.6 C 7.77 g/m*3 13.6 C 0 km/h
1921 23-06-2009 00:24:12 13.6 C 7.65 g/m*3 13.6 C 0 km/h
1922 23-06-2009 00:36:12 13.4 C 7.67 g/m*3 13.4 C 0 km/h
1923 23-06-2009 00:48:12 13.3 C 7.63 g/m*3 13.3 C 0 km/h
1924 23-06-2009 01:00:12 13.3 C 7.51 g/m*3 13.3 C 0 km/h
1925 23-06-2009 01:12:13 13.3 C 7.74 g/m*3 13.3 C 0 km/h
Sensor: Nr:Datum:Temp:Abs-Feuchte:Windchill:Wind:
Aussen-T/F 1926 23-06-2009 01:24:13 13.2 C 7.69 g/m*3 13.2 C 0 km/h
1927 23-06-2009 01:36:13 13.2 C 7.69 g/m*3 13.2 C 0 km/h
1928 23-06-2009 01:48:13 13 C 7.71 g/m*3 13 C 0 km/h
1929 23-06-2009 02:00:13 12.7 C 7.9 g/m*3 12.7 C 0 km/h
1930 23-06-2009 02:12:13 12.4 C 7.87 g/m*3 12.4 C 0 km/h
1931 23-06-2009 02:24:13 12.2 C 7.99 g/m*3 12.2 C 0 km/h
1932 23-06-2009 02:36:13 12.2 C 7.99 g/m*3 12.2 C 0 km/h
1933 23-06-2009 02:48:13 12.1 C 7.94 g/m*3 12.1 C 0 km/h
1934 23-06-2009 03:00:13 12 C 7.89 g/m*3 12 C 0 km/h
1935 23-06-2009 03:12:13 12 C 7.89 g/m*3 12 C 0 km/h
1936 23-06-2009 03:24:13 11.8 C 8 g/m*3 11.8 C 0 km/h
1937 23-06-2009 03:36:13 11.5 C 7.85 g/m*3 11.5 C 0 km/h
1938 23-06-2009 03:48:13 11.5 C 7.95 g/m*3 11.5 C 0 km/h
1939 23-06-2009 04:00:13 11.4 C 8.01 g/m*3 11.4 C 0 km/h
1940 23-06-2009 04:12:13 11.3 C 7.96 g/m*3 11.3 C 0 km/h
1941 23-06-2009 04:24:13 11.1 C 7.86 g/m*3 11.1 C 0 km/h
1942 23-06-2009 04:36:13 11.1 C 7.96 g/m*3 11.1 C 0 km/h
1943 23-06-2009 04:48:13 11 C 8.01 g/m*3 11 C 0 km/h
1944 23-06-2009 05:00:13 11.1 C 8.06 g/m*3 11.1 C 0 km/h
1945 23-06-2009 05:12:14 10.9 C 8.06 g/m*3 10.9 C 0 km/h
1946 23-06-2009 05:24:14 10.8 C 8.01 g/m*3 10.8 C 0 km/h
1947 23-06-2009 05:36:14 10.7 C 8.05 g/m*3 10.7 C 0 km/h
1948 23-06-2009 05:48:14 10.6 C 8 g/m*3 10.6 C 0 km/h
1949 23-06-2009 06:00:14 10.8 C 8.2 g/m*3 10.8 C 0 km/h
1950 23-06-2009 06:12:29 11.1 C 8.26 g/m*3 11.1 C 0 km/h
Sensor: Nr:Datum:Temp:Abs-Feuchte:Windchill:Wind:
Aussen-T/F 1951 23-06-2009 06:24:28 11.3 C 8.36 g/m*3 11.3 C 0 km/h
1952 23-06-2009 06:36:28 11.6 C 8.52 g/m*3 11.6 C 0 km/h
1953 23-06-2009 06:48:28 11.8 C 8.53 g/m*3 11.8 C 0 km/h
1954 23-06-2009 07:00:28 12.1 C 8.47 g/m*3 12.1 C 0 km/h
1955 23-06-2009 07:12:28 12.5 C 8.58 g/m*3 12.5 C 0 km/h
1956 23-06-2009 07:24:28 12.8 C 8.62 g/m*3 12.8 C 0 km/h
1957 23-06-2009 07:36:28 13 C 8.39 g/m*3 13 C 0 km/h
1958 23-06-2009 07:48:27 12.8 C 8.4 g/m*3 12.8 C 0 km/h
1959 23-06-2009 08:00:28 12.7 C 8.35 g/m*3 12.7 C 0 km/h
1960 23-06-2009 08:12:28 12.9 C 8.45 g/m*3 12.9 C 0 km/h
1961 23-06-2009 08:24:27 13.1 C 8.44 g/m*3 13.1 C 0 km/h
1962 23-06-2009 08:36:27 13.4 C 8.49 g/m*3 13.4 C 0 km/h
1963 23-06-2009 08:48:27 13.8 C 8.58 g/m*3 13.8 C 0 km/h
1964 23-06-2009 09:00:27 14 C 8.32 g/m*3 14 C 0 km/h
1965 23-06-2009 09:12:27 14.6 C 8.51 g/m*3 14.6 C 0 km/h
1966 23-06-2009 09:24:26 14.9 C 8.28 g/m*3 14.9 C 0 km/h
1967 23-06-2009 09:36:27 15.4 C 8.15 g/m*3 15.4 C 0 km/h
1968 23-06-2009 09:48:26 16.2 C 8.14 g/m*3 16.2 C 0 km/h
1969 23-06-2009 10:00:26 16.6 C 7.63 g/m*3 16.6 C 0 km/h
1970 23-06-2009 10:12:26 17.1 C 8.01 g/m*3 17.1 C 0 km/h
1971 23-06-2009 10:24:02 17.2 C 8.05 g/m*3 17.2 C 0 km/h
1972 23-06-2009 10:36:02 17.5 C 8.05 g/m*3 17.5 C 0 km/h
1973 23-06-2009 10:48:01 18 C 7.68 g/m*3 18 C 0 km/h
1974 23-06-2009 11:00:01 18.2 C 7.46 g/m*3 18.2 C 0 km/h
1975 23-06-2009 11:12:02 19.4 C 7.51 g/m*3 19.4 C 0 km/h
Sensor: Nr:Datum:Temp:Abs-Feuchte:Windchill:Wind:
Aussen-T/F 1976 23-06-2009 11:24:02 20.2 C 7.34 g/m*3 20.2 C 0 km/h
1977 23-06-2009 11:36:01 20.1 C 7.47 g/m*3 20.1 C 0 km/h
1978 23-06-2009 11:48:02 21.2 C 7.97 g/m*3 21.2 C 0 km/h
1979 23-06-2009 12:00:02 20.8 C 7.42 g/m*3 20.8 C 0 km/h
1980 23-06-2009 12:12:01 21.8 C 6.91 g/m*3 21.8 C 0 km/h
1981 23-06-2009 12:24:01 21.5 C 6.79 g/m*3 21.5 C 0 km/h
1982 23-06-2009 12:36:00 23.2 C 6.44 g/m*3 23.2 C 0 km/h
1983 23-06-2009 12:48:01 24.2 C 6.38 g/m*3 24.2 C 0 km/h
1984 23-06-2009 13:00:01 24 C 6.31 g/m*3 24 C 0 km/h
1985 23-06-2009 13:12:00 24.8 C 6.37 g/m*3 24.8 C 0 km/h
1986 23-06-2009 13:24:00 24.5 C 6.27 g/m*3 24.5 C 0 km/h
1987 23-06-2009 13:36:01 24.1 C 6.35 g/m*3 24.1 C 0 km/h
1988 23-06-2009 13:48:00 24.9 C 6.18 g/m*3 24.9 C 0 km/h
1989 23-06-2009 14:00:00 23.8 C 5.81 g/m*3 23.8 C 0 km/h
1990 23-06-2009 14:12:00 24.4 C 5.79 g/m*3 24.4 C 0 km/h
1991 23-06-2009 14:24:00 24.3 C 5.97 g/m*3 24.3 C 0 km/h
1992 23-06-2009 14:36:00 25.2 C 6.05 g/m*3 25.2 C 0 km/h
1993 23-06-2009 14:48:59 24.7 C 5.66 g/m*3 24.7 C 0 km/h
1994 23-06-2009 14:59:59 24.6 C 5.63 g/m*3 24.6 C 0 km/h
1995 23-06-2009 15:12:00 24.6 C 5.63 g/m*3 24.6 C 0 km/h
1996 23-06-2009 15:24:59 25.1 C 5.79 g/m*3 25.1 C 0 km/h
1997 23-06-2009 15:36:59 26.6 C 5.54 g/m*3 26.6 C 0 km/h
1998 23-06-2009 15:48:58 25.6 C 5.71 g/m*3 25.6 C 0 km/h
1999 23-06-2009 16:00:59 25.9 C 5.08 g/m*3 25.9 C 0 km/h
2000 23-06-2009 16:12:59 26.8 C 5.6 g/m*3 26.8 C 0 km/h
Sensor: Nr:Datum:Temp:Abs-Feuchte:Windchill:Wind:
Aussen-T/F 2001 23-06-2009 16:24:59 27.4 C 5.26 g/m*3 27.4 C 0 km/h
2002 23-06-2009 16:36:58 25.8 C 5.54 g/m*3 25.8 C 0 km/h
2003 23-06-2009 16:48:59 26 C 5.84 g/m*3 26 C 0 km/h
2004 23-06-2009 17:00:58 25.2 C 5.35 g/m*3 25.2 C 0 km/h
2005 23-06-2009 17:12:58 24.7 C 5.66 g/m*3 24.7 C 0 km/h
2006 23-06-2009 17:24:58 24.8 C 5.69 g/m*3 24.8 C 0 km/h
2007 23-06-2009 17:36:57 24.5 C 5.37 g/m*3 24.5 C 0 km/h
2008 23-06-2009 17:48:58 24.7 C 5.66 g/m*3 24.7 C 0 km/h
2009 23-06-2009 18:00:58 27.3 C 5.49 g/m*3 27.3 C 0 km/h
2010 23-06-2009 18:12:58 27.2 C 5.46 g/m*3 27.2 C 0 km/h
2011 23-06-2009 18:24:57 28.1 C 5.47 g/m*3 28.1 C 0 km/h
2012 23-06-2009 18:36:58 29.5 C 5.9 g/m*3 29.5 C 0 km/h
2013 23-06-2009 18:48:57 28.3 C 5.53 g/m*3 28.3 C 0 km/h
2014 23-06-2009 19:00:57 26.2 C 5.17 g/m*3 26.2 C 0 km/h
2015 23-06-2009 19:12:57 25.1 C 5.56 g/m*3 25.1 C 0 km/h
2016 23-06-2009 19:24:57 24.4 C 5.56 g/m*3 24.4 C 0 km/h
2017 23-06-2009 19:36:57 24.5 C 5.6 g/m*3 24.5 C 0 km/h
2018 23-06-2009 19:48:56 23.9 C 5.62 g/m*3 23.9 C 0 km/h
2019 23-06-2009 20:00:56 23.5 C 5.71 g/m*3 23.5 C 0 km/h
2020 23-06-2009 20:12:56 23.7 C 5.78 g/m*3 23.7 C 0 km/h
2021 23-06-2009 20:24:57 24.4 C 5.79 g/m*3 24.4 C 0 km/h
2022 23-06-2009 20:36:56 24.1 C 5.69 g/m*3 24.1 C 0 km/h
2023 23-06-2009 20:48:56 23.5 C 6.13 g/m*3 23.5 C 0 km/h
2024 23-06-2009 21:00:56 22.9 C 6.34 g/m*3 22.9 C 0 km/h
2025 23-06-2009 21:12:56 22.3 C 6.91 g/m*3 22.3 C 0 km/h
Sensor: Nr:Datum:Temp:Abs-Feuchte:Windchill:Wind:
Aussen-T/F 2026 23-06-2009 21:24:56 21.6 C 7.21 g/m*3 21.6 C 0 km/h
2027 23-06-2009 21:36:56 20.9 C 7.29 g/m*3 20.9 C 0 km/h
2028 23-06-2009 21:48:55 20.4 C 7.25 g/m*3 20.4 C 0 km/h
2029 23-06-2009 22:00:56 19.8 C 7.17 g/m*3 19.8 C 0 km/h
2030 23-06-2009 22:12:56 19.5 C 7.22 g/m*3 19.5 C 0 km/h
2031 23-06-2009 22:25:57 19.5 C 7.38 g/m*3 19.5 C 0 km/h
2032 23-06-2009 22:37:57 19.2 C 7.42 g/m*3 19.2 C 0 km/h
2033 23-06-2009 22:49:57 18.9 C 7.45 g/m*3 18.9 C 0 km/h
2034 23-06-2009 23:01:57 18.7 C 7.68 g/m*3 18.7 C 0 km/h
2035 23-06-2009 23:13:57 18.6 C 7.64 g/m*3 18.6 C 0 km/h
2036 23-06-2009 23:25:57 18.6 C 7.64 g/m*3 18.6 C 0 km/h
2037 23-06-2009 23:37:57 18.5 C 7.91 g/m*3 18.5 C 0 km/h
2038 23-06-2009 23:49:57 18.5 C 7.75 g/m*3 18.5 C 0 km/h
2039 24-06-2009 00:01:57 18.4 C 7.86 g/m*3 18.4 C 0 km/h
2040 24-06-2009 00:13:57 18.3 C 7.97 g/m*3 18.3 C 0 km/h
2041 24-06-2009 00:25:57 18.1 C 7.88 g/m*3 18.1 C 0 km/h
2042 24-06-2009 00:37:57 18.1 C 7.88 g/m*3 18.1 C 0 km/h
2043 24-06-2009 00:49:57 17.8 C 7.89 g/m*3 17.8 C 0 km/h
2044 24-06-2009 01:01:57 17.6 C 8.1 g/m*3 17.6 C 0 km/h
2045 24-06-2009 01:13:57 17.5 C 7.9 g/m*3 17.5 C 0 km/h
2046 24-06-2009 01:25:57 17.5 C 7.9 g/m*3 17.5 C 0 km/h
2047 24-06-2009 01:37:57 17.3 C 7.96 g/m*3 17.3 C 0 km/h
2048 24-06-2009 01:49:57 17 C 7.67 g/m*3 17 C 0 km/h
2049 24-06-2009 02:01:57 17 C 7.67 g/m*3 17 C 0 km/h
2050 24-06-2009 02:13:57 16.9 C 7.91 g/m*3 16.9 C 0 km/h
Sensor: Nr:Datum:Temp:Abs-Feuchte:Windchill:Wind:
Aussen-T/F 2051 24-06-2009 02:25:58 16.4 C 7.68 g/m*3 16.4 C 0 km/h
2052 24-06-2009 02:37:58 16.3 C 7.63 g/m*3 16.3 C 0 km/h
2053 24-06-2009 02:49:58 16.1 C 7.54 g/m*3 16.1 C 0 km/h
2054 24-06-2009 03:01:58 15.7 C 7.63 g/m*3 15.7 C 0 km/h
2055 24-06-2009 03:13:58 15.5 C 7.67 g/m*3 15.5 C 0 km/h
2056 24-06-2009 03:25:58 15.3 C 7.57 g/m*3 15.3 C 0 km/h
2057 24-06-2009 03:37:58 15 C 7.57 g/m*3 15 C 0 km/h
2058 24-06-2009 03:49:58 14.8 C 7.73 g/m*3 14.8 C 0 km/h
2059 24-06-2009 04:01:58 14.7 C 7.68 g/m*3 14.7 C 0 km/h
2060 24-06-2009 04:13:58 14.4 C 7.66 g/m*3 14.4 C 0 km/h
2061 24-06-2009 04:25:58 14.4 C 7.66 g/m*3 14.4 C 0 km/h
2062 24-06-2009 04:37:58 14.3 C 7.62 g/m*3 14.3 C 0 km/h
2063 24-06-2009 04:49:58 14.4 C 7.54 g/m*3 14.4 C 0 km/h
2064 24-06-2009 05:01:58 14.1 C 7.4 g/m*3 14.1 C 0 km/h
2065 24-06-2009 05:13:58 13.8 C 7.39 g/m*3 13.8 C 0 km/h
2066 24-06-2009 05:25:58 13.7 C 7.34 g/m*3 13.7 C 0 km/h
2067 24-06-2009 05:37:58 13.6 C 7.53 g/m*3 13.6 C 0 km/h
2068 24-06-2009 05:49:58 13.6 C 7.3 g/m*3 13.6 C 0 km/h
2069 24-06-2009 06:01:58 13.5 C 7.25 g/m*3 13.5 C 0 km/h
2070 24-06-2009 06:13:59 13.6 C 7.3 g/m*3 13.6 C 0 km/h
2071 24-06-2009 06:25:59 13.6 C 7.3 g/m*3 13.6 C 0 km/h
2072 24-06-2009 06:37:59 13.6 C 7.53 g/m*3 13.6 C 0 km/h
2073 24-06-2009 06:49:59 13.5 C 7.49 g/m*3 13.5 C 0 km/h
2074 24-06-2009 07:01:56 13.7 C 7.58 g/m*3 13.7 C 0 km/h
2075 24-06-2009 07:13:56 13.7 C 7.46 g/m*3 13.7 C 0 km/h
Sensor: Nr:Datum:Temp:Abs-Feuchte:Windchill:Wind:
Aussen-T/F 2076 24-06-2009 07:25:56 13.9 C 7.55 g/m*3 13.9 C 0 km/h
2077 24-06-2009 07:37:56 14.1 C 7.4 g/m*3 14.1 C 0 km/h
2078 24-06-2009 07:49:56 14.2 C 7.45 g/m*3 14.2 C 0 km/h
2079 24-06-2009 08:01:56 14.6 C 7.51 g/m*3 14.6 C 0 km/h
2080 24-06-2009 08:13:56 14.8 C 7.47 g/m*3 14.8 C 0 km/h
2081 24-06-2009 08:25:56 15.2 C 7.53 g/m*3 15.2 C 0 km/h
2082 24-06-2009 08:37:56 15.4 C 7.62 g/m*3 15.4 C 0 km/h
2083 24-06-2009 08:49:55 16 C 7.77 g/m*3 16 C 0 km/h
2084 24-06-2009 09:01:56 16.6 C 7.2 g/m*3 16.6 C 0 km/h
2085 24-06-2009 09:13:56 17.3 C 7.51 g/m*3 17.3 C 0 km/h
2086 24-06-2009 09:25:55 17.8 C 7.29 g/m*3 17.8 C 0 km/h
2087 24-06-2009 09:37:55 18.3 C 7.19 g/m*3 18.3 C 0 km/h
2088 24-06-2009 09:49:54 18.8 C 7.25 g/m*3 18.8 C 0 km/h
2089 24-06-2009 10:01:55 19.4 C 6.84 g/m*3 19.4 C 0 km/h
2090 24-06-2009 10:13:55 20.4 C 7.25 g/m*3 20.4 C 0 km/h
2091 24-06-2009 10:25:54 21.1 C 6.82 g/m*3 21.1 C 0 km/h
2092 24-06-2009 10:37:54 21.5 C 6.22 g/m*3 21.5 C 0 km/h
2093 24-06-2009 10:49:54 22 C 6.02 g/m*3 22 C 0 km/h
2094 24-06-2009 11:01:54 22.4 C 5.96 g/m*3 22.4 C 0 km/h
2095 24-06-2009 11:13:54 22.8 C 6.1 g/m*3 22.8 C 0 km/h
2096 24-06-2009 11:25:54 23.2 C 6.24 g/m*3 23.2 C 0 km/h
2097 24-06-2009 11:37:54 23.8 C 6.02 g/m*3 23.8 C 0 km/h
2098 24-06-2009 11:49:54 24.6 C 5.63 g/m*3 24.6 C 0 km/h
2099 24-06-2009 12:01:53 25.6 C 6.19 g/m*3 25.6 C 0 km/h
2100 24-06-2009 12:13:53 26 C 5.6 g/m*3 26 C 0 km/h
Sensor: Nr:Datum:Temp:Abs-Feuchte:Windchill:Wind:
Aussen-T/F 2101 24-06-2009 12:25:54 26.4 C 5.97 g/m*3 26.4 C 0 km/h
2102 24-06-2009 12:37:53 27.2 C 5.46 g/m*3 27.2 C 0 km/h
2103 24-06-2009 12:49:53 27.7 C 5.62 g/m*3 27.7 C 0 km/h
2104 24-06-2009 13:01:52 28.5 C 5.59 g/m*3 28.5 C 0 km/h
2105 24-06-2009 13:13:52 29 C 5.74 g/m*3 29 C 0 km/h
2106 24-06-2009 13:25:53 29.5 C 5.9 g/m*3 29.5 C 0 km/h
2107 24-06-2009 13:37:53 29.8 C 6 g/m*3 29.8 C 0 km/h
2108 24-06-2009 13:49:52 29.7 C 5.97 g/m*3 29.7 C 0 km/h
2109 24-06-2009 14:01:53 29.5 C 5.9 g/m*3 29.5 C 0 km/h
2110 24-06-2009 14:13:53 28.6 C 5.62 g/m*3 28.6 C 0 km/h
2111 24-06-2009 14:25:52 28.1 C 5.74 g/m*3 28.1 C 0 km/h
2112 24-06-2009 14:37:52 28.5 C 6.43 g/m*3 28.5 C 0 km/h
2113 24-06-2009 14:49:52 28.8 C 5.97 g/m*3 28.8 C 0 km/h
2114 24-06-2009 15:01:52 29.4 C 5.87 g/m*3 29.4 C 0 km/h
2115 24-06-2009 15:13:52 29.9 C 6.03 g/m*3 29.9 C 0 km/h
2116 24-06-2009 15:25:51 30.3 C 6.16 g/m*3 30.3 C 0 km/h
2117 24-06-2009 15:37:51 30.1 C 6.1 g/m*3 30.1 C 0 km/h
2118 24-06-2009 15:49:52 30.4 C 6.2 g/m*3 30.4 C 0 km/h
2119 24-06-2009 16:01:51 30.6 C 6.26 g/m*3 30.6 C 0 km/h
2120 24-06-2009 16:13:51 30.9 C 6.37 g/m*3 30.9 C 0 km/h
2121 24-06-2009 16:25:51 31.2 C 6.47 g/m*3 31.2 C 0 km/h
2122 24-06-2009 16:37:51 31.2 C 6.47 g/m*3 31.2 C 0 km/h
2123 24-06-2009 16:49:51 31.3 C 6.5 g/m*3 31.3 C 0 km/h
2124 24-06-2009 17:01:50 31.7 C 6.64 g/m*3 31.7 C 0 km/h
2125 24-06-2009 17:13:50 31.8 C 6.68 g/m*3 31.8 C 0 km/h
Sensor: Nr:Datum:Temp:Abs-Feuchte:Windchill:Wind:
Aussen-T/F 2126 24-06-2009 17:25:51 31.7 C 6.64 g/m*3 31.7 C 0 km/h
2127 24-06-2009 17:37:51 32.3 C 6.86 g/m*3 32.3 C 0 km/h
2128 24-06-2009 17:49:50 31.9 C 6.72 g/m*3 31.9 C 0 km/h
2129 24-06-2009 18:01:50 32.1 C 6.79 g/m*3 32.1 C 0 km/h
2130 24-06-2009 18:13:50 32.1 C 6.79 g/m*3 32.1 C 0 km/h
2131 24-06-2009 18:25:50 31.7 C 6.64 g/m*3 31.7 C 0 km/h
2132 24-06-2009 18:37:50 31.2 C 6.47 g/m*3 31.2 C 0 km/h
2133 24-06-2009 18:49:49 30.5 C 6.23 g/m*3 30.5 C 0 km/h
2134 24-06-2009 19:01:50 30 C 6.67 g/m*3 30 C 0 km/h
2135 24-06-2009 19:13:51 29 C 6.89 g/m*3 29 C 0 km/h
2136 24-06-2009 19:25:49 30.7 C 6.3 g/m*3 30.7 C 0 km/h
2137 24-06-2009 19:37:49 30.2 C 6.44 g/m*3 30.2 C 0 km/h
2138 24-06-2009 19:49:49 28.6 C 7.31 g/m*3 28.6 C 0 km/h
2139 24-06-2009 20:01:49 28.3 C 7.74 g/m*3 28.3 C 0 km/h
2140 24-06-2009 20:13:49 27.3 C 7.85 g/m*3 27.3 C 0 km/h
2141 24-06-2009 20:25:49 26.5 C 7.76 g/m*3 26.5 C 0 km/h
2142 24-06-2009 20:37:48 25.8 C 7.7 g/m*3 25.8 C 0 km/h
2143 24-06-2009 20:49:49 24.9 C 8.01 g/m*3 24.9 C 0 km/h
2144 24-06-2009 21:01:48 24.4 C 7.79 g/m*3 24.4 C 0 km/h
2145 24-06-2009 21:13:48 24 C 7.83 g/m*3 24 C 0 km/h
2146 24-06-2009 21:25:48 23.7 C 7.91 g/m*3 23.7 C 0 km/h
2147 24-06-2009 21:37:48 23.7 C 8.13 g/m*3 23.7 C 0 km/h
2148 24-06-2009 21:49:48 23.8 C 8.39 g/m*3 23.8 C 0 km/h
2149 24-06-2009 22:02:01 23.6 C 8.29 g/m*3 23.6 C 0 km/h
2150 24-06-2009 22:14:01 23.5 C 8.46 g/m*3 23.5 C 0 km/h
Sensor: Nr:Datum:Temp:Abs-Feuchte:Windchill:Wind:
Aussen-T/F 2151 24-06-2009 22:26:01 23.3 C 8.15 g/m*3 23.3 C 0 km/h
2152 24-06-2009 22:38:01 23.3 C 8.15 g/m*3 23.3 C 0 km/h
2153 24-06-2009 22:50:01 23.1 C 7.86 g/m*3 23.1 C 0 km/h
2154 24-06-2009 23:02:02 22.7 C 8.08 g/m*3 22.7 C 0 km/h
2155 24-06-2009 23:14:02 22.5 C 8.19 g/m*3 22.5 C 0 km/h
2156 24-06-2009 23:26:02 22.4 C 8.14 g/m*3 22.4 C 0 km/h
2157 24-06-2009 23:38:02 21.9 C 8.49 g/m*3 21.9 C 0 km/h
2158 24-06-2009 23:50:02 21.6 C 8.35 g/m*3 21.6 C 0 km/h
2159 25-06-2009 00:02:02 21.4 C 8.44 g/m*3 21.4 C 0 km/h
2160 25-06-2009 00:14:02 21.3 C 8.39 g/m*3 21.3 C 0 km/h
2161 25-06-2009 00:26:02 21.5 C 8.67 g/m*3 21.5 C 0 km/h
2162 25-06-2009 00:38:02 21.4 C 8.81 g/m*3 21.4 C 0 km/h
2163 25-06-2009 00:50:02 20.9 C 9.11 g/m*3 20.9 C 0 km/h
2164 25-06-2009 01:02:02 20.7 C 9 g/m*3 20.7 C 0 km/h
2165 25-06-2009 01:14:02 20.6 C 8.95 g/m*3 20.6 C 0 km/h
2166 25-06-2009 01:26:02 20.2 C 8.74 g/m*3 20.2 C 0 km/h
2167 25-06-2009 01:38:02 19.7 C 8.83 g/m*3 19.7 C 0 km/h
2168 25-06-2009 01:50:02 19.3 C 8.79 g/m*3 19.3 C 0 km/h
2169 25-06-2009 02:02:02 19.1 C 9.02 g/m*3 19.1 C 0 km/h
2170 25-06-2009 02:14:02 18.8 C 9.18 g/m*3 18.8 C 0 km/h
2171 25-06-2009 02:26:02 18.7 C 9.13 g/m*3 18.7 C 0 km/h
2172 25-06-2009 02:38:02 18.5 C 9.02 g/m*3 18.5 C 0 km/h
2173 25-06-2009 02:50:02 18.2 C 9.01 g/m*3 18.2 C 0 km/h
2174 25-06-2009 03:02:03 18.1 C 9.12 g/m*3 18.1 C 0 km/h
2175 25-06-2009 03:14:03 17.9 C 9.31 g/m*3 17.9 C 0 km/h
Sensor: Nr:Datum:Temp:Abs-Feuchte:Windchill:Wind:
Aussen-T/F 2176 25-06-2009 03:26:03 17.7 C 9.35 g/m*3 17.7 C 0 km/h
2177 25-06-2009 03:38:03 17.4 C 9.34 g/m*3 17.4 C 0 km/h
2178 25-06-2009 03:50:03 17.1 C 9.61 g/m*3 17.1 C 0 km/h
2179 25-06-2009 04:02:03 16.7 C 9.52 g/m*3 16.7 C 0 km/h
2180 25-06-2009 04:14:03 16.7 C 9.38 g/m*3 16.7 C 0 km/h
2181 25-06-2009 04:26:03 16.7 C 9.38 g/m*3 16.7 C 0 km/h
2182 25-06-2009 04:38:03 16.5 C 9.13 g/m*3 16.5 C 0 km/h
2183 25-06-2009 04:50:03 16.4 C 9.07 g/m*3 16.4 C 0 km/h
2184 25-06-2009 05:02:03 16.3 C 9.16 g/m*3 16.3 C 0 km/h
2185 25-06-2009 05:14:03 16.1 C 9.05 g/m*3 16.1 C 0 km/h
2186 25-06-2009 05:26:03 15.9 C 9.21 g/m*3 15.9 C 0 km/h
2187 25-06-2009 05:38:03 15.9 C 9.21 g/m*3 15.9 C 0 km/h
2188 25-06-2009 05:50:03 16 C 8.99 g/m*3 16 C 0 km/h
2189 25-06-2009 06:02:03 16.1 C 9.05 g/m*3 16.1 C 0 km/h
2190 25-06-2009 06:14:03 16.1 C 9.18 g/m*3 16.1 C 0 km/h
2191 25-06-2009 06:26:01 16.1 C 9.32 g/m*3 16.1 C 0 km/h
2192 25-06-2009 06:38:02 16.2 C 9.38 g/m*3 16.2 C 0 km/h
2193 25-06-2009 06:50:01 16.1 C 9.46 g/m*3 16.1 C 0 km/h
2194 25-06-2009 07:02:01 16.3 C 9.57 g/m*3 16.3 C 0 km/h
2195 25-06-2009 07:14:01 16.4 C 9.63 g/m*3 16.4 C 0 km/h
2196 25-06-2009 07:26:01 16.6 C 9.61 g/m*3 16.6 C 0 km/h
2197 25-06-2009 07:38:00 16.6 C 9.46 g/m*3 16.6 C 0 km/h
2198 25-06-2009 07:50:01 16.9 C 9.64 g/m*3 16.9 C 0 km/h
2199 25-06-2009 08:02:01 17.3 C 9.87 g/m*3 17.3 C 0 km/h
2200 25-06-2009 08:14:01 17.7 C 9.81 g/m*3 17.7 C 0 km/h
Sensor: Nr:Datum:Temp:Abs-Feuchte:Windchill:Wind:
Aussen-T/F 2201 25-06-2009 08:26:00 18 C 9.83 g/m*3 18 C 0 km/h
2202 25-06-2009 08:38:00 18.5 C 9.81 g/m*3 18.5 C 0 km/h
2203 25-06-2009 08:50:00 19.2 C 9.07 g/m*3 19.2 C 0 km/h
2204 25-06-2009 09:02:00 19.7 C 9.34 g/m*3 19.7 C 0 km/h
2205 25-06-2009 09:14:00 20.3 C 9.15 g/m*3 20.3 C 0 km/h
2206 25-06-2009 09:26:59 20.8 C 9.23 g/m*3 20.8 C 0 km/h
2207 25-06-2009 09:38:00 21.4 C 9.37 g/m*3 21.4 C 0 km/h
2208 25-06-2009 09:50:59 21.7 C 8.97 g/m*3 21.7 C 0 km/h
2209 25-06-2009 10:02:59 22 C 8.73 g/m*3 22 C 0 km/h
2210 25-06-2009 10:14:00 23 C 9.25 g/m*3 23 C 0 km/h
2211 25-06-2009 10:26:00 23.5 C 9.09 g/m*3 23.5 C 0 km/h
2212 25-06-2009 10:38:59 23.8 C 9.25 g/m*3 23.8 C 0 km/h
2213 25-06-2009 10:50:59 24.4 C 9.12 g/m*3 24.4 C 0 km/h
2214 25-06-2009 11:02:59 24.8 C 9.1 g/m*3 24.8 C 0 km/h
2215 25-06-2009 11:14:59 26.1 C 9.06 g/m*3 26.1 C 0 km/h
2216 25-06-2009 11:26:59 26.2 C 8.37 g/m*3 26.2 C 0 km/h
2217 25-06-2009 11:38:58 26.3 C 9.16 g/m*3 26.3 C 0 km/h
2218 25-06-2009 11:50:59 26.9 C 8.7 g/m*3 26.9 C 0 km/h
2219 25-06-2009 12:02:58 26.8 C 8.91 g/m*3 26.8 C 0 km/h
2220 25-06-2009 12:14:58 27.9 C 8.65 g/m*3 27.9 C 0 km/h
2221 25-06-2009 12:26:58 28.4 C 8.34 g/m*3 28.4 C 0 km/h
2222 25-06-2009 12:38:58 28.8 C 8.81 g/m*3 28.8 C 0 km/h
2223 25-06-2009 12:50:58 30.1 C 8.54 g/m*3 30.1 C 0 km/h
2224 25-06-2009 13:02:57 30.3 C 8.32 g/m*3 30.3 C 0 km/h
2225 25-06-2009 13:14:57 31 C 8 g/m*3 31 C 0 km/h
Sensor: Nr:Datum:Temp:Abs-Feuchte:Windchill:Wind:
Aussen-T/F 2226 25-06-2009 13:26:57 30 C 8.19 g/m*3 30 C 0 km/h
2227 25-06-2009 13:38:58 30.7 C 7.87 g/m*3 30.7 C 0 km/h
2228 25-06-2009 13:50:57 30.2 C 8.28 g/m*3 30.2 C 0 km/h
2229 25-06-2009 14:02:57 29.7 C 8.65 g/m*3 29.7 C 0 km/h
2230 25-06-2009 14:14:57 30.6 C 7.83 g/m*3 30.6 C 0 km/h
2231 25-06-2009 14:26:57 30.4 C 8.37 g/m*3 30.4 C 0 km/h
2232 25-06-2009 14:38:57 30.4 C 8.37 g/m*3 30.4 C 0 km/h
2233 25-06-2009 14:50:56 31.1 C 8.04 g/m*3 31.1 C 0 km/h
2234 25-06-2009 15:02:57 31.3 C 7.81 g/m*3 31.3 C 0 km/h
2235 25-06-2009 15:14:56 30.9 C 8.28 g/m*3 30.9 C 0 km/h
2236 25-06-2009 15:26:56 31.2 C 8.09 g/m*3 31.2 C 0 km/h
2237 25-06-2009 15:38:56 31.9 C 7.39 g/m*3 31.9 C 0 km/h
2238 25-06-2009 15:50:56 31.9 C 7.05 g/m*3 31.9 C 0 km/h
2239 25-06-2009 16:02:56 31.5 C 8.22 g/m*3 31.5 C 0 km/h
2240 25-06-2009 16:14:56 31.8 C 7.35 g/m*3 31.8 C 0 km/h
2241 25-06-2009 16:26:56 31.8 C 7.01 g/m*3 31.8 C 0 km/h
2242 25-06-2009 16:38:55 31.7 C 7.31 g/m*3 31.7 C 0 km/h
2243 25-06-2009 16:50:56 32.3 C 6.86 g/m*3 32.3 C 0 km/h
2244 25-06-2009 17:02:55 32.5 C 6.93 g/m*3 32.5 C 0 km/h
2245 25-06-2009 17:14:55 32.5 C 6.93 g/m*3 32.5 C 0 km/h
2246 25-06-2009 17:26:55 32.4 C 6.9 g/m*3 32.4 C 0 km/h
2247 25-06-2009 17:38:55 32.7 C 7.01 g/m*3 32.7 C 0 km/h
2248 25-06-2009 17:50:55 32.6 C 6.97 g/m*3 32.6 C 0 km/h
2249 25-06-2009 18:02:54 32.3 C 6.86 g/m*3 32.3 C 0 km/h
2250 25-06-2009 18:14:55 31.7 C 6.64 g/m*3 31.7 C 0 km/h
Sensor: Nr:Datum:Temp:Abs-Feuchte:Windchill:Wind:
Aussen-T/F 2251 25-06-2009 18:26:55 31.3 C 8.13 g/m*3 31.3 C 0 km/h
2252 25-06-2009 18:38:55 30.8 C 8.55 g/m*3 30.8 C 0 km/h
2253 25-06-2009 18:50:54 29.9 C 9.05 g/m*3 29.9 C 0 km/h
2254 25-06-2009 19:02:55 29.2 C 9 g/m*3 29.2 C 0 km/h
2255 25-06-2009 19:14:54 27.9 C 9.47 g/m*3 27.9 C 0 km/h
2256 25-06-2009 19:26:54 28 C 9.79 g/m*3 28 C 0 km/h
2257 25-06-2009 19:38:54 30 C 9.4 g/m*3 30 C 0 km/h
2258 25-06-2009 19:50:54 30.6 C 9.08 g/m*3 30.6 C 0 km/h
2259 25-06-2009 20:02:54 31 C 8.64 g/m*3 31 C 0 km/h
2260 25-06-2009 20:14:53 30.7 C 8.5 g/m*3 30.7 C 0 km/h
2261 25-06-2009 20:26:53 30.2 C 9.5 g/m*3 30.2 C 0 km/h
2262 25-06-2009 20:38:53 28.8 C 9.94 g/m*3 28.8 C 0 km/h
2263 25-06-2009 20:50:53 27.5 C 10.32 g/m*3 27.5 C 0 km/h
2264 25-06-2009 21:02:53 26.5 C 10.26 g/m*3 26.5 C 0 km/h
2265 25-06-2009 21:14:53 25.4 C 10.36 g/m*3 25.4 C 0 km/h
2266 25-06-2009 21:26:53 25.2 C 10.48 g/m*3 25.2 C 0 km/h
2267 25-06-2009 21:38:52 24.9 C 10.53 g/m*3 24.9 C 0 km/h
2268 25-06-2009 21:50:53 24.7 C 10.64 g/m*3 24.7 C 0 km/h
2269 25-06-2009 22:02:52 24.4 C 10.68 g/m*3 24.4 C 0 km/h
2270 25-06-2009 22:14:52 24.3 C 11.06 g/m*3 24.3 C 0 km/h
2271 25-06-2009 22:26:52 23.9 C 11.25 g/m*3 23.9 C 0 km/h
2272 25-06-2009 22:38:53 23.9 C 10.82 g/m*3 23.9 C 0 km/h
2273 25-06-2009 22:51:54 23.7 C 10.27 g/m*3 23.7 C 0 km/h
2274 25-06-2009 23:03:54 23.4 C 9.88 g/m*3 23.4 C 0 km/h
2275 25-06-2009 23:15:54 23.1 C 10.13 g/m*3 23.1 C 0 km/h
Sensor: Nr:Datum:Temp:Abs-Feuchte:Windchill:Wind:
Aussen-T/F 2276 25-06-2009 23:27:54 22.8 C 9.96 g/m*3 22.8 C 0 km/h
2277 25-06-2009 23:39:54 22.4 C 10.13 g/m*3 22.4 C 0 km/h
2278 25-06-2009 23:51:54 22.1 C 10.15 g/m*3 22.1 C 0 km/h
2279 26-06-2009 00:03:54 21.8 C 10.17 g/m*3 21.8 C 0 km/h
2280 26-06-2009 00:15:54 21.7 C 10.11 g/m*3 21.7 C 0 km/h
2281 26-06-2009 00:27:54 21.4 C 10.31 g/m*3 21.4 C 0 km/h
2282 26-06-2009 00:39:54 21.1 C 10.32 g/m*3 21.1 C 0 km/h
2283 26-06-2009 00:51:54 20.9 C 10.56 g/m*3 20.9 C 0 km/h
2284 26-06-2009 01:03:54 20.8 C 10.5 g/m*3 20.8 C 0 km/h
2285 26-06-2009 01:15:54 20.6 C 10.56 g/m*3 20.6 C 0 km/h
2286 26-06-2009 01:27:54 20.5 C 10.5 g/m*3 20.5 C 0 km/h
2287 26-06-2009 01:39:55 20.5 C 10.5 g/m*3 20.5 C 0 km/h
2288 26-06-2009 01:51:55 20.2 C 10.49 g/m*3 20.2 C 0 km/h
2289 26-06-2009 02:03:55 19.7 C 10.7 g/m*3 19.7 C 0 km/h
2290 26-06-2009 02:15:55 19.3 C 10.62 g/m*3 19.3 C 0 km/h
2291 26-06-2009 02:27:55 19.2 C 10.88 g/m*3 19.2 C 0 km/h
2292 26-06-2009 02:39:55 18.9 C 10.85 g/m*3 18.9 C 0 km/h
2293 26-06-2009 02:51:55 18.7 C 10.89 g/m*3 18.7 C 0 km/h
2294 26-06-2009 03:03:55 18.5 C 10.92 g/m*3 18.5 C 0 km/h
2295 26-06-2009 03:15:55 18.5 C 11.08 g/m*3 18.5 C 0 km/h
2296 26-06-2009 03:27:55 18.3 C 10.94 g/m*3 18.3 C 0 km/h
2297 26-06-2009 03:39:55 18 C 10.75 g/m*3 18 C 0 km/h
2298 26-06-2009 03:51:55 17.7 C 10.86 g/m*3 17.7 C 0 km/h
2299 26-06-2009 04:03:55 17.7 C 11.16 g/m*3 17.7 C 0 km/h
2300 26-06-2009 04:15:55 17.5 C 11.03 g/m*3 17.5 C 0 km/h
Sensor: Nr:Datum:Temp:Abs-Feuchte:Windchill:Wind:
Aussen-T/F 2301 26-06-2009 04:27:55 17.5 C 11.18 g/m*3 17.5 C 0 km/h
2302 26-06-2009 04:39:55 17.5 C 11.18 g/m*3 17.5 C 0 km/h
2303 26-06-2009 04:51:55 17.4 C 11.12 g/m*3 17.4 C 0 km/h
2304 26-06-2009 05:03:55 17.3 C 11.05 g/m*3 17.3 C 0 km/h
2305 26-06-2009 05:15:55 17.2 C 11.13 g/m*3 17.2 C 0 km/h
2306 26-06-2009 05:27:56 17.2 C 11.28 g/m*3 17.2 C 0 km/h
2307 26-06-2009 05:39:56 17.2 C 11.28 g/m*3 17.2 C 0 km/h
2308 26-06-2009 05:51:56 17.1 C 11.21 g/m*3 17.1 C 0 km/h
2309 26-06-2009 06:03:56 17.4 C 11.41 g/m*3 17.4 C 0 km/h
2310 26-06-2009 06:15:56 17.7 C 11.47 g/m*3 17.7 C 0 km/h
2311 26-06-2009 06:27:56 18.1 C 11.59 g/m*3 18.1 C 0 km/h
2312 26-06-2009 06:39:56 18.5 C 11.55 g/m*3 18.5 C 0 km/h
2313 26-06-2009 06:51:56 18.7 C 11.53 g/m*3 18.7 C 0 km/h
2314 26-06-2009 07:03:54 18.9 C 11.34 g/m*3 18.9 C 0 km/h
2315 26-06-2009 07:15:53 18.9 C 11.18 g/m*3 18.9 C 0 km/h
2316 26-06-2009 07:27:53 19.1 C 11.15 g/m*3 19.1 C 0 km/h
2317 26-06-2009 07:39:53 19.4 C 11.18 g/m*3 19.4 C 0 km/h
2318 26-06-2009 07:51:53 19.8 C 11.1 g/m*3 19.8 C 0 km/h
2319 26-06-2009 08:03:53 20 C 10.89 g/m*3 20 C 0 km/h
2320 26-06-2009 08:15:52 20 C 10.89 g/m*3 20 C 0 km/h
2321 26-06-2009 08:27:52 20 C 10.71 g/m*3 20 C 0 km/h
2322 26-06-2009 08:39:52 20.1 C 10.78 g/m*3 20.1 C 0 km/h
2323 26-06-2009 08:51:52 19.9 C 10.65 g/m*3 19.9 C 0 km/h
2324 26-06-2009 09:03:52 20.7 C 10.8 g/m*3 20.7 C 0 km/h
2325 26-06-2009 09:15:52 21.2 C 10.38 g/m*3 21.2 C 0 km/h
Sensor: Nr:Datum:Temp:Abs-Feuchte:Windchill:Wind:
Aussen-T/F 2326 26-06-2009 09:27:52 21.6 C 10.81 g/m*3 21.6 C 0 km/h
2327 26-06-2009 09:39:52 22.2 C 10.41 g/m*3 22.2 C 0 km/h
2328 26-06-2009 09:51:52 22.3 C 10.66 g/m*3 22.3 C 0 km/h
2329 26-06-2009 10:03:51 22.5 C 10.79 g/m*3 22.5 C 0 km/h
2330 26-06-2009 10:15:52 21.6 C 10.62 g/m*3 21.6 C 0 km/h
2331 26-06-2009 10:27:52 22.1 C 10.74 g/m*3 22.1 C 0 km/h
2332 26-06-2009 10:39:51 22.9 C 11.04 g/m*3 22.9 C 0 km/h
2333 26-06-2009 10:51:51 24 C 10.66 g/m*3 24 C 0 km/h
2334 26-06-2009 11:03:51 22.6 C 10.65 g/m*3 22.6 C 0 km/h
2335 26-06-2009 11:15:51 23.8 C 11.19 g/m*3 23.8 C 0 km/h
2336 26-06-2009 11:27:51 24.6 C 10.8 g/m*3 24.6 C 0 km/h
2337 26-06-2009 11:39:51 24.9 C 10.53 g/m*3 24.9 C 0 km/h
2338 26-06-2009 11:51:51 26.6 C 10.32 g/m*3 26.6 C 0 km/h
2339 26-06-2009 12:03:51 27.9 C 10.01 g/m*3 27.9 C 0 km/h
2340 26-06-2009 12:15:50 28.3 C 9.95 g/m*3 28.3 C 0 km/h
2341 26-06-2009 12:27:50 28 C 9.52 g/m*3 28 C 0 km/h
2342 26-06-2009 12:39:50 29.2 C 8.71 g/m*3 29.2 C 0 km/h
2343 26-06-2009 12:51:50 27.7 C 9.63 g/m*3 27.7 C 0 km/h
2344 26-06-2009 13:03:50 28 C 9.52 g/m*3 28 C 0 km/h
2345 26-06-2009 13:15:49 30.9 C 8.28 g/m*3 30.9 C 0 km/h
2346 26-06-2009 13:27:49 31.9 C 7.39 g/m*3 31.9 C 0 km/h
2347 26-06-2009 13:39:50 31.8 C 7.01 g/m*3 31.8 C 0 km/h
2348 26-06-2009 13:51:49 31.9 C 7.05 g/m*3 31.9 C 0 km/h
2349 26-06-2009 14:03:49 31.8 C 7.35 g/m*3 31.8 C 0 km/h
2350 26-06-2009 14:15:50 30.4 C 8.68 g/m*3 30.4 C 0 km/h
Sensor: Nr:Datum:Temp:Abs-Feuchte:Windchill:Wind:
Aussen-T/F 2351 26-06-2009 14:27:50 30.7 C 8.19 g/m*3 30.7 C 0 km/h
2352 26-06-2009 14:39:49 30.3 C 8.94 g/m*3 30.3 C 0 km/h
2353 26-06-2009 14:51:49 30.3 C 8.63 g/m*3 30.3 C 0 km/h
2354 26-06-2009 15:03:49 30.2 C 8.89 g/m*3 30.2 C 0 km/h
2355 26-06-2009 15:15:49 30 C 8.79 g/m*3 30 C 0 km/h
2356 26-06-2009 15:27:49 30.6 C 8.46 g/m*3 30.6 C 0 km/h
2357 26-06-2009 15:39:48 31 C 8.96 g/m*3 31 C 0 km/h
2358 26-06-2009 15:51:49 31.9 C 8.06 g/m*3 31.9 C 0 km/h
2359 26-06-2009 16:03:48 31.7 C 7.64 g/m*3 31.7 C 0 km/h
2360 26-06-2009 16:15:48 31.6 C 7.27 g/m*3 31.6 C 0 km/h
2361 26-06-2009 16:27:48 32 C 7.43 g/m*3 32 C 0 km/h
2362 26-06-2009 16:39:48 32.3 C 6.86 g/m*3 32.3 C 0 km/h
2363 26-06-2009 16:51:48 32.7 C 7.01 g/m*3 32.7 C 0 km/h
2364 26-06-2009 17:03:48 33 C 7.12 g/m*3 33 C 0 km/h
2365 26-06-2009 17:15:47 32.5 C 6.93 g/m*3 32.5 C 0 km/h
2366 26-06-2009 17:27:47 32.9 C 7.08 g/m*3 32.9 C 0 km/h
2367 26-06-2009 17:39:48 33.3 C 7.23 g/m*3 33.3 C 0 km/h
2368 26-06-2009 17:51:47 32.7 C 7.01 g/m*3 32.7 C 0 km/h
2369 26-06-2009 18:03:47 32.8 C 7.04 g/m*3 32.8 C 0 km/h
2370 26-06-2009 18:15:47 32.6 C 6.97 g/m*3 32.6 C 0 km/h
2371 26-06-2009 18:27:47 31.9 C 6.72 g/m*3 31.9 C 0 km/h
2372 26-06-2009 18:39:47 32.6 C 6.97 g/m*3 32.6 C 0 km/h
2373 26-06-2009 18:51:46 32.8 C 7.04 g/m*3 32.8 C 0 km/h
2374 26-06-2009 19:03:46 33.2 C 7.2 g/m*3 33.2 C 0 km/h
2375 26-06-2009 19:15:47 31.9 C 7.39 g/m*3 31.9 C 0 km/h
Sensor: Nr:Datum:Temp:Abs-Feuchte:Windchill:Wind:
Aussen-T/F 2376 26-06-2009 19:27:47 30.5 C 8.41 g/m*3 30.5 C 0 km/h
2377 26-06-2009 19:39:46 29.2 C 8.42 g/m*3 29.2 C 0 km/h
2378 26-06-2009 19:51:46 28 C 8.7 g/m*3 28 C 0 km/h
2379 26-06-2009 20:03:46 27 C 9.01 g/m*3 27 C 0 km/h
2380 26-06-2009 20:15:46 26.5 C 9.26 g/m*3 26.5 C 0 km/h
2381 26-06-2009 20:27:46 25.7 C 9.58 g/m*3 25.7 C 0 km/h
2382 26-06-2009 20:39:45 25.5 C 9.71 g/m*3 25.5 C 0 km/h
2383 26-06-2009 20:51:46 25.2 C 9.78 g/m*3 25.2 C 0 km/h
2384 26-06-2009 21:03:45 24.7 C 9.96 g/m*3 24.7 C 0 km/h
2385 26-06-2009 21:15:45 24.4 C 10.01 g/m*3 24.4 C 0 km/h
2386 26-06-2009 21:27:46 24.2 C 9.9 g/m*3 24.2 C 0 km/h
2387 26-06-2009 21:39:45 23.9 C 10.17 g/m*3 23.9 C 0 km/h
2388 26-06-2009 21:51:45 23.5 C 10.15 g/m*3 23.5 C 0 km/h
2389 26-06-2009 22:03:44 23.2 C 10.39 g/m*3 23.2 C 0 km/h
2390 26-06-2009 22:15:45 22.9 C 10.42 g/m*3 22.9 C 0 km/h
2391 26-06-2009 22:27:45 22.6 C 10.65 g/m*3 22.6 C 0 km/h
2392 26-06-2009 22:40:45 22.5 C 10.99 g/m*3 22.5 C 0 km/h
2393 26-06-2009 22:52:45 22.5 C 11.19 g/m*3 22.5 C 0 km/h
2394 26-06-2009 23:04:45 22.4 C 11.12 g/m*3 22.4 C 0 km/h
2395 26-06-2009 23:16:45 22.2 C 11.19 g/m*3 22.2 C 0 km/h
2396 26-06-2009 23:28:45 22 C 11.06 g/m*3 22 C 0 km/h
2397 26-06-2009 23:40:45 21.9 C 11.39 g/m*3 21.9 C 0 km/h
2398 26-06-2009 23:52:45 21.5 C 11.13 g/m*3 21.5 C 0 km/h
2399 27-06-2009 00:04:45 21.5 C 11.5 g/m*3 21.5 C 0 km/h
2400 27-06-2009 00:16:45 21.4 C 11.44 g/m*3 21.4 C 0 km/h
Sensor: Nr:Datum:Temp:Abs-Feuchte:Windchill:Wind:
Aussen-T/F 2401 27-06-2009 00:28:45 20.9 C 11.66 g/m*3 20.9 C 0 km/h
2402 27-06-2009 00:40:45 21 C 11.54 g/m*3 21 C 0 km/h
2403 27-06-2009 00:52:46 20.9 C 11.66 g/m*3 20.9 C 0 km/h
2404 27-06-2009 01:04:46 21.2 C 11.86 g/m*3 21.2 C 0 km/h
2405 27-06-2009 01:16:46 21.2 C 11.86 g/m*3 21.2 C 0 km/h
2406 27-06-2009 01:28:46 21 C 11.72 g/m*3 21 C 0 km/h
2407 27-06-2009 01:40:46 20.5 C 11.92 g/m*3 20.5 C 0 km/h
2408 27-06-2009 01:52:46 20.2 C 11.71 g/m*3 20.2 C 0 km/h
2409 27-06-2009 02:04:46 20.1 C 11.82 g/m*3 20.1 C 0 km/h
2410 27-06-2009 02:16:46 20.1 C 11.82 g/m*3 20.1 C 0 km/h
2411 27-06-2009 02:28:46 19.9 C 11.85 g/m*3 19.9 C 0 km/h
2412 27-06-2009 02:40:46 19.6 C 11.65 g/m*3 19.6 C 0 km/h
2413 27-06-2009 02:52:46 19.5 C 11.75 g/m*3 19.5 C 0 km/h
2414 27-06-2009 03:04:46 19.5 C 11.58 g/m*3 19.5 C 0 km/h
2415 27-06-2009 03:16:46 19.3 C 11.61 g/m*3 19.3 C 0 km/h
2416 27-06-2009 03:28:46 19 C 11.41 g/m*3 19 C 0 km/h
2417 27-06-2009 03:40:46 18.9 C 11.66 g/m*3 18.9 C 0 km/h
2418 27-06-2009 03:52:46 18.8 C 11.76 g/m*3 18.8 C 0 km/h
2419 27-06-2009 04:04:46 18.5 C 11.71 g/m*3 18.5 C 0 km/h
2420 27-06-2009 04:16:46 18.4 C 11.64 g/m*3 18.4 C 0 km/h
2421 27-06-2009 04:28:46 18.3 C 11.73 g/m*3 18.3 C 0 km/h
2422 27-06-2009 04:40:47 18.1 C 11.74 g/m*3 18.1 C 0 km/h
2423 27-06-2009 04:52:47 17.8 C 11.84 g/m*3 17.8 C 0 km/h
2424 27-06-2009 05:04:47 17.8 C 11.84 g/m*3 17.8 C 0 km/h
2425 27-06-2009 05:16:47 17.7 C 11.92 g/m*3 17.7 C 0 km/h
Sensor: Nr:Datum:Temp:Abs-Feuchte:Windchill:Wind:
Aussen-T/F 2426 27-06-2009 05:28:47 17.9 C 12.06 g/m*3 17.9 C 0 km/h
2427 27-06-2009 05:40:47 17.9 C 11.91 g/m*3 17.9 C 0 km/h
2428 27-06-2009 05:52:47 18 C 11.83 g/m*3 18 C 0 km/h
2429 27-06-2009 06:04:47 18.1 C 11.9 g/m*3 18.1 C 0 km/h
2430 27-06-2009 06:16:47 18 C 11.83 g/m*3 18 C 0 km/h
2431 27-06-2009 06:28:47 18.2 C 11.97 g/m*3 18.2 C 0 km/h
2432 27-06-2009 06:40:47 18.2 C 11.97 g/m*3 18.2 C 0 km/h
2433 27-06-2009 06:52:47 18.4 C 12.11 g/m*3 18.4 C 0 km/h
2434 27-06-2009 07:04:47 18.7 C 12.17 g/m*3 18.7 C 0 km/h
2435 27-06-2009 07:16:47 18.7 C 12.01 g/m*3 18.7 C 0 km/h
2436 27-06-2009 07:28:47 18.3 C 11.88 g/m*3 18.3 C 0 km/h
2437 27-06-2009 07:40:47 18.5 C 12.18 g/m*3 18.5 C 0 km/h
2438 27-06-2009 07:52:47 18.7 C 12.17 g/m*3 18.7 C 0 km/h
2439 27-06-2009 08:04:47 19 C 12.06 g/m*3 19 C 0 km/h
2440 27-06-2009 08:16:47 19.7 C 12.4 g/m*3 19.7 C 0 km/h
2441 27-06-2009 08:28:48 20.3 C 11.96 g/m*3 20.3 C 0 km/h
2442 27-06-2009 08:40:48 20.5 C 12.28 g/m*3 20.5 C 0 km/h
2443 27-06-2009 08:52:48 21.2 C 12.23 g/m*3 21.2 C 0 km/h
2444 27-06-2009 09:04:48 21.5 C 12.07 g/m*3 21.5 C 0 km/h
2445 27-06-2009 09:16:44 21.6 C 12.14 g/m*3 21.6 C 0 km/h
2446 27-06-2009 09:28:44 22.4 C 12.31 g/m*3 22.4 C 0 km/h
2447 27-06-2009 09:40:44 23.1 C 11.99 g/m*3 23.1 C 0 km/h
2448 27-06-2009 09:52:44 23.5 C 11.84 g/m*3 23.5 C 0 km/h
2449 27-06-2009 10:04:44 23.7 C 11.55 g/m*3 23.7 C 0 km/h
2450 27-06-2009 10:16:44 24.1 C 11.6 g/m*3 24.1 C 0 km/h
Sensor: Nr:Datum:Temp:Abs-Feuchte:Windchill:Wind:
Aussen-T/F 2451 27-06-2009 10:28:44 24.5 C 11.41 g/m*3 24.5 C 0 km/h
2452 27-06-2009 10:40:43 24.5 C 11.19 g/m*3 24.5 C 0 km/h
2453 27-06-2009 10:52:44 24.6 C 11.7 g/m*3 24.6 C 0 km/h
2454 27-06-2009 11:04:43 25.3 C 11.47 g/m*3 25.3 C 0 km/h
2455 27-06-2009 11:16:43 26.2 C 11.08 g/m*3 26.2 C 0 km/h
2456 27-06-2009 11:28:43 26.1 C 11.02 g/m*3 26.1 C 0 km/h
2457 27-06-2009 11:40:43 25.9 C 10.89 g/m*3 25.9 C 0 km/h
2458 27-06-2009 11:52:43 28 C 10.88 g/m*3 28 C 0 km/h
2459 27-06-2009 12:04:43 28.4 C 10.56 g/m*3 28.4 C 0 km/h
2460 27-06-2009 12:16:42 26 C 10.47 g/m*3 26 C 0 km/h
2461 27-06-2009 12:28:42 25.4 C 10.83 g/m*3 25.4 C 0 km/h
2462 27-06-2009 12:40:43 26.9 C 11.01 g/m*3 26.9 C 0 km/h
2463 27-06-2009 12:52:42 28.1 C 10.12 g/m*3 28.1 C 0 km/h
2464 27-06-2009 13:04:43 28.9 C 10.86 g/m*3 28.9 C 0 km/h
2465 27-06-2009 13:16:42 27.4 C 9.47 g/m*3 27.4 C 0 km/h
2466 27-06-2009 13:28:42 28.5 C 9.78 g/m*3 28.5 C 0 km/h
2467 27-06-2009 13:40:42 29.9 C 9.95 g/m*3 29.9 C 0 km/h
2468 27-06-2009 13:52:42 28.3 C 9.95 g/m*3 28.3 C 0 km/h
2469 27-06-2009 14:04:42 27 C 10.29 g/m*3 27 C 0 km/h
2470 27-06-2009 14:16:31 26.4 C 10.7 g/m*3 26.4 C 0 km/h
2471 27-06-2009 14:28:31 23.4 C 13.04 g/m*3 23.4 C 0 km/h
2472 27-06-2009 14:40:32 21.8 C 14.2 g/m*3 21.8 C 0 km/h
2473 27-06-2009 14:52:32 21.3 C 14.54 g/m*3 21.3 C 0 km/h
2474 27-06-2009 15:04:41 21.2 C 14.64 g/m*3 21.2 C 0 km/h
2475 27-06-2009 15:16:41 21.4 C 15.19 g/m*3 21.4 C 0 km/h
Sensor: Nr:Datum:Temp:Abs-Feuchte:Windchill:Wind:
Aussen-T/F 2476 27-06-2009 15:28:41 21.2 C 15.01 g/m*3 21.2 C 0 km/h
2477 27-06-2009 15:40:41 21.7 C 15.64 g/m*3 21.7 C 0 km/h
2478 27-06-2009 15:52:40 23 C 16.65 g/m*3 23 C 0 km/h
2479 27-06-2009 16:04:40 24.4 C 16.69 g/m*3 24.4 C 0 km/h
2480 27-06-2009 16:16:41 26.8 C 14.76 g/m*3 26.8 C 0 km/h
2481 27-06-2009 16:28:41 27.6 C 12.77 g/m*3 27.6 C 0 km/h
2482 27-06-2009 16:40:40 26.1 C 12.98 g/m*3 26.1 C 0 km/h
2483 27-06-2009 16:52:01 25.5 C 13.97 g/m*3 25.5 C 0 km/h
2484 27-06-2009 17:04:01 25.4 C 14.36 g/m*3 25.4 C 0 km/h
2485 27-06-2009 17:16:01 25.6 C 14.05 g/m*3 25.6 C 0 km/h
2486 27-06-2009 17:28:01 25.4 C 13.89 g/m*3 25.4 C 0 km/h
2487 27-06-2009 17:40:02 25.4 C 13.89 g/m*3 25.4 C 0 km/h
2488 27-06-2009 17:52:01 25 C 13.35 g/m*3 25 C 0 km/h
2489 27-06-2009 18:04:01 23.9 C 13.63 g/m*3 23.9 C 0 km/h
2490 27-06-2009 18:16:01 23.5 C 13.53 g/m*3 23.5 C 0 km/h
2491 27-06-2009 18:28:01 23.5 C 13.32 g/m*3 23.5 C 0 km/h
2492 27-06-2009 18:40:01 23.6 C 13.19 g/m*3 23.6 C 0 km/h
2493 27-06-2009 18:52:00 23.6 C 13.4 g/m*3 23.6 C 0 km/h
2494 27-06-2009 19:04:01 23.6 C 13.4 g/m*3 23.6 C 0 km/h
2495 27-06-2009 19:16:00 23.8 C 13.55 g/m*3 23.8 C 0 km/h
2496 27-06-2009 19:28:00 23.8 C 13.55 g/m*3 23.8 C 0 km/h
2497 27-06-2009 19:40:00 24 C 13.49 g/m*3 24 C 0 km/h
2498 27-06-2009 19:52:00 23.7 C 13.05 g/m*3 23.7 C 0 km/h
2499 27-06-2009 20:04:00 23.7 C 13.05 g/m*3 23.7 C 0 km/h
2500 27-06-2009 20:16:00 23.2 C 12.68 g/m*3 23.2 C 0 km/h
Sensor: Nr:Datum:Temp:Abs-Feuchte:Windchill:Wind:
Aussen-T/F 2501 27-06-2009 20:28:00 22.9 C 12.67 g/m*3 22.9 C 0 km/h
2502 27-06-2009 20:40:59 22.7 C 12.53 g/m*3 22.7 C 0 km/h
2503 27-06-2009 20:52:00 22.6 C 12.86 g/m*3 22.6 C 0 km/h
2504 27-06-2009 21:04:59 22.5 C 12.78 g/m*3 22.5 C 0 km/h
2505 27-06-2009 21:16:00 22.3 C 12.83 g/m*3 22.3 C 0 km/h
2506 27-06-2009 21:28:00 22 C 12.81 g/m*3 22 C 0 km/h
2507 27-06-2009 21:40:59 21.6 C 12.9 g/m*3 21.6 C 0 km/h
2508 27-06-2009 21:52:58 21.2 C 12.6 g/m*3 21.2 C 0 km/h
2509 27-06-2009 22:04:59 20.7 C 12.78 g/m*3 20.7 C 0 km/h
2510 27-06-2009 22:17:00 20.3 C 12.84 g/m*3 20.3 C 0 km/h
2511 27-06-2009 22:29:00 20.2 C 12.76 g/m*3 20.2 C 0 km/h
2512 27-06-2009 22:41:00 20 C 12.44 g/m*3 20 C 0 km/h
2513 27-06-2009 22:53:00 20.1 C 12.52 g/m*3 20.1 C 0 km/h
2514 27-06-2009 23:05:00 19.8 C 12.47 g/m*3 19.8 C 0 km/h
2515 27-06-2009 23:17:00 19.7 C 12.57 g/m*3 19.7 C 0 km/h
2516 27-06-2009 23:29:00 19.7 C 12.57 g/m*3 19.7 C 0 km/h
2517 27-06-2009 23:41:00 19.7 C 12.74 g/m*3 19.7 C 0 km/h
2518 27-06-2009 23:53:00 19.8 C 12.98 g/m*3 19.8 C 0 km/h
2519 28-06-2009 00:05:00 19.8 C 13.15 g/m*3 19.8 C 0 km/h
2520 28-06-2009 00:17:00 19.6 C 13 g/m*3 19.6 C 0 km/h
2521 28-06-2009 00:29:00 19.8 C 13.32 g/m*3 19.8 C 0 km/h
2522 28-06-2009 00:41:00 19.7 C 13.08 g/m*3 19.7 C 0 km/h
2523 28-06-2009 00:53:00 19.6 C 13 g/m*3 19.6 C 0 km/h
2524 28-06-2009 01:05:00 19.7 C 13.25 g/m*3 19.7 C 0 km/h
2525 28-06-2009 01:17:01 19.9 C 13.23 g/m*3 19.9 C 0 km/h
Sensor: Nr:Datum:Temp:Abs-Feuchte:Windchill:Wind:
Aussen-T/F 2526 28-06-2009 01:29:01 19.8 C 13.15 g/m*3 19.8 C 0 km/h
2527 28-06-2009 01:41:01 19.6 C 13 g/m*3 19.6 C 0 km/h
2528 28-06-2009 01:53:01 19.5 C 12.92 g/m*3 19.5 C 0 km/h
2529 28-06-2009 02:05:01 19.5 C 12.92 g/m*3 19.5 C 0 km/h
2530 28-06-2009 02:17:01 19.5 C 12.92 g/m*3 19.5 C 0 km/h
2531 28-06-2009 02:29:01 19.5 C 12.92 g/m*3 19.5 C 0 km/h
2532 28-06-2009 02:41:01 19.5 C 12.92 g/m*3 19.5 C 0 km/h
2533 28-06-2009 02:53:01 19.3 C 12.77 g/m*3 19.3 C 0 km/h
2534 28-06-2009 03:05:01 19.3 C 12.94 g/m*3 19.3 C 0 km/h
2535 28-06-2009 03:17:01 19.3 C 12.94 g/m*3 19.3 C 0 km/h
2536 28-06-2009 03:29:01 19.4 C 13.01 g/m*3 19.4 C 0 km/h
2537 28-06-2009 03:41:01 19.4 C 13.01 g/m*3 19.4 C 0 km/h
2538 28-06-2009 03:53:01 19.4 C 13.01 g/m*3 19.4 C 0 km/h
2539 28-06-2009 04:05:01 19.3 C 12.94 g/m*3 19.3 C 0 km/h
2540 28-06-2009 04:17:01 19.4 C 13.01 g/m*3 19.4 C 0 km/h
2541 28-06-2009 04:29:01 19.3 C 12.94 g/m*3 19.3 C 0 km/h
2542 28-06-2009 04:41:01 19.3 C 12.94 g/m*3 19.3 C 0 km/h
2543 28-06-2009 04:53:01 19.1 C 12.95 g/m*3 19.1 C 0 km/h
2544 28-06-2009 05:05:02 19.1 C 12.95 g/m*3 19.1 C 0 km/h
2545 28-06-2009 05:17:02 19.1 C 12.95 g/m*3 19.1 C 0 km/h
2546 28-06-2009 05:29:02 19 C 12.87 g/m*3 19 C 0 km/h
2547 28-06-2009 05:41:02 19.1 C 12.95 g/m*3 19.1 C 0 km/h
2548 28-06-2009 05:53:02 19.1 C 12.95 g/m*3 19.1 C 0 km/h
2549 28-06-2009 06:05:02 19.1 C 12.95 g/m*3 19.1 C 0 km/h
2550 28-06-2009 06:17:02 19.1 C 12.95 g/m*3 19.1 C 0 km/h
Sensor: Nr:Datum:Temp:Abs-Feuchte:Windchill:Wind:
Aussen-T/F 2551 28-06-2009 06:29:02 19.1 C 13.11 g/m*3 19.1 C 0 km/h
2552 28-06-2009 06:41:02 18.9 C 13.28 g/m*3 18.9 C 0 km/h
2553 28-06-2009 06:53:02 18.7 C 13.13 g/m*3 18.7 C 0 km/h
2554 28-06-2009 07:05:02 18.7 C 13.29 g/m*3 18.7 C 0 km/h
2555 28-06-2009 07:17:02 19.1 C 13.44 g/m*3 19.1 C 0 km/h
2556 28-06-2009 07:29:02 19.3 C 13.27 g/m*3 19.3 C 0 km/h
2557 28-06-2009 07:41:02 19.5 C 13.26 g/m*3 19.5 C 0 km/h
2558 28-06-2009 07:53:00 20 C 13.31 g/m*3 20 C 0 km/h
2559 28-06-2009 08:05:00 20.1 C 12.86 g/m*3 20.1 C 0 km/h
2560 28-06-2009 08:17:59 20.3 C 13.01 g/m*3 20.3 C 0 km/h
2561 28-06-2009 08:29:59 20.8 C 13.04 g/m*3 20.8 C 0 km/h
2562 28-06-2009 08:41:59 21.3 C 12.49 g/m*3 21.3 C 0 km/h
2563 28-06-2009 08:53:59 21.6 C 12.33 g/m*3 21.6 C 0 km/h
2564 28-06-2009 09:05:00 22.2 C 11.98 g/m*3 22.2 C 0 km/h
2565 28-06-2009 09:17:59 22.3 C 11.65 g/m*3 22.3 C 0 km/h
2566 28-06-2009 09:29:59 22.5 C 11.98 g/m*3 22.5 C 0 km/h
2567 28-06-2009 09:41:59 23.2 C 11.85 g/m*3 23.2 C 0 km/h
2568 28-06-2009 09:53:58 23.5 C 11.84 g/m*3 23.5 C 0 km/h
2569 28-06-2009 10:05:59 23.7 C 11.34 g/m*3 23.7 C 0 km/h
2570 28-06-2009 10:17:58 24.1 C 10.94 g/m*3 24.1 C 0 km/h
2571 28-06-2009 10:29:58 25.1 C 11.11 g/m*3 25.1 C 0 km/h
2572 28-06-2009 10:41:58 25.5 C 9.71 g/m*3 25.5 C 0 km/h
2573 28-06-2009 10:53:58 25.2 C 10.01 g/m*3 25.2 C 0 km/h
2574 28-06-2009 11:05:58 26.4 C 10.21 g/m*3 26.4 C 0 km/h
2575 28-06-2009 11:17:58 27.1 C 9.83 g/m*3 27.1 C 0 km/h
Sensor: Nr:Datum:Temp:Abs-Feuchte:Windchill:Wind:
Aussen-T/F 2576 28-06-2009 11:29:58 27.2 C 9.89 g/m*3 27.2 C 0 km/h
2577 28-06-2009 11:41:57 27.4 C 9.74 g/m*3 27.4 C 0 km/h
2578 28-06-2009 11:53:58 27.5 C 9.52 g/m*3 27.5 C 0 km/h
2579 28-06-2009 12:05:57 27.1 C 9.58 g/m*3 27.1 C 0 km/h
2580 28-06-2009 12:17:57 26.9 C 9.98 g/m*3 26.9 C 0 km/h
2581 28-06-2009 12:29:57 28.3 C 9.95 g/m*3 28.3 C 0 km/h
2582 28-06-2009 12:41:57 29.8 C 9.6 g/m*3 29.8 C 0 km/h
2583 28-06-2009 12:53:57 30.1 C 9.76 g/m*3 30.1 C 0 km/h
2584 28-06-2009 13:05:56 30 C 9.4 g/m*3 30 C 0 km/h
2585 28-06-2009 13:17:57 29.4 C 9.39 g/m*3 29.4 C 0 km/h
2586 28-06-2009 13:29:57 29.3 C 9.63 g/m*3 29.3 C 0 km/h
2587 28-06-2009 13:41:57 30.3 C 9.25 g/m*3 30.3 C 0 km/h
2588 28-06-2009 13:53:56 30 C 9.1 g/m*3 30 C 0 km/h
2589 28-06-2009 14:05:57 30.4 C 8.99 g/m*3 30.4 C 0 km/h
2590 28-06-2009 14:17:56 30.4 C 8.37 g/m*3 30.4 C 0 km/h
2591 28-06-2009 14:29:56 30.4 C 8.68 g/m*3 30.4 C 0 km/h
2592 28-06-2009 14:41:56 30.5 C 9.03 g/m*3 30.5 C 0 km/h
2593 28-06-2009 14:53:56 30.6 C 8.46 g/m*3 30.6 C 0 km/h
2594 28-06-2009 15:05:56 30.7 C 8.82 g/m*3 30.7 C 0 km/h
2595 28-06-2009 15:17:55 31 C 8.32 g/m*3 31 C 0 km/h
2596 28-06-2009 15:29:55 31.2 C 8.09 g/m*3 31.2 C 0 km/h
2597 28-06-2009 15:41:55 31.5 C 8.22 g/m*3 31.5 C 0 km/h
2598 28-06-2009 15:53:55 32.1 C 7.47 g/m*3 32.1 C 0 km/h
2599 28-06-2009 16:05:55 32.3 C 7.55 g/m*3 32.3 C 0 km/h
2600 28-06-2009 16:17:55 31.9 C 8.06 g/m*3 31.9 C 0 km/h
Sensor: Nr:Datum:Temp:Abs-Feuchte:Windchill:Wind:
Aussen-T/F 2601 28-06-2009 16:29:55 32 C 7.43 g/m*3 32 C 0 km/h
2602 28-06-2009 16:41:55 32.1 C 7.13 g/m*3 32.1 C 0 km/h
2603 28-06-2009 16:53:54 31.7 C 7.64 g/m*3 31.7 C 0 km/h
2604 28-06-2009 17:05:54 31 C 7.68 g/m*3 31 C 0 km/h
2605 28-06-2009 17:17:55 31.9 C 7.72 g/m*3 31.9 C 0 km/h
2606 28-06-2009 17:29:55 31.5 C 6.9 g/m*3 31.5 C 0 km/h
2607 28-06-2009 17:41:54 31.8 C 7.01 g/m*3 31.8 C 0 km/h
2608 28-06-2009 17:53:54 31.5 C 6.57 g/m*3 31.5 C 0 km/h
2609 28-06-2009 18:05:54 31.9 C 7.05 g/m*3 31.9 C 0 km/h
2610 28-06-2009 18:17:54 32.6 C 6.97 g/m*3 32.6 C 0 km/h
2611 28-06-2009 18:29:55 32.7 C 7.36 g/m*3 32.7 C 0 km/h
2612 28-06-2009 18:41:53 32.7 C 7.01 g/m*3 32.7 C 0 km/h
2613 28-06-2009 18:53:54 32.7 C 7.01 g/m*3 32.7 C 0 km/h
2614 28-06-2009 19:05:53 32.3 C 6.86 g/m*3 32.3 C 0 km/h
2615 28-06-2009 19:17:53 30.9 C 7.64 g/m*3 30.9 C 0 km/h
2616 28-06-2009 19:29:53 30.9 C 7.96 g/m*3 30.9 C 0 km/h
2617 28-06-2009 19:41:53 31 C 8 g/m*3 31 C 0 km/h
2618 28-06-2009 19:53:53 31 C 8 g/m*3 31 C 0 km/h
2619 28-06-2009 20:05:53 30.9 C 8.28 g/m*3 30.9 C 0 km/h
2620 28-06-2009 20:17:52 30.6 C 8.77 g/m*3 30.6 C 0 km/h
2621 28-06-2009 20:29:52 30.1 C 9.45 g/m*3 30.1 C 0 km/h
2622 28-06-2009 20:41:53 29.5 C 9.74 g/m*3 29.5 C 0 km/h
2623 28-06-2009 20:53:52 28.5 C 9.78 g/m*3 28.5 C 0 km/h
2624 28-06-2009 21:05:52 26.7 C 9.87 g/m*3 26.7 C 0 km/h
2625 28-06-2009 21:17:52 26.4 C 9.96 g/m*3 26.4 C 0 km/h
Sensor: Nr:Datum:Temp:Abs-Feuchte:Windchill:Wind:
Aussen-T/F 2626 28-06-2009 21:29:52 25.9 C 10.17 g/m*3 25.9 C 0 km/h
2627 28-06-2009 21:41:52 25.4 C 9.89 g/m*3 25.4 C 0 km/h
2628 28-06-2009 21:53:51 25.3 C 10.3 g/m*3 25.3 C 0 km/h
2629 28-06-2009 22:05:52 25 C 10.59 g/m*3 25 C 0 km/h
2630 28-06-2009 22:17:52 24.6 C 10.8 g/m*3 24.6 C 0 km/h
2631 28-06-2009 22:29:52 24.4 C 10.9 g/m*3 24.4 C 0 km/h
2632 28-06-2009 22:42:52 24.1 C 10.94 g/m*3 24.1 C 0 km/h
2633 28-06-2009 22:54:52 23.9 C 11.25 g/m*3 23.9 C 0 km/h
2634 28-06-2009 23:06:52 23.7 C 11.34 g/m*3 23.7 C 0 km/h
2635 28-06-2009 23:18:52 23.5 C 11.42 g/m*3 23.5 C 0 km/h
2636 28-06-2009 23:30:52 23.2 C 11.43 g/m*3 23.2 C 0 km/h
2637 28-06-2009 23:42:52 23 C 11.3 g/m*3 23 C 0 km/h
2638 28-06-2009 23:54:52 22.8 C 11.38 g/m*3 22.8 C 0 km/h
2639 29-06-2009 00:06:52 22.5 C 11.58 g/m*3 22.5 C 0 km/h
2640 29-06-2009 00:18:52 22.1 C 11.52 g/m*3 22.1 C 0 km/h
2641 29-06-2009 00:30:52 21.9 C 11.58 g/m*3 21.9 C 0 km/h
2642 29-06-2009 00:42:52 21.8 C 11.7 g/m*3 21.8 C 0 km/h
2643 29-06-2009 00:54:52 21.6 C 11.57 g/m*3 21.6 C 0 km/h
2644 29-06-2009 01:06:52 21.5 C 11.69 g/m*3 21.5 C 0 km/h
2645 29-06-2009 01:18:52 21.2 C 11.49 g/m*3 21.2 C 0 km/h
2646 29-06-2009 01:30:53 20.9 C 11.66 g/m*3 20.9 C 0 km/h
2647 29-06-2009 01:42:53 20.8 C 11.77 g/m*3 20.8 C 0 km/h
2648 29-06-2009 01:54:53 20.5 C 11.74 g/m*3 20.5 C 0 km/h
2649 29-06-2009 02:06:53 20.4 C 11.85 g/m*3 20.4 C 0 km/h
2650 29-06-2009 02:18:53 20.2 C 11.89 g/m*3 20.2 C 0 km/h
Sensor: Nr:Datum:Temp:Abs-Feuchte:Windchill:Wind:
Aussen-T/F 2651 29-06-2009 02:30:53 20.1 C 11.82 g/m*3 20.1 C 0 km/h
2652 29-06-2009 02:42:53 20.2 C 12.06 g/m*3 20.2 C 0 km/h
2653 29-06-2009 02:54:53 20.4 C 12.03 g/m*3 20.4 C 0 km/h
2654 29-06-2009 03:06:53 20 C 11.92 g/m*3 20 C 0 km/h
2655 29-06-2009 03:18:53 19.8 C 11.96 g/m*3 19.8 C 0 km/h
2656 29-06-2009 03:30:53 19.6 C 11.99 g/m*3 19.6 C 0 km/h
2657 29-06-2009 03:42:53 19.5 C 11.92 g/m*3 19.5 C 0 km/h
2658 29-06-2009 03:54:53 19.3 C 11.78 g/m*3 19.3 C 0 km/h
2659 29-06-2009 04:06:53 19.3 C 11.94 g/m*3 19.3 C 0 km/h
2660 29-06-2009 04:18:53 19.1 C 11.8 g/m*3 19.1 C 0 km/h
2661 29-06-2009 04:30:53 19 C 11.73 g/m*3 19 C 0 km/h
2662 29-06-2009 04:42:53 18.8 C 11.92 g/m*3 18.8 C 0 km/h
2663 29-06-2009 04:54:53 18.7 C 12.01 g/m*3 18.7 C 0 km/h
2664 29-06-2009 05:06:53 18.5 C 12.02 g/m*3 18.5 C 0 km/h
2665 29-06-2009 05:18:54 18.4 C 11.95 g/m*3 18.4 C 0 km/h
2666 29-06-2009 05:30:54 18.4 C 11.95 g/m*3 18.4 C 0 km/h
2667 29-06-2009 05:42:54 18.3 C 12.04 g/m*3 18.3 C 0 km/h
2668 29-06-2009 05:54:54 18.3 C 12.04 g/m*3 18.3 C 0 km/h
2669 29-06-2009 06:06:54 18.3 C 12.04 g/m*3 18.3 C 0 km/h
2670 29-06-2009 06:18:54 18.2 C 12.12 g/m*3 18.2 C 0 km/h
2671 29-06-2009 06:30:54 18.1 C 12.21 g/m*3 18.1 C 0 km/h
2672 29-06-2009 06:42:54 18 C 12.29 g/m*3 18 C 0 km/h
2673 29-06-2009 06:54:54 18 C 12.29 g/m*3 18 C 0 km/h
2674 29-06-2009 07:06:51 18.3 C 12.51 g/m*3 18.3 C 0 km/h
2675 29-06-2009 07:18:52 18.3 C 12.35 g/m*3 18.3 C 0 km/h
Sensor: Nr:Datum:Temp:Abs-Feuchte:Windchill:Wind:
Aussen-T/F 2676 29-06-2009 07:30:52 18.5 C 12.5 g/m*3 18.5 C 0 km/h
2677 29-06-2009 07:42:52 18.7 C 12.49 g/m*3 18.7 C 0 km/h
2678 29-06-2009 07:54:51 18.8 C 12.56 g/m*3 18.8 C 0 km/h
2679 29-06-2009 08:06:52 19.2 C 12.53 g/m*3 19.2 C 0 km/h
2680 29-06-2009 08:18:51 19.5 C 12.59 g/m*3 19.5 C 0 km/h
2681 29-06-2009 08:30:51 19.9 C 12.71 g/m*3 19.9 C 0 km/h
2682 29-06-2009 08:42:52 20.2 C 12.41 g/m*3 20.2 C 0 km/h
2683 29-06-2009 08:54:51 20.5 C 12.63 g/m*3 20.5 C 0 km/h
2684 29-06-2009 09:06:51 21.2 C 12.79 g/m*3 21.2 C 0 km/h
2685 29-06-2009 09:18:50 21.9 C 12.74 g/m*3 21.9 C 0 km/h
2686 29-06-2009 09:30:50 22.6 C 12.66 g/m*3 22.6 C 0 km/h
2687 29-06-2009 09:42:50 23.3 C 12.75 g/m*3 23.3 C 0 km/h
2688 29-06-2009 09:54:50 23.9 C 12.55 g/m*3 23.9 C 0 km/h
2689 29-06-2009 10:06:50 24.4 C 12.46 g/m*3 24.4 C 0 km/h
2690 29-06-2009 10:18:49 24.8 C 12.06 g/m*3 24.8 C 0 km/h
2691 29-06-2009 10:30:50 25.3 C 11.94 g/m*3 25.3 C 0 km/h
2692 29-06-2009 10:42:50 25.8 C 11.8 g/m*3 25.8 C 0 km/h
2693 29-06-2009 10:54:49 26.4 C 11.2 g/m*3 26.4 C 0 km/h
2694 29-06-2009 11:06:49 27 C 11.32 g/m*3 27 C 0 km/h
2695 29-06-2009 11:18:50 27.3 C 10.99 g/m*3 27.3 C 0 km/h
2696 29-06-2009 11:30:49 27.8 C 11.03 g/m*3 27.8 C 0 km/h
2697 29-06-2009 11:42:49 28.8 C 11.08 g/m*3 28.8 C 0 km/h
2698 29-06-2009 11:54:49 29.2 C 10.45 g/m*3 29.2 C 0 km/h
2699 29-06-2009 12:06:49 29.5 C 10.33 g/m*3 29.5 C 0 km/h
2700 29-06-2009 12:18:49 30.4 C 10.23 g/m*3 30.4 C 0 km/h
Sensor: Nr:Datum:Temp:Abs-Feuchte:Windchill:Wind:
Aussen-T/F 2701 29-06-2009 12:30:49 30.9 C 9.55 g/m*3 30.9 C 0 km/h
2702 29-06-2009 12:42:49 31 C 9.6 g/m*3 31 C 0 km/h
2703 29-06-2009 12:54:49 31.6 C 8.59 g/m*3 31.6 C 0 km/h
2704 29-06-2009 13:06:48 32 C 8.78 g/m*3 32 C 0 km/h
2705 29-06-2009 13:18:48 32.3 C 8.23 g/m*3 32.3 C 0 km/h
2706 29-06-2009 13:30:48 31.9 C 8.06 g/m*3 31.9 C 0 km/h
2707 29-06-2009 13:42:48 31.2 C 9.06 g/m*3 31.2 C 0 km/h
2708 29-06-2009 13:54:48 28.7 C 10.17 g/m*3 28.7 C 0 km/h
2709 29-06-2009 14:06:48 28.7 C 10.17 g/m*3 28.7 C 0 km/h
2710 29-06-2009 14:18:47 28.3 C 10.23 g/m*3 28.3 C 0 km/h
2711 29-06-2009 14:30:48 28.5 C 10.06 g/m*3 28.5 C 0 km/h
2712 29-06-2009 14:42:49 28.2 C 9.9 g/m*3 28.2 C 0 km/h
2713 29-06-2009 14:54:47 28.8 C 10.23 g/m*3 28.8 C 0 km/h
2714 29-06-2009 15:06:47 29.1 C 10.11 g/m*3 29.1 C 0 km/h
2715 29-06-2009 15:18:47 30 C 10.01 g/m*3 30 C 0 km/h
2716 29-06-2009 15:30:47 30.2 C 10.12 g/m*3 30.2 C 0 km/h
2717 29-06-2009 15:42:47 29.9 C 10.25 g/m*3 29.9 C 0 km/h
2718 29-06-2009 15:54:46 29.4 C 9.98 g/m*3 29.4 C 0 km/h
2719 29-06-2009 16:06:47 29.3 C 10.51 g/m*3 29.3 C 0 km/h
2720 29-06-2009 16:18:47 29.2 C 10.45 g/m*3 29.2 C 0 km/h
2721 29-06-2009 16:30:46 29.5 C 11.22 g/m*3 29.5 C 0 km/h
2722 29-06-2009 16:42:46 29.3 C 10.51 g/m*3 29.3 C 0 km/h
2723 29-06-2009 16:54:47 29.5 C 10.92 g/m*3 29.5 C 0 km/h
2724 29-06-2009 17:06:46 29.1 C 10.69 g/m*3 29.1 C 0 km/h
2725 29-06-2009 17:18:46 28.8 C 11.08 g/m*3 28.8 C 0 km/h
Sensor: Nr:Datum:Temp:Abs-Feuchte:Windchill:Wind:
Aussen-T/F 2726 29-06-2009 17:30:46 29 C 11.78 g/m*3 29 C 0 km/h
2727 29-06-2009 17:42:46 30.1 C 10.98 g/m*3 30.1 C 0 km/h
2728 29-06-2009 17:54:46 30.1 C 10.37 g/m*3 30.1 C 0 km/h
2729 29-06-2009 18:06:46 30.6 C 10.65 g/m*3 30.6 C 0 km/h
2730 29-06-2009 18:18:45 31.5 C 8.88 g/m*3 31.5 C 0 km/h
2731 29-06-2009 18:30:45 31.5 C 10.19 g/m*3 31.5 C 0 km/h
2732 29-06-2009 18:42:45 31.2 C 10.03 g/m*3 31.2 C 0 km/h
2733 29-06-2009 18:54:45 31.3 C 9.76 g/m*3 31.3 C 0 km/h
2734 29-06-2009 19:06:45 31.1 C 9.97 g/m*3 31.1 C 0 km/h
2735 29-06-2009 19:18:45 30.4 C 10.23 g/m*3 30.4 C 0 km/h
2736 29-06-2009 19:30:45 30.2 C 11.34 g/m*3 30.2 C 0 km/h
2737 29-06-2009 19:42:45 29.9 C 10.56 g/m*3 29.9 C 0 km/h
2738 29-06-2009 19:54:45 28.8 C 10.51 g/m*3 28.8 C 0 km/h
2739 29-06-2009 20:06:44 28.9 C 10.86 g/m*3 28.9 C 0 km/h
2740 29-06-2009 20:18:45 29 C 11.2 g/m*3 29 C 0 km/h
2741 29-06-2009 20:30:44 28.7 C 11.02 g/m*3 28.7 C 0 km/h
2742 29-06-2009 20:42:44 28.4 C 11.4 g/m*3 28.4 C 0 km/h
2743 29-06-2009 20:54:44 27.6 C 10.91 g/m*3 27.6 C 0 km/h
2744 29-06-2009 21:06:44 27.2 C 11.45 g/m*3 27.2 C 0 km/h
2745 29-06-2009 21:18:44 26.2 C 11.32 g/m*3 26.2 C 0 km/h
2746 29-06-2009 21:30:44 25.3 C 11.47 g/m*3 25.3 C 0 km/h
2747 29-06-2009 21:42:44 24.6 C 11.48 g/m*3 24.6 C 0 km/h
2748 29-06-2009 21:54:44 24.3 C 11.73 g/m*3 24.3 C 0 km/h
2749 29-06-2009 22:06:43 23.9 C 12.11 g/m*3 23.9 C 0 km/h
2750 29-06-2009 22:18:43 23.6 C 11.91 g/m*3 23.6 C 0 km/h
Sensor: Nr:Datum:Temp:Abs-Feuchte:Windchill:Wind:
Aussen-T/F 2751 29-06-2009 22:30:43 23.5 C 12.05 g/m*3 23.5 C 0 km/h
2752 29-06-2009 22:42:43 23.4 C 12.2 g/m*3 23.4 C 0 km/h
2753 29-06-2009 22:55:56 23.4 C 12.2 g/m*3 23.4 C 0 km/h
2754 29-06-2009 23:07:56 23.2 C 12.27 g/m*3 23.2 C 0 km/h
2755 29-06-2009 23:19:56 22.9 C 12.47 g/m*3 22.9 C 0 km/h
2756 29-06-2009 23:31:56 22.7 C 12.53 g/m*3 22.7 C 0 km/h
2757 29-06-2009 23:43:56 22.5 C 12.38 g/m*3 22.5 C 0 km/h
2758 29-06-2009 23:55:56 22.3 C 12.44 g/m*3 22.3 C 0 km/h
2759 30-06-2009 00:07:56 22 C 12.42 g/m*3 22 C 0 km/h
2760 30-06-2009 00:19:56 21.9 C 12.74 g/m*3 21.9 C 0 km/h
2761 30-06-2009 00:31:56 21.8 C 12.85 g/m*3 21.8 C 0 km/h
2762 30-06-2009 00:43:56 21.6 C 12.9 g/m*3 21.6 C 0 km/h
2763 30-06-2009 00:55:56 21.4 C 12.94 g/m*3 21.4 C 0 km/h
2764 30-06-2009 01:07:56 21.2 C 12.79 g/m*3 21.2 C 0 km/h
2765 30-06-2009 01:19:56 21 C 13.01 g/m*3 21 C 0 km/h
2766 30-06-2009 01:31:56 20.9 C 12.93 g/m*3 20.9 C 0 km/h
2767 30-06-2009 01:43:56 20.7 C 13.14 g/m*3 20.7 C 0 km/h
2768 30-06-2009 01:55:57 20.6 C 13.07 g/m*3 20.6 C 0 km/h
2769 30-06-2009 02:07:57 20.5 C 13.17 g/m*3 20.5 C 0 km/h
2770 30-06-2009 02:19:57 20.4 C 13.09 g/m*3 20.4 C 0 km/h
2771 30-06-2009 02:31:57 20.2 C 12.94 g/m*3 20.2 C 0 km/h
2772 30-06-2009 02:43:57 20 C 12.96 g/m*3 20 C 0 km/h
2773 30-06-2009 02:55:57 19.9 C 13.23 g/m*3 19.9 C 0 km/h
2774 30-06-2009 03:07:57 19.7 C 13.08 g/m*3 19.7 C 0 km/h
2775 30-06-2009 03:19:57 19.5 C 13.26 g/m*3 19.5 C 0 km/h
Sensor: Nr:Datum:Temp:Abs-Feuchte:Windchill:Wind:
Aussen-T/F 2776 30-06-2009 03:31:57 19.2 C 13.03 g/m*3 19.2 C 0 km/h
2777 30-06-2009 03:43:57 19.2 C 13.03 g/m*3 19.2 C 0 km/h
2778 30-06-2009 03:55:57 19.2 C 13.03 g/m*3 19.2 C 0 km/h
2779 30-06-2009 04:07:57 19.2 C 13.03 g/m*3 19.2 C 0 km/h
2780 30-06-2009 04:19:57 19 C 12.87 g/m*3 19 C 0 km/h
2781 30-06-2009 04:31:57 19 C 12.87 g/m*3 19 C 0 km/h
2782 30-06-2009 04:43:57 19.1 C 13.11 g/m*3 19.1 C 0 km/h
2783 30-06-2009 04:55:57 19.1 C 12.95 g/m*3 19.1 C 0 km/h
2784 30-06-2009 05:07:57 18.9 C 13.12 g/m*3 18.9 C 0 km/h
2785 30-06-2009 05:19:57 18.8 C 13.21 g/m*3 18.8 C 0 km/h
2786 30-06-2009 05:31:57 18.8 C 13.21 g/m*3 18.8 C 0 km/h
2787 30-06-2009 05:43:58 18.7 C 13.13 g/m*3 18.7 C 0 km/h
2788 30-06-2009 05:55:58 18.8 C 13.21 g/m*3 18.8 C 0 km/h
2789 30-06-2009 06:07:58 18.8 C 13.21 g/m*3 18.8 C 0 km/h
2790 30-06-2009 06:19:58 18.8 C 13.21 g/m*3 18.8 C 0 km/h
2791 30-06-2009 06:31:58 18.8 C 13.21 g/m*3 18.8 C 0 km/h
2792 30-06-2009 06:43:58 19.1 C 13.28 g/m*3 19.1 C 0 km/h
2793 30-06-2009 06:55:58 19.3 C 13.27 g/m*3 19.3 C 0 km/h
2794 30-06-2009 07:07:44 19.5 C 13.09 g/m*3 19.5 C 0 km/h
2795 30-06-2009 07:19:43 19.6 C 13.17 g/m*3 19.6 C 0 km/h
2796 30-06-2009 07:31:44 19.8 C 13.15 g/m*3 19.8 C 0 km/h
2797 30-06-2009 07:43:44 19.9 C 13.23 g/m*3 19.9 C 0 km/h
2798 30-06-2009 07:55:43 20.2 C 13.29 g/m*3 20.2 C 0 km/h
2799 30-06-2009 08:07:43 20.4 C 13.27 g/m*3 20.4 C 0 km/h
2800 30-06-2009 08:19:44 20.7 C 13.32 g/m*3 20.7 C 0 km/h
Sensor: Nr:Datum:Temp:Abs-Feuchte:Windchill:Wind:
Aussen-T/F 2801 30-06-2009 08:31:43 21.6 C 13.85 g/m*3 21.6 C 0 km/h
2802 30-06-2009 08:43:43 22.1 C 13.66 g/m*3 22.1 C 0 km/h
2803 30-06-2009 08:55:43 22.5 C 13.58 g/m*3 22.5 C 0 km/h
2804 30-06-2009 09:07:43 23 C 13.36 g/m*3 23 C 0 km/h
2805 30-06-2009 09:19:43 23.2 C 13.51 g/m*3 23.2 C 0 km/h
2806 30-06-2009 09:31:43 23.7 C 13.48 g/m*3 23.7 C 0 km/h
2807 30-06-2009 09:43:43 24.5 C 13.43 g/m*3 24.5 C 0 km/h
2808 30-06-2009 09:55:42 24.5 C 13.2 g/m*3 24.5 C 0 km/h
2809 30-06-2009 10:07:43 25 C 13.12 g/m*3 25 C 0 km/h
2810 30-06-2009 10:19:42 25.6 C 13.09 g/m*3 25.6 C 0 km/h
2811 30-06-2009 10:31:42 26 C 12.9 g/m*3 26 C 0 km/h
2812 30-06-2009 10:43:42 26.6 C 12.84 g/m*3 26.6 C 0 km/h
2813 30-06-2009 10:55:42 27.3 C 12.04 g/m*3 27.3 C 0 km/h
2814 30-06-2009 11:07:42 28.1 C 12.3 g/m*3 28.1 C 0 km/h
2815 30-06-2009 11:19:41 28.3 C 12.16 g/m*3 28.3 C 0 km/h
2816 30-06-2009 11:31:42 28.4 C 11.95 g/m*3 28.4 C 0 km/h
2817 30-06-2009 11:43:42 29.2 C 12.2 g/m*3 29.2 C 0 km/h
2818 30-06-2009 11:55:41 29.7 C 11.93 g/m*3 29.7 C 0 km/h
2819 30-06-2009 12:07:41 30.2 C 11.65 g/m*3 30.2 C 0 km/h
2820 30-06-2009 12:19:41 30.3 C 12.02 g/m*3 30.3 C 0 km/h
2821 30-06-2009 12:31:41 30.8 C 11.08 g/m*3 30.8 C 0 km/h
2822 30-06-2009 12:43:41 31.4 C 10.14 g/m*3 31.4 C 0 km/h
2823 30-06-2009 12:55:41 31.5 C 10.52 g/m*3 31.5 C 0 km/h
2824 30-06-2009 13:07:40 31.9 C 9.4 g/m*3 31.9 C 0 km/h
2825 30-06-2009 13:19:41 32 C 9.45 g/m*3 32 C 0 km/h
Sensor: Nr:Datum:Temp:Abs-Feuchte:Windchill:Wind:
Aussen-T/F 2826 30-06-2009 13:31:40 32.7 C 9.11 g/m*3 32.7 C 0 km/h
2827 30-06-2009 13:43:40 31.2 C 9.38 g/m*3 31.2 C 0 km/h
2828 30-06-2009 13:55:40 31.3 C 9.76 g/m*3 31.3 C 0 km/h
2829 30-06-2009 14:07:40 31.7 C 8.64 g/m*3 31.7 C 0 km/h
2830 30-06-2009 14:19:40 31.9 C 9.07 g/m*3 31.9 C 0 km/h
2831 30-06-2009 14:31:40 31.9 C 8.73 g/m*3 31.9 C 0 km/h
2832 30-06-2009 14:43:40 31.6 C 8.92 g/m*3 31.6 C 0 km/h
2833 30-06-2009 14:55:40 31 C 9.6 g/m*3 31 C 0 km/h
2834 30-06-2009 15:07:40 28.9 C 10.57 g/m*3 28.9 C 0 km/h
2835 30-06-2009 15:19:39 23.4 C 15.35 g/m*3 23.4 C 0 km/h
2836 30-06-2009 15:31:39 22.3 C 16.39 g/m*3 22.3 C 0 km/h
2837 30-06-2009 15:43:39 21 C 15.39 g/m*3 21 C 0 km/h
2838 30-06-2009 15:55:39 20.2 C 15.04 g/m*3 20.2 C 0 km/h
2839 30-06-2009 16:07:39 19.7 C 14.77 g/m*3 19.7 C 0 km/h
2840 30-06-2009 16:19:38 20 C 15.04 g/m*3 20 C 0 km/h
2841 30-06-2009 16:31:39 20.5 C 15.84 g/m*3 20.5 C 0 km/h
2842 30-06-2009 16:43:39 19.3 C 14.6 g/m*3 19.3 C 0 km/h
2843 30-06-2009 16:55:38 19.3 C 14.6 g/m*3 19.3 C 0 km/h
2844 30-06-2009 17:07:38 19.7 C 15.11 g/m*3 19.7 C 0 km/h
2845 30-06-2009 17:19:39 20 C 15.38 g/m*3 20 C 0 km/h
2846 30-06-2009 17:31:38 20.1 C 15.47 g/m*3 20.1 C 0 km/h
2847 30-06-2009 17:43:38 20.3 C 15.65 g/m*3 20.3 C 0 km/h
2848 30-06-2009 17:55:38 20.6 C 16.11 g/m*3 20.6 C 0 km/h
2849 30-06-2009 18:07:38 20.8 C 16.3 g/m*3 20.8 C 0 km/h
2850 30-06-2009 18:19:38 21.1 C 16.4 g/m*3 21.1 C 0 km/h
Sensor: Nr:Datum:Temp:Abs-Feuchte:Windchill:Wind:
Aussen-T/F 2851 30-06-2009 18:31:37 21.3 C 16.4 g/m*3 21.3 C 0 km/h
2852 30-06-2009 18:43:37 21.7 C 16.41 g/m*3 21.7 C 0 km/h
2853 30-06-2009 18:55:38 22 C 16.3 g/m*3 22 C 0 km/h
2854 30-06-2009 19:07:37 22 C 15.72 g/m*3 22 C 0 km/h
2855 30-06-2009 19:19:37 22.3 C 15.99 g/m*3 22.3 C 0 km/h
2856 30-06-2009 19:31:37 22.6 C 16.27 g/m*3 22.6 C 0 km/h
2857 30-06-2009 19:43:37 22.8 C 16.05 g/m*3 22.8 C 0 km/h
2858 30-06-2009 19:55:37 23.1 C 15.92 g/m*3 23.1 C 0 km/h
2859 30-06-2009 20:07:37 23.3 C 16.31 g/m*3 23.3 C 0 km/h
2860 30-06-2009 20:19:36 23.2 C 16.22 g/m*3 23.2 C 0 km/h
2861 30-06-2009 20:31:37 22.8 C 15.85 g/m*3 22.8 C 0 km/h
2862 30-06-2009 20:43:37 22.2 C 15.31 g/m*3 22.2 C 0 km/h
2863 30-06-2009 20:55:36 21.6 C 14.79 g/m*3 21.6 C 0 km/h
2864 30-06-2009 21:07:37 21 C 14.47 g/m*3 21 C 0 km/h
2865 30-06-2009 21:19:36 20.5 C 14.06 g/m*3 20.5 C 0 km/h
2866 30-06-2009 21:31:36 20 C 13.65 g/m*3 20 C 0 km/h
2867 30-06-2009 21:43:37 19.7 C 13.75 g/m*3 19.7 C 0 km/h
2868 30-06-2009 21:55:36 19.5 C 13.76 g/m*3 19.5 C 0 km/h
2869 30-06-2009 22:07:36 19.4 C 13.85 g/m*3 19.4 C 0 km/h
2870 30-06-2009 22:19:35 19.3 C 13.77 g/m*3 19.3 C 0 km/h
2871 30-06-2009 22:31:35 19.2 C 13.85 g/m*3 19.2 C 0 km/h
2872 30-06-2009 22:43:35 19.2 C 13.85 g/m*3 19.2 C 0 km/h
2873 30-06-2009 22:56:36 19.3 C 13.93 g/m*3 19.3 C 0 km/h
2874 30-06-2009 23:08:36 19.2 C 13.85 g/m*3 19.2 C 0 km/h
2875 30-06-2009 23:20:36 19.1 C 13.77 g/m*3 19.1 C 0 km/h
Sensor: Nr:Datum:Temp:Abs-Feuchte:Windchill:Wind:
Aussen-T/F 2876 30-06-2009 23:32:36 19 C 13.85 g/m*3 19 C 0 km/h
2877 30-06-2009 23:44:36 18.9 C 13.93 g/m*3 18.9 C 0 km/h
2878 30-06-2009 23:56:36 18.8 C 13.85 g/m*3 18.8 C 0 km/h
2879 01-07-2009 00:08:36 18.8 C 13.85 g/m*3 18.8 C 0 km/h
2880 01-07-2009 00:20:36 18.7 C 13.77 g/m*3 18.7 C 0 km/h
2881 01-07-2009 00:32:37 18.5 C 13.61 g/m*3 18.5 C 0 km/h
2882 01-07-2009 00:44:37 18.5 C 13.77 g/m*3 18.5 C 0 km/h
2883 01-07-2009 00:56:37 18.4 C 13.68 g/m*3 18.4 C 0 km/h
2884 01-07-2009 01:08:37 18.3 C 13.76 g/m*3 18.3 C 0 km/h
2885 01-07-2009 01:20:37 18.2 C 13.68 g/m*3 18.2 C 0 km/h
2886 01-07-2009 01:32:37 18.2 C 13.68 g/m*3 18.2 C 0 km/h
2887 01-07-2009 01:44:37 18.1 C 13.6 g/m*3 18.1 C 0 km/h
2888 01-07-2009 01:56:37 18.1 C 13.6 g/m*3 18.1 C 0 km/h
2889 01-07-2009 02:08:37 18.3 C 13.76 g/m*3 18.3 C 0 km/h
2890 01-07-2009 02:20:37 18.4 C 14 g/m*3 18.4 C 0 km/h
2891 01-07-2009 02:32:37 18.3 C 13.76 g/m*3 18.3 C 0 km/h
2892 01-07-2009 02:44:37 18.2 C 13.68 g/m*3 18.2 C 0 km/h
2893 01-07-2009 02:56:37 18.1 C 13.75 g/m*3 18.1 C 0 km/h
2894 01-07-2009 03:08:37 18.1 C 13.6 g/m*3 18.1 C 0 km/h
2895 01-07-2009 03:20:37 18 C 13.67 g/m*3 18 C 0 km/h
2896 01-07-2009 03:32:37 18 C 13.67 g/m*3 18 C 0 km/h
2897 01-07-2009 03:44:37 18.1 C 13.75 g/m*3 18.1 C 0 km/h
2898 01-07-2009 03:56:37 18.1 C 13.75 g/m*3 18.1 C 0 km/h
2899 01-07-2009 04:08:37 18.1 C 13.75 g/m*3 18.1 C 0 km/h
2900 01-07-2009 04:20:38 18 C 13.52 g/m*3 18 C 0 km/h
Sensor: Nr:Datum:Temp:Abs-Feuchte:Windchill:Wind:
Aussen-T/F 2901 01-07-2009 04:32:38 17.9 C 13.59 g/m*3 17.9 C 0 km/h
2902 01-07-2009 04:44:38 17.7 C 13.43 g/m*3 17.7 C 0 km/h
2903 01-07-2009 04:56:38 17.6 C 13.35 g/m*3 17.6 C 0 km/h
2904 01-07-2009 05:08:38 17.5 C 13.27 g/m*3 17.5 C 0 km/h
2905 01-07-2009 05:20:38 17.6 C 13.35 g/m*3 17.6 C 0 km/h
2906 01-07-2009 05:32:38 17.9 C 13.74 g/m*3 17.9 C 0 km/h
2907 01-07-2009 05:44:38 18 C 13.67 g/m*3 18 C 0 km/h
2908 01-07-2009 05:56:38 18 C 13.67 g/m*3 18 C 0 km/h
2909 01-07-2009 06:08:38 17.9 C 13.74 g/m*3 17.9 C 0 km/h
2910 01-07-2009 06:20:38 17.9 C 13.74 g/m*3 17.9 C 0 km/h
2911 01-07-2009 06:32:38 18.1 C 13.75 g/m*3 18.1 C 0 km/h
2912 01-07-2009 06:44:38 18.2 C 13.83 g/m*3 18.2 C 0 km/h
2913 01-07-2009 06:56:38 18.3 C 13.92 g/m*3 18.3 C 0 km/h
2914 01-07-2009 07:08:36 18.7 C 14.25 g/m*3 18.7 C 0 km/h
2915 01-07-2009 07:20:35 18.7 C 13.93 g/m*3 18.7 C 0 km/h
2916 01-07-2009 07:32:35 18.8 C 13.85 g/m*3 18.8 C 0 km/h
2917 01-07-2009 07:44:35 18.9 C 13.93 g/m*3 18.9 C 0 km/h
2918 01-07-2009 07:56:35 19 C 13.69 g/m*3 19 C 0 km/h
2919 01-07-2009 08:08:35 19.3 C 13.77 g/m*3 19.3 C 0 km/h
2920 01-07-2009 08:20:34 19.9 C 13.92 g/m*3 19.9 C 0 km/h
2921 01-07-2009 08:32:35 20.5 C 13.88 g/m*3 20.5 C 0 km/h
2922 01-07-2009 08:44:34 20.7 C 13.5 g/m*3 20.7 C 0 km/h
2923 01-07-2009 08:56:34 21.1 C 13.82 g/m*3 21.1 C 0 km/h
2924 01-07-2009 09:08:34 21.2 C 13.71 g/m*3 21.2 C 0 km/h
2925 01-07-2009 09:20:35 21.7 C 14.31 g/m*3 21.7 C 0 km/h
Sensor: Nr:Datum:Temp:Abs-Feuchte:Windchill:Wind:
Aussen-T/F 2926 01-07-2009 09:32:34 22.1 C 14.25 g/m*3 22.1 C 0 km/h
2927 01-07-2009 09:44:34 22.5 C 14.58 g/m*3 22.5 C 0 km/h
2928 01-07-2009 09:56:34 22.9 C 14.51 g/m*3 22.9 C 0 km/h
2929 01-07-2009 10:08:34 23.5 C 14.59 g/m*3 23.5 C 0 km/h
2930 01-07-2009 10:20:34 23.9 C 14.49 g/m*3 23.9 C 0 km/h
2931 01-07-2009 10:32:33 24.5 C 14.1 g/m*3 24.5 C 0 km/h
2932 01-07-2009 10:44:34 24.7 C 13.58 g/m*3 24.7 C 0 km/h
2933 01-07-2009 10:56:34 25.6 C 13.81 g/m*3 25.6 C 0 km/h
2934 01-07-2009 11:08:33 26 C 12.9 g/m*3 26 C 0 km/h
2935 01-07-2009 11:20:33 26.8 C 13.24 g/m*3 26.8 C 0 km/h
2936 01-07-2009 11:32:33 27.4 C 12.89 g/m*3 27.4 C 0 km/h
2937 01-07-2009 11:44:33 28.3 C 12.16 g/m*3 28.3 C 0 km/h
2938 01-07-2009 11:56:33 28.8 C 12.79 g/m*3 28.8 C 0 km/h
2939 01-07-2009 12:08:33 29.7 C 11.64 g/m*3 29.7 C 0 km/h
2940 01-07-2009 12:20:32 30.3 C 11.71 g/m*3 30.3 C 0 km/h
2941 01-07-2009 12:32:33 30.9 C 11.14 g/m*3 30.9 C 0 km/h
2942 01-07-2009 12:44:32 31 C 10.88 g/m*3 31 C 0 km/h
2943 01-07-2009 12:56:32 31.2 C 10.03 g/m*3 31.2 C 0 km/h
2944 01-07-2009 13:08:32 31.7 C 9.3 g/m*3 31.7 C 0 km/h
2945 01-07-2009 13:20:32 32.1 C 10.18 g/m*3 32.1 C 0 km/h
2946 01-07-2009 13:32:32 32.7 C 8.76 g/m*3 32.7 C 0 km/h
2947 01-07-2009 13:44:32 32.9 C 8.14 g/m*3 32.9 C 0 km/h
2948 01-07-2009 13:56:32 31.7 C 8.97 g/m*3 31.7 C 0 km/h
2949 01-07-2009 14:08:32 27.9 C 10.82 g/m*3 27.9 C 0 km/h
2950 01-07-2009 14:20:32 23.8 C 14.63 g/m*3 23.8 C 0 km/h
Sensor: Nr:Datum:Temp:Abs-Feuchte:Windchill:Wind:
Aussen-T/F 2951 01-07-2009 14:32:31 23.8 C 15.27 g/m*3 23.8 C 0 km/h
2952 01-07-2009 14:44:31 24.2 C 14.52 g/m*3 24.2 C 0 km/h
2953 01-07-2009 14:56:31 25 C 14.73 g/m*3 25 C 0 km/h
2954 01-07-2009 15:08:31 25.8 C 14.45 g/m*3 25.8 C 0 km/h
2955 01-07-2009 15:20:31 26.7 C 14.17 g/m*3 26.7 C 0 km/h
2956 01-07-2009 15:32:31 27.4 C 13.68 g/m*3 27.4 C 0 km/h
2957 01-07-2009 15:44:31 28.2 C 14.02 g/m*3 28.2 C 0 km/h
2958 01-07-2009 15:56:31 29.2 C 14.23 g/m*3 29.2 C 0 km/h
2959 01-07-2009 16:08:31 29.5 C 13.58 g/m*3 29.5 C 0 km/h
2960 01-07-2009 16:20:30 29.7 C 13.13 g/m*3 29.7 C 0 km/h
2961 01-07-2009 16:32:31 30.9 C 11.14 g/m*3 30.9 C 0 km/h
2962 01-07-2009 16:44:30 32.2 C 10.92 g/m*3 32.2 C 0 km/h
2963 01-07-2009 16:56:30 32.7 C 9.11 g/m*3 32.7 C 0 km/h
2964 01-07-2009 17:08:31 32.9 C 8.5 g/m*3 32.9 C 0 km/h
2965 01-07-2009 17:20:30 31.7 C 8.97 g/m*3 31.7 C 0 km/h
2966 01-07-2009 17:32:29 31.7 C 8.64 g/m*3 31.7 C 0 km/h
2967 01-07-2009 17:44:30 31.1 C 9.65 g/m*3 31.1 C 0 km/h
2968 01-07-2009 17:56:30 29.7 C 11.64 g/m*3 29.7 C 0 km/h
2969 01-07-2009 18:08:29 28.3 C 11.89 g/m*3 28.3 C 0 km/h
2970 01-07-2009 18:20:29 27.5 C 11.64 g/m*3 27.5 C 0 km/h
2971 01-07-2009 18:32:29 27 C 11.84 g/m*3 27 C 0 km/h
2972 01-07-2009 18:44:29 26.6 C 12.08 g/m*3 26.6 C 0 km/h
2973 01-07-2009 18:56:30 26.2 C 11.82 g/m*3 26.2 C 0 km/h
2974 01-07-2009 19:08:28 25.9 C 12.35 g/m*3 25.9 C 0 km/h
2975 01-07-2009 19:20:29 25.9 C 12.35 g/m*3 25.9 C 0 km/h
Sensor: Nr:Datum:Temp:Abs-Feuchte:Windchill:Wind:
Aussen-T/F 2976 01-07-2009 19:32:29 26 C 11.93 g/m*3 26 C 0 km/h
2977 01-07-2009 19:44:28 26.1 C 12.24 g/m*3 26.1 C 0 km/h
2978 01-07-2009 19:56:28 26.5 C 12.52 g/m*3 26.5 C 0 km/h
2979 01-07-2009 20:08:29 27 C 12.35 g/m*3 27 C 0 km/h
2980 01-07-2009 20:20:28 27.1 C 12.42 g/m*3 27.1 C 0 km/h
2981 01-07-2009 20:32:28 26.7 C 12.15 g/m*3 26.7 C 0 km/h
2982 01-07-2009 20:44:28 26.4 C 12.45 g/m*3 26.4 C 0 km/h
2983 01-07-2009 20:56:28 25.9 C 12.59 g/m*3 25.9 C 0 km/h
2984 01-07-2009 21:08:28 25.3 C 12.41 g/m*3 25.3 C 0 km/h
2985 01-07-2009 21:20:27 24.6 C 12.83 g/m*3 24.6 C 0 km/h
2986 01-07-2009 21:32:27 24.4 C 12.91 g/m*3 24.4 C 0 km/h
2987 01-07-2009 21:44:27 24.1 C 12.47 g/m*3 24.1 C 0 km/h
2988 01-07-2009 21:56:27 23.7 C 12.62 g/m*3 23.7 C 0 km/h
2989 01-07-2009 22:08:27 23.3 C 12.75 g/m*3 23.3 C 0 km/h
2990 01-07-2009 22:20:27 23.1 C 13.02 g/m*3 23.1 C 0 km/h
2991 01-07-2009 22:32:21 22.9 C 13.28 g/m*3 22.9 C 0 km/h
2992 01-07-2009 22:44:21 22.8 C 13.21 g/m*3 22.8 C 0 km/h
2993 01-07-2009 22:56:21 22.6 C 13.26 g/m*3 22.6 C 0 km/h
2994 01-07-2009 23:08:21 22.4 C 13.11 g/m*3 22.4 C 0 km/h
2995 01-07-2009 23:20:21 22.1 C 13.27 g/m*3 22.1 C 0 km/h
2996 01-07-2009 23:32:21 21.9 C 13.51 g/m*3 21.9 C 0 km/h
2997 01-07-2009 23:44:21 21.9 C 13.7 g/m*3 21.9 C 0 km/h
2998 01-07-2009 23:56:22 22 C 13.78 g/m*3 22 C 0 km/h
2999 02-07-2009 00:08:22 21.7 C 13.73 g/m*3 21.7 C 0 km/h
3000 02-07-2009 00:20:22 21.6 C 13.66 g/m*3 21.6 C 0 km/h
Sensor: Nr:Datum:Temp:Abs-Feuchte:Windchill:Wind:
Aussen-T/F 3001 02-07-2009 00:32:22 21.5 C 13.77 g/m*3 21.5 C 0 km/h
3002 02-07-2009 00:44:22 21.2 C 13.53 g/m*3 21.2 C 0 km/h
3003 02-07-2009 00:56:28 21.1 C 13.63 g/m*3 21.1 C 0 km/h
3004 02-07-2009 01:09:28 20.9 C 13.48 g/m*3 20.9 C 0 km/h
3005 02-07-2009 01:21:28 20.8 C 13.58 g/m*3 20.8 C 0 km/h
3006 02-07-2009 01:33:28 20.6 C 13.42 g/m*3 20.6 C 0 km/h
3007 02-07-2009 01:45:28 20.4 C 13.44 g/m*3 20.4 C 0 km/h
3008 02-07-2009 01:57:28 20.3 C 13.37 g/m*3 20.3 C 0 km/h
3009 02-07-2009 02:09:28 20.1 C 13.21 g/m*3 20.1 C 0 km/h
3010 02-07-2009 02:21:28 20 C 13.31 g/m*3 20 C 0 km/h
3011 02-07-2009 02:33:28 19.9 C 13.57 g/m*3 19.9 C 0 km/h
3012 02-07-2009 02:45:28 19.7 C 13.41 g/m*3 19.7 C 0 km/h
3013 02-07-2009 02:57:29 19.7 C 13.41 g/m*3 19.7 C 0 km/h
3014 02-07-2009 03:09:29 19.7 C 13.58 g/m*3 19.7 C 0 km/h
3015 02-07-2009 03:21:29 19.4 C 13.35 g/m*3 19.4 C 0 km/h
3016 02-07-2009 03:33:29 19.4 C 13.35 g/m*3 19.4 C 0 km/h
3017 02-07-2009 03:45:29 19.2 C 13.36 g/m*3 19.2 C 0 km/h
3018 02-07-2009 03:57:29 19 C 13.36 g/m*3 19 C 0 km/h
3019 02-07-2009 04:09:29 18.9 C 13.45 g/m*3 18.9 C 0 km/h
3020 02-07-2009 04:21:29 18.9 C 13.45 g/m*3 18.9 C 0 km/h
3021 02-07-2009 04:33:29 18.9 C 13.45 g/m*3 18.9 C 0 km/h
3022 02-07-2009 04:45:29 18.7 C 13.29 g/m*3 18.7 C 0 km/h
3023 02-07-2009 04:57:29 18.6 C 13.21 g/m*3 18.6 C 0 km/h
3024 02-07-2009 05:09:29 18.5 C 13.13 g/m*3 18.5 C 0 km/h
3025 02-07-2009 05:21:29 18.5 C 13.13 g/m*3 18.5 C 0 km/h
Sensor: Nr:Datum:Temp:Abs-Feuchte:Windchill:Wind:
Aussen-T/F 3026 02-07-2009 05:33:29 18.3 C 12.98 g/m*3 18.3 C 0 km/h
3027 02-07-2009 05:45:29 18.4 C 13.21 g/m*3 18.4 C 0 km/h
3028 02-07-2009 05:57:29 18.3 C 13.13 g/m*3 18.3 C 0 km/h
3029 02-07-2009 06:09:29 18.3 C 13.13 g/m*3 18.3 C 0 km/h
3030 02-07-2009 06:21:29 18.4 C 13.21 g/m*3 18.4 C 0 km/h
3031 02-07-2009 06:33:29 18.4 C 13.21 g/m*3 18.4 C 0 km/h
3032 02-07-2009 06:45:29 18.5 C 13.29 g/m*3 18.5 C 0 km/h
3033 02-07-2009 06:57:29 18.5 C 13.29 g/m*3 18.5 C 0 km/h
3034 02-07-2009 07:09:28 18.6 C 13.37 g/m*3 18.6 C 0 km/h
3035 02-07-2009 07:21:28 18.7 C 13.45 g/m*3 18.7 C 0 km/h
3036 02-07-2009 07:33:29 18.9 C 13.61 g/m*3 18.9 C 0 km/h
3037 02-07-2009 07:45:28 19.1 C 13.44 g/m*3 19.1 C 0 km/h
3038 02-07-2009 07:57:28 19.2 C 13.52 g/m*3 19.2 C 0 km/h
3039 02-07-2009 08:09:28 19.6 C 13.84 g/m*3 19.6 C 0 km/h
3040 02-07-2009 08:21:28 20 C 13.83 g/m*3 20 C 0 km/h
3041 02-07-2009 08:33:28 20.3 C 13.72 g/m*3 20.3 C 0 km/h
3042 02-07-2009 08:45:27 20.6 C 13.96 g/m*3 20.6 C 0 km/h
3043 02-07-2009 08:57:27 20.7 C 14.04 g/m*3 20.7 C 0 km/h
3044 02-07-2009 09:09:28 20.9 C 14.21 g/m*3 20.9 C 0 km/h
3045 02-07-2009 09:21:27 21 C 14.11 g/m*3 21 C 0 km/h
3046 02-07-2009 09:33:27 21.3 C 14.17 g/m*3 21.3 C 0 km/h
3047 02-07-2009 09:45:27 22 C 14.17 g/m*3 22 C 0 km/h
3048 02-07-2009 09:57:27 23.1 C 14.26 g/m*3 23.1 C 0 km/h
3049 02-07-2009 10:09:27 23.8 C 13.77 g/m*3 23.8 C 0 km/h
3050 02-07-2009 10:21:27 24.5 C 13.88 g/m*3 24.5 C 0 km/h
Sensor: Nr:Datum:Temp:Abs-Feuchte:Windchill:Wind:
Aussen-T/F 3051 02-07-2009 10:33:26 25.2 C 13.74 g/m*3 25.2 C 0 km/h
3052 02-07-2009 10:45:27 25.8 C 13.72 g/m*3 25.8 C 0 km/h
3053 02-07-2009 10:57:27 26.3 C 13.12 g/m*3 26.3 C 0 km/h
3054 02-07-2009 11:09:26 27 C 13.13 g/m*3 27 C 0 km/h
3055 02-07-2009 11:21:26 27.5 C 13.23 g/m*3 27.5 C 0 km/h
3056 02-07-2009 11:33:26 28.2 C 12.92 g/m*3 28.2 C 0 km/h
3057 02-07-2009 11:45:26 29 C 12.35 g/m*3 29 C 0 km/h
3058 02-07-2009 11:57:26 29.1 C 12.13 g/m*3 29.1 C 0 km/h
3059 02-07-2009 12:09:25 29.6 C 12.17 g/m*3 29.6 C 0 km/h
3060 02-07-2009 12:21:26 30 C 10.92 g/m*3 30 C 0 km/h
3061 02-07-2009 12:33:26 30.7 C 10.71 g/m*3 30.7 C 0 km/h
3062 02-07-2009 12:45:25 31.2 C 10.35 g/m*3 31.2 C 0 km/h
3063 02-07-2009 12:57:25 31.6 C 9.58 g/m*3 31.6 C 0 km/h
3064 02-07-2009 13:09:26 32 C 8.78 g/m*3 32 C 0 km/h
3065 02-07-2009 13:21:25 32.6 C 8.71 g/m*3 32.6 C 0 km/h
3066 02-07-2009 13:33:25 33.1 C 8.59 g/m*3 33.1 C 0 km/h
3067 02-07-2009 13:45:25 33.1 C 8.23 g/m*3 33.1 C 0 km/h
3068 02-07-2009 13:57:25 32.3 C 8.58 g/m*3 32.3 C 0 km/h
3069 02-07-2009 14:09:25 32.4 C 8.62 g/m*3 32.4 C 0 km/h
3070 02-07-2009 14:21:24 32.3 C 8.92 g/m*3 32.3 C 0 km/h
3071 02-07-2009 14:33:24 32 C 9.45 g/m*3 32 C 0 km/h
3072 02-07-2009 14:45:25 32.1 C 8.48 g/m*3 32.1 C 0 km/h
3073 02-07-2009 14:57:25 31.8 C 9.02 g/m*3 31.8 C 0 km/h
3074 02-07-2009 15:09:24 32.4 C 7.93 g/m*3 32.4 C 0 km/h
3075 02-07-2009 15:21:24 32.7 C 7.36 g/m*3 32.7 C 0 km/h
Sensor: Nr:Datum:Temp:Abs-Feuchte:Windchill:Wind:
Aussen-T/F 3076 02-07-2009 15:33:24 33.1 C 7.52 g/m*3 33.1 C 0 km/h
3077 02-07-2009 15:45:24 33.6 C 7.35 g/m*3 33.6 C 0 km/h
3078 02-07-2009 15:57:24 33.8 C 7.43 g/m*3 33.8 C 0 km/h
3079 02-07-2009 16:09:23 32.6 C 9.06 g/m*3 32.6 C 0 km/h
3080 02-07-2009 16:21:24 31.3 C 10.41 g/m*3 31.3 C 0 km/h
3081 02-07-2009 16:33:24 32.5 C 8.32 g/m*3 32.5 C 0 km/h
3082 02-07-2009 16:45:23 33.7 C 7.39 g/m*3 33.7 C 0 km/h
3083 02-07-2009 16:57:23 33.6 C 7.35 g/m*3 33.6 C 0 km/h
3084 02-07-2009 17:09:23 33.1 C 7.16 g/m*3 33.1 C 0 km/h
3085 02-07-2009 17:21:23 33.3 C 7.23 g/m*3 33.3 C 0 km/h
3086 02-07-2009 17:33:24 33.6 C 7.35 g/m*3 33.6 C 0 km/h
3087 02-07-2009 17:45:22 34 C 7.5 g/m*3 34 C 0 km/h
3088 02-07-2009 17:57:22 34.4 C 7.66 g/m*3 34.4 C 0 km/h
3089 02-07-2009 18:09:23 34.8 C 7.82 g/m*3 34.8 C 0 km/h
3090 02-07-2009 18:21:22 34.4 C 7.66 g/m*3 34.4 C 0 km/h
3091 02-07-2009 18:33:22 34.4 C 7.66 g/m*3 34.4 C 0 km/h
3092 02-07-2009 18:45:22 34.5 C 7.7 g/m*3 34.5 C 0 km/h
3093 02-07-2009 18:57:22 34.2 C 7.58 g/m*3 34.2 C 0 km/h
3094 02-07-2009 19:09:22 34.2 C 7.96 g/m*3 34.2 C 0 km/h
3095 02-07-2009 19:21:22 34 C 7.88 g/m*3 34 C 0 km/h
3096 02-07-2009 19:33:21 33.7 C 8.13 g/m*3 33.7 C 0 km/h
3097 02-07-2009 19:45:22 33.6 C 8.45 g/m*3 33.6 C 0 km/h
3098 02-07-2009 19:57:22 32.6 C 8.36 g/m*3 32.6 C 0 km/h
3099 02-07-2009 20:09:21 31.7 C 8.64 g/m*3 31.7 C 0 km/h
3100 02-07-2009 20:21:21 31.1 C 9.33 g/m*3 31.1 C 0 km/h
Sensor: Nr:Datum:Temp:Abs-Feuchte:Windchill:Wind:
Aussen-T/F 3101 02-07-2009 20:33:21 30.4 C 10.85 g/m*3 30.4 C 0 km/h
3102 02-07-2009 20:45:21 30 C 10.92 g/m*3 30 C 0 km/h
3103 02-07-2009 20:57:21 29 C 11.2 g/m*3 29 C 0 km/h
3104 02-07-2009 21:09:20 28.3 C 11.33 g/m*3 28.3 C 0 km/h
3105 02-07-2009 21:21:21 28 C 11.42 g/m*3 28 C 0 km/h
3106 02-07-2009 21:33:20 27.6 C 11.97 g/m*3 27.6 C 0 km/h
3107 02-07-2009 21:45:20 27.2 C 11.97 g/m*3 27.2 C 0 km/h
3108 02-07-2009 21:57:20 26.9 C 12.29 g/m*3 26.9 C 0 km/h
3109 02-07-2009 22:09:20 26.3 C 12.13 g/m*3 26.3 C 0 km/h
3110 02-07-2009 22:21:20 26.2 C 11.82 g/m*3 26.2 C 0 km/h
3111 02-07-2009 22:33:20 26 C 11.69 g/m*3 26 C 0 km/h
3112 02-07-2009 22:46:21 25.8 C 12.04 g/m*3 25.8 C 0 km/h
3113 02-07-2009 22:58:21 25.7 C 12.21 g/m*3 25.7 C 0 km/h
3114 02-07-2009 23:10:21 25.6 C 12.14 g/m*3 25.6 C 0 km/h
3115 02-07-2009 23:22:21 25.3 C 12.17 g/m*3 25.3 C 0 km/h
3116 02-07-2009 23:34:21 25 C 11.97 g/m*3 25 C 0 km/h
3117 02-07-2009 23:46:21 24.7 C 12 g/m*3 24.7 C 0 km/h
3118 02-07-2009 23:58:21 24.7 C 12.22 g/m*3 24.7 C 0 km/h
3119 03-07-2009 00:10:21 24.5 C 12.09 g/m*3 24.5 C 0 km/h
3120 03-07-2009 00:22:21 24 C 12.18 g/m*3 24 C 0 km/h
3121 03-07-2009 00:34:21 23.9 C 12.55 g/m*3 23.9 C 0 km/h
3122 03-07-2009 00:46:21 23.6 C 12.34 g/m*3 23.6 C 0 km/h
3123 03-07-2009 00:58:21 23.5 C 12.27 g/m*3 23.5 C 0 km/h
3124 03-07-2009 01:10:21 23.3 C 12.34 g/m*3 23.3 C 0 km/h
3125 03-07-2009 01:22:21 23.1 C 12.2 g/m*3 23.1 C 0 km/h
Sensor: Nr:Datum:Temp:Abs-Feuchte:Windchill:Wind:
Aussen-T/F 3126 03-07-2009 01:34:21 23 C 12.54 g/m*3 23 C 0 km/h
3127 03-07-2009 01:46:21 22.8 C 12.6 g/m*3 22.8 C 0 km/h
3128 03-07-2009 01:58:21 22.5 C 12.58 g/m*3 22.5 C 0 km/h
3129 03-07-2009 02:10:21 22.5 C 12.58 g/m*3 22.5 C 0 km/h
3130 03-07-2009 02:22:21 22.1 C 12.69 g/m*3 22.1 C 0 km/h
3131 03-07-2009 02:34:22 22 C 12.62 g/m*3 22 C 0 km/h
3132 03-07-2009 02:46:22 21.7 C 12.59 g/m*3 21.7 C 0 km/h
3133 03-07-2009 02:58:22 21.6 C 12.71 g/m*3 21.6 C 0 km/h
3134 03-07-2009 03:10:22 21.5 C 12.82 g/m*3 21.5 C 0 km/h
3135 03-07-2009 03:22:22 21.5 C 12.82 g/m*3 21.5 C 0 km/h
3136 03-07-2009 03:34:22 21.5 C 12.63 g/m*3 21.5 C 0 km/h
3137 03-07-2009 03:46:22 21.3 C 12.68 g/m*3 21.3 C 0 km/h
3138 03-07-2009 03:58:22 21 C 12.64 g/m*3 21 C 0 km/h
3139 03-07-2009 04:10:22 20.8 C 12.86 g/m*3 20.8 C 0 km/h
3140 03-07-2009 04:22:22 20.6 C 12.89 g/m*3 20.6 C 0 km/h
3141 03-07-2009 04:34:22 20.5 C 12.81 g/m*3 20.5 C 0 km/h
3142 03-07-2009 04:46:22 20.3 C 12.84 g/m*3 20.3 C 0 km/h
3143 03-07-2009 04:58:22 20.4 C 12.91 g/m*3 20.4 C 0 km/h
3144 03-07-2009 05:10:22 20.2 C 12.94 g/m*3 20.2 C 0 km/h
3145 03-07-2009 05:22:22 20.1 C 12.86 g/m*3 20.1 C 0 km/h
3146 03-07-2009 05:34:22 20 C 12.79 g/m*3 20 C 0 km/h
3147 03-07-2009 05:46:22 20 C 12.79 g/m*3 20 C 0 km/h
3148 03-07-2009 05:58:22 19.9 C 12.89 g/m*3 19.9 C 0 km/h
3149 03-07-2009 06:10:22 20 C 12.96 g/m*3 20 C 0 km/h
3150 03-07-2009 06:22:23 20.2 C 13.11 g/m*3 20.2 C 0 km/h
Sensor: Nr:Datum:Temp:Abs-Feuchte:Windchill:Wind:
Aussen-T/F 3151 03-07-2009 06:34:23 20 C 12.96 g/m*3 20 C 0 km/h
3152 03-07-2009 06:46:23 20 C 12.96 g/m*3 20 C 0 km/h
3153 03-07-2009 06:58:23 20.1 C 13.21 g/m*3 20.1 C 0 km/h
3154 03-07-2009 07:10:21 20.1 C 13.21 g/m*3 20.1 C 0 km/h
3155 03-07-2009 07:22:20 20.1 C 13.21 g/m*3 20.1 C 0 km/h
3156 03-07-2009 07:34:21 20.4 C 13.44 g/m*3 20.4 C 0 km/h
3157 03-07-2009 07:46:20 20.6 C 13.42 g/m*3 20.6 C 0 km/h
3158 03-07-2009 07:58:20 20.7 C 13.5 g/m*3 20.7 C 0 km/h
3159 03-07-2009 08:10:20 21.1 C 13.45 g/m*3 21.1 C 0 km/h
3160 03-07-2009 08:22:20 21.4 C 13.31 g/m*3 21.4 C 0 km/h
3161 03-07-2009 08:34:20 21.9 C 13.51 g/m*3 21.9 C 0 km/h
3162 03-07-2009 08:46:19 22.4 C 13.5 g/m*3 22.4 C 0 km/h
3163 03-07-2009 08:58:19 22.9 C 13.49 g/m*3 22.9 C 0 km/h
3164 03-07-2009 09:10:20 23.5 C 13.53 g/m*3 23.5 C 0 km/h
3165 03-07-2009 09:22:20 24.1 C 13.57 g/m*3 24.1 C 0 km/h
3166 03-07-2009 09:34:19 24.7 C 13.13 g/m*3 24.7 C 0 km/h
3167 03-07-2009 09:46:20 25.3 C 13.34 g/m*3 25.3 C 0 km/h
3168 03-07-2009 09:58:20 25.9 C 13.32 g/m*3 25.9 C 0 km/h
3169 03-07-2009 10:10:19 26.4 C 13.19 g/m*3 26.4 C 0 km/h
3170 03-07-2009 10:22:19 27.1 C 12.94 g/m*3 27.1 C 0 km/h
3171 03-07-2009 10:34:19 27.6 C 12.5 g/m*3 27.6 C 0 km/h
3172 03-07-2009 10:46:19 28.2 C 12.37 g/m*3 28.2 C 0 km/h
3173 03-07-2009 10:58:19 28.4 C 12.23 g/m*3 28.4 C 0 km/h
3174 03-07-2009 11:10:18 28.9 C 12 g/m*3 28.9 C 0 km/h
3175 03-07-2009 11:22:19 29.4 C 12.04 g/m*3 29.4 C 0 km/h
Sensor: Nr:Datum:Temp:Abs-Feuchte:Windchill:Wind:
Aussen-T/F 3176 03-07-2009 11:34:19 30 C 11.52 g/m*3 30 C 0 km/h
3177 03-07-2009 11:46:18 30.2 C 11.65 g/m*3 30.2 C 0 km/h
3178 03-07-2009 11:58:18 30.6 C 10.96 g/m*3 30.6 C 0 km/h
3179 03-07-2009 12:10:18 31.3 C 11.06 g/m*3 31.3 C 0 km/h
3180 03-07-2009 12:22:18 31.5 C 9.86 g/m*3 31.5 C 0 km/h
3181 03-07-2009 12:34:18 32 C 9.45 g/m*3 32 C 0 km/h
3182 03-07-2009 12:46:18 32.4 C 8.62 g/m*3 32.4 C 0 km/h
3183 03-07-2009 12:58:18 32.9 C 8.14 g/m*3 32.9 C 0 km/h
3184 03-07-2009 13:10:18 31.8 C 9.35 g/m*3 31.8 C 0 km/h
3185 03-07-2009 13:22:17 31.2 C 11.32 g/m*3 31.2 C 0 km/h
3186 03-07-2009 13:34:17 30.1 C 11.89 g/m*3 30.1 C 0 km/h
3187 03-07-2009 13:46:17 27.5 C 12.7 g/m*3 27.5 C 0 km/h
3188 03-07-2009 13:58:17 23.7 C 14.76 g/m*3 23.7 C 0 km/h
3189 03-07-2009 14:10:17 23 C 14.59 g/m*3 23 C 0 km/h
3190 03-07-2009 14:22:16 22.5 C 13.58 g/m*3 22.5 C 0 km/h
3191 03-07-2009 14:34:17 21.9 C 12.74 g/m*3 21.9 C 0 km/h
3192 03-07-2009 14:46:13 21.8 C 12.85 g/m*3 21.8 C 0 km/h
3193 03-07-2009 14:58:13 20.7 C 13.86 g/m*3 20.7 C 0 km/h
3194 03-07-2009 15:10:13 20.1 C 14.25 g/m*3 20.1 C 0 km/h
3195 03-07-2009 15:22:02 20.1 C 14.6 g/m*3 20.1 C 0 km/h
3196 03-07-2009 15:34:02 20.1 C 14.78 g/m*3 20.1 C 0 km/h
3197 03-07-2009 15:46:02 20.5 C 15.3 g/m*3 20.5 C 0 km/h
3198 03-07-2009 15:58:03 20.7 C 15.66 g/m*3 20.7 C 0 km/h
3199 03-07-2009 16:10:01 20.9 C 15.84 g/m*3 20.9 C 0 km/h
3200 03-07-2009 16:22:02 20.9 C 15.84 g/m*3 20.9 C 0 km/h
Sensor: Nr:Datum:Temp:Abs-Feuchte:Windchill:Wind:
Aussen-T/F 3201 03-07-2009 16:34:02 20.8 C 15.21 g/m*3 20.8 C 0 km/h
3202 03-07-2009 16:46:01 20.7 C 14.58 g/m*3 20.7 C 0 km/h
3203 03-07-2009 16:58:01 20.8 C 14.67 g/m*3 20.8 C 0 km/h
3204 03-07-2009 17:10:01 21 C 14.84 g/m*3 21 C 0 km/h
3205 03-07-2009 17:22:01 21.7 C 14.88 g/m*3 21.7 C 0 km/h
3206 03-07-2009 17:34:01 21.9 C 14.86 g/m*3 21.9 C 0 km/h
3207 03-07-2009 17:46:00 22.4 C 14.89 g/m*3 22.4 C 0 km/h
3208 03-07-2009 17:58:00 22.7 C 14.75 g/m*3 22.7 C 0 km/h
3209 03-07-2009 18:10:01 23.8 C 14.63 g/m*3 23.8 C 0 km/h
3210 03-07-2009 18:22:00 23.9 C 14.28 g/m*3 23.9 C 0 km/h
3211 03-07-2009 18:34:00 25.6 C 14.28 g/m*3 25.6 C 0 km/h
3212 03-07-2009 18:46:00 26.6 C 13.59 g/m*3 26.6 C 0 km/h
3213 03-07-2009 18:58:00 26.4 C 13.94 g/m*3 26.4 C 0 km/h
3214 03-07-2009 19:10:00 26.5 C 13.77 g/m*3 26.5 C 0 km/h
3215 03-07-2009 19:22:00 26.3 C 13.62 g/m*3 26.3 C 0 km/h
3216 03-07-2009 19:34:59 26.4 C 13.69 g/m*3 26.4 C 0 km/h
3217 03-07-2009 19:46:00 26.3 C 13.62 g/m*3 26.3 C 0 km/h
3218 03-07-2009 19:58:00 25.4 C 14.13 g/m*3 25.4 C 0 km/h
3219 03-07-2009 20:10:59 24.5 C 14.1 g/m*3 24.5 C 0 km/h
3220 03-07-2009 20:22:59 23.9 C 14.49 g/m*3 23.9 C 0 km/h
3221 03-07-2009 20:34:59 23.6 C 14.68 g/m*3 23.6 C 0 km/h
3222 03-07-2009 20:46:59 23.4 C 14.72 g/m*3 23.4 C 0 km/h
3223 03-07-2009 20:59:00 23.1 C 14.47 g/m*3 23.1 C 0 km/h